<?xml version="1.0" encoding="UTF-8" standalone="no" ?>
<gpx xmlns="http://www.topografix.com/GPX/1/1" xmlns:xsi="http://www.w3.org/2001/XMLSchema-instance" xsi:schemaLocation="http://www.topografix.com/GPX/1/1 http://www.topografix.com/GPX/1/1/gpx.xsd" version="1.1" creator="VisuGPX - https://www.visugpx.com">
  <metadata>
    <name>Le mont Aurélien</name>
  </metadata>
  <trk>
    <name><![CDATA[23/02/2021 08:54:52  Le mont Aurélien]]></name>
    <extensions>
      <line xmlns="http://www.topografix.com/GPX/gpx_style/0/2">
        <color>0000FF</color>
        <width>4</width>
      </line>
    </extensions>
    <trkseg>
      <trkpt lat="43.45544" lon="5.79095">
        <ele>472.20001220703</ele>
        <time>2021-02-23T07:54:52Z</time>
      </trkpt>
      <trkpt lat="43.45544" lon="5.79095">
        <ele>472</ele>
        <time>2021-02-23T07:54:53Z</time>
      </trkpt>
      <trkpt lat="43.45541" lon="5.79095">
        <ele>471.79998779297</ele>
        <time>2021-02-23T07:55:25Z</time>
      </trkpt>
      <trkpt lat="43.45546" lon="5.7909">
        <ele>471.79998779297</ele>
        <time>2021-02-23T07:55:45Z</time>
      </trkpt>
      <trkpt lat="43.45544" lon="5.79081">
        <ele>471.60000610352</ele>
        <time>2021-02-23T07:56:07Z</time>
      </trkpt>
      <trkpt lat="43.45532" lon="5.79066">
        <ele>473.39999389648</ele>
        <time>2021-02-23T07:56:29Z</time>
      </trkpt>
      <trkpt lat="43.45526" lon="5.79056">
        <ele>475.79998779297</ele>
        <time>2021-02-23T07:56:45Z</time>
      </trkpt>
      <trkpt lat="43.45525" lon="5.79055">
        <ele>477.60000610352</ele>
        <time>2021-02-23T07:57:03Z</time>
      </trkpt>
      <trkpt lat="43.45531" lon="5.79058">
        <ele>477</ele>
        <time>2021-02-23T07:57:09Z</time>
      </trkpt>
      <trkpt lat="43.45539" lon="5.79072">
        <ele>475.79998779297</ele>
        <time>2021-02-23T07:57:27Z</time>
      </trkpt>
      <trkpt lat="43.4554" lon="5.79073">
        <ele>475.60000610352</ele>
        <time>2021-02-23T07:57:28Z</time>
      </trkpt>
      <trkpt lat="43.4555" lon="5.79073">
        <ele>472.79998779297</ele>
        <time>2021-02-23T07:57:41Z</time>
      </trkpt>
      <trkpt lat="43.45551" lon="5.79068">
        <ele>472.60000610352</ele>
        <time>2021-02-23T07:57:44Z</time>
      </trkpt>
      <trkpt lat="43.45551" lon="5.79054">
        <ele>471.79998779297</ele>
        <time>2021-02-23T07:57:53Z</time>
      </trkpt>
      <trkpt lat="43.45551" lon="5.79051">
        <ele>471.79998779297</ele>
        <time>2021-02-23T07:57:55Z</time>
      </trkpt>
      <trkpt lat="43.45551" lon="5.79044">
        <ele>472</ele>
        <time>2021-02-23T07:58:00Z</time>
      </trkpt>
      <trkpt lat="43.45555" lon="5.79027">
        <ele>472.39999389648</ele>
        <time>2021-02-23T07:58:11Z</time>
      </trkpt>
      <trkpt lat="43.45557" lon="5.79021">
        <ele>472.39999389648</ele>
        <time>2021-02-23T07:58:17Z</time>
      </trkpt>
      <trkpt lat="43.4556" lon="5.79022">
        <ele>472.39999389648</ele>
        <time>2021-02-23T07:58:19Z</time>
      </trkpt>
      <trkpt lat="43.45563" lon="5.7902">
        <ele>472.39999389648</ele>
        <time>2021-02-23T07:58:21Z</time>
      </trkpt>
      <trkpt lat="43.45567" lon="5.78994">
        <ele>472.39999389648</ele>
        <time>2021-02-23T07:58:39Z</time>
      </trkpt>
      <trkpt lat="43.45567" lon="5.78969">
        <ele>472.39999389648</ele>
        <time>2021-02-23T07:58:52Z</time>
      </trkpt>
      <trkpt lat="43.45568" lon="5.78964">
        <ele>472.60000610352</ele>
        <time>2021-02-23T07:58:56Z</time>
      </trkpt>
      <trkpt lat="43.45571" lon="5.78944">
        <ele>473.20001220703</ele>
        <time>2021-02-23T07:59:12Z</time>
      </trkpt>
      <trkpt lat="43.4557" lon="5.78939">
        <ele>473.20001220703</ele>
        <time>2021-02-23T07:59:15Z</time>
      </trkpt>
      <trkpt lat="43.45572" lon="5.78935">
        <ele>473.39999389648</ele>
        <time>2021-02-23T07:59:18Z</time>
      </trkpt>
      <trkpt lat="43.45573" lon="5.7893">
        <ele>473.39999389648</ele>
        <time>2021-02-23T07:59:22Z</time>
      </trkpt>
      <trkpt lat="43.45574" lon="5.78915">
        <ele>473.20001220703</ele>
        <time>2021-02-23T07:59:30Z</time>
      </trkpt>
      <trkpt lat="43.45574" lon="5.78904">
        <ele>473.20001220703</ele>
        <time>2021-02-23T07:59:38Z</time>
      </trkpt>
      <trkpt lat="43.45568" lon="5.78881">
        <ele>473.60000610352</ele>
        <time>2021-02-23T07:59:56Z</time>
      </trkpt>
      <trkpt lat="43.45549" lon="5.78874">
        <ele>475.20001220703</ele>
        <time>2021-02-23T08:00:14Z</time>
      </trkpt>
      <trkpt lat="43.45528" lon="5.7887">
        <ele>475.79998779297</ele>
        <time>2021-02-23T08:00:29Z</time>
      </trkpt>
      <trkpt lat="43.45515" lon="5.78857">
        <ele>476.39999389648</ele>
        <time>2021-02-23T08:00:40Z</time>
      </trkpt>
      <trkpt lat="43.45511" lon="5.78852">
        <ele>476.79998779297</ele>
        <time>2021-02-23T08:00:44Z</time>
      </trkpt>
      <trkpt lat="43.455" lon="5.78835">
        <ele>478</ele>
        <time>2021-02-23T08:00:58Z</time>
      </trkpt>
      <trkpt lat="43.45494" lon="5.78812">
        <ele>481.20001220703</ele>
        <time>2021-02-23T08:01:16Z</time>
      </trkpt>
      <trkpt lat="43.45492" lon="5.78794">
        <ele>484.39999389648</ele>
        <time>2021-02-23T08:01:31Z</time>
      </trkpt>
      <trkpt lat="43.45488" lon="5.78776">
        <ele>486.60000610352</ele>
        <time>2021-02-23T08:01:46Z</time>
      </trkpt>
      <trkpt lat="43.45492" lon="5.78757">
        <ele>489.79998779297</ele>
        <time>2021-02-23T08:02:02Z</time>
      </trkpt>
      <trkpt lat="43.45492" lon="5.78744">
        <ele>491.20001220703</ele>
        <time>2021-02-23T08:02:13Z</time>
      </trkpt>
      <trkpt lat="43.45489" lon="5.78735">
        <ele>492</ele>
        <time>2021-02-23T08:02:20Z</time>
      </trkpt>
      <trkpt lat="43.45479" lon="5.78714">
        <ele>494.60000610352</ele>
        <time>2021-02-23T08:02:39Z</time>
      </trkpt>
      <trkpt lat="43.45478" lon="5.78708">
        <ele>494.79998779297</ele>
        <time>2021-02-23T08:02:42Z</time>
      </trkpt>
      <trkpt lat="43.45482" lon="5.78692">
        <ele>495.60000610352</ele>
        <time>2021-02-23T08:02:58Z</time>
      </trkpt>
      <trkpt lat="43.45481" lon="5.7868">
        <ele>496</ele>
        <time>2021-02-23T08:03:13Z</time>
      </trkpt>
      <trkpt lat="43.45487" lon="5.78663">
        <ele>496.39999389648</ele>
        <time>2021-02-23T08:03:28Z</time>
      </trkpt>
      <trkpt lat="43.45488" lon="5.78663">
        <ele>496.79998779297</ele>
        <time>2021-02-23T08:03:47Z</time>
      </trkpt>
      <trkpt lat="43.45477" lon="5.78667">
        <ele>496.60000610352</ele>
        <time>2021-02-23T08:03:56Z</time>
      </trkpt>
      <trkpt lat="43.4547" lon="5.78662">
        <ele>497.39999389648</ele>
        <time>2021-02-23T08:04:11Z</time>
      </trkpt>
      <trkpt lat="43.45466" lon="5.78645">
        <ele>500.60000610352</ele>
        <time>2021-02-23T08:04:30Z</time>
      </trkpt>
      <trkpt lat="43.45464" lon="5.7863">
        <ele>503.60000610352</ele>
        <time>2021-02-23T08:04:46Z</time>
      </trkpt>
      <trkpt lat="43.4546" lon="5.78618">
        <ele>506.79998779297</ele>
        <time>2021-02-23T08:05:02Z</time>
      </trkpt>
      <trkpt lat="43.45453" lon="5.78608">
        <ele>509.79998779297</ele>
        <time>2021-02-23T08:05:25Z</time>
      </trkpt>
      <trkpt lat="43.45444" lon="5.78608">
        <ele>512</ele>
        <time>2021-02-23T08:06:00Z</time>
      </trkpt>
      <trkpt lat="43.45437" lon="5.7861">
        <ele>515.20001220703</ele>
        <time>2021-02-23T08:06:14Z</time>
      </trkpt>
      <trkpt lat="43.4543" lon="5.78604">
        <ele>518.40002441406</ele>
        <time>2021-02-23T08:06:35Z</time>
      </trkpt>
      <trkpt lat="43.45427" lon="5.78605">
        <ele>519.59997558594</ele>
        <time>2021-02-23T08:06:46Z</time>
      </trkpt>
      <trkpt lat="43.45429" lon="5.78604">
        <ele>519.79998779297</ele>
        <time>2021-02-23T08:06:54Z</time>
      </trkpt>
      <trkpt lat="43.45442" lon="5.78609">
        <ele>518.40002441406</ele>
        <time>2021-02-23T08:07:17Z</time>
      </trkpt>
      <trkpt lat="43.4545" lon="5.7861">
        <ele>515.20001220703</ele>
        <time>2021-02-23T08:07:30Z</time>
      </trkpt>
      <trkpt lat="43.45458" lon="5.78614">
        <ele>513</ele>
        <time>2021-02-23T08:07:52Z</time>
      </trkpt>
      <trkpt lat="43.45466" lon="5.78604">
        <ele>510</ele>
        <time>2021-02-23T08:08:01Z</time>
      </trkpt>
      <trkpt lat="43.45476" lon="5.78596">
        <ele>509.39999389648</ele>
        <time>2021-02-23T08:08:10Z</time>
      </trkpt>
      <trkpt lat="43.45484" lon="5.7859">
        <ele>508.60000610352</ele>
        <time>2021-02-23T08:08:28Z</time>
      </trkpt>
      <trkpt lat="43.45485" lon="5.78575">
        <ele>508.79998779297</ele>
        <time>2021-02-23T08:08:48Z</time>
      </trkpt>
      <trkpt lat="43.45476" lon="5.78548">
        <ele>511.79998779297</ele>
        <time>2021-02-23T08:09:09Z</time>
      </trkpt>
      <trkpt lat="43.45473" lon="5.78536">
        <ele>515</ele>
        <time>2021-02-23T08:09:26Z</time>
      </trkpt>
      <trkpt lat="43.45469" lon="5.78525">
        <ele>517.79998779297</ele>
        <time>2021-02-23T08:09:42Z</time>
      </trkpt>
      <trkpt lat="43.45465" lon="5.78509">
        <ele>521</ele>
        <time>2021-02-23T08:09:59Z</time>
      </trkpt>
      <trkpt lat="43.45462" lon="5.78488">
        <ele>524.20001220703</ele>
        <time>2021-02-23T08:10:22Z</time>
      </trkpt>
      <trkpt lat="43.45456" lon="5.78482">
        <ele>525</ele>
        <time>2021-02-23T08:10:44Z</time>
      </trkpt>
      <trkpt lat="43.45452" lon="5.78466">
        <ele>527</ele>
        <time>2021-02-23T08:11:06Z</time>
      </trkpt>
      <trkpt lat="43.45449" lon="5.78453">
        <ele>530.20001220703</ele>
        <time>2021-02-23T08:11:23Z</time>
      </trkpt>
      <trkpt lat="43.45442" lon="5.78435">
        <ele>533.20001220703</ele>
        <time>2021-02-23T08:11:46Z</time>
      </trkpt>
      <trkpt lat="43.45437" lon="5.78417">
        <ele>536.20001220703</ele>
        <time>2021-02-23T08:12:05Z</time>
      </trkpt>
      <trkpt lat="43.45433" lon="5.78399">
        <ele>539.20001220703</ele>
        <time>2021-02-23T08:12:26Z</time>
      </trkpt>
      <trkpt lat="43.45423" lon="5.78386">
        <ele>542.20001220703</ele>
        <time>2021-02-23T08:12:45Z</time>
      </trkpt>
      <trkpt lat="43.45424" lon="5.7837">
        <ele>545.20001220703</ele>
        <time>2021-02-23T08:13:06Z</time>
      </trkpt>
      <trkpt lat="43.45429" lon="5.78357">
        <ele>548.40002441406</ele>
        <time>2021-02-23T08:13:25Z</time>
      </trkpt>
      <trkpt lat="43.45433" lon="5.78351">
        <ele>550.40002441406</ele>
        <time>2021-02-23T08:13:49Z</time>
      </trkpt>
      <trkpt lat="43.4543" lon="5.78349">
        <ele>550.20001220703</ele>
        <time>2021-02-23T08:14:04Z</time>
      </trkpt>
      <trkpt lat="43.45433" lon="5.78348">
        <ele>551</ele>
        <time>2021-02-23T08:14:45Z</time>
      </trkpt>
      <trkpt lat="43.45438" lon="5.78332">
        <ele>552.59997558594</ele>
        <time>2021-02-23T08:15:07Z</time>
      </trkpt>
      <trkpt lat="43.45434" lon="5.78315">
        <ele>555.59997558594</ele>
        <time>2021-02-23T08:15:25Z</time>
      </trkpt>
      <trkpt lat="43.45426" lon="5.78304">
        <ele>558.79998779297</ele>
        <time>2021-02-23T08:15:42Z</time>
      </trkpt>
      <trkpt lat="43.45424" lon="5.7829">
        <ele>562</ele>
        <time>2021-02-23T08:16:03Z</time>
      </trkpt>
      <trkpt lat="43.45428" lon="5.78274">
        <ele>564.79998779297</ele>
        <time>2021-02-23T08:16:25Z</time>
      </trkpt>
      <trkpt lat="43.45429" lon="5.7826">
        <ele>568</ele>
        <time>2021-02-23T08:16:43Z</time>
      </trkpt>
      <trkpt lat="43.45431" lon="5.78247">
        <ele>571.20001220703</ele>
        <time>2021-02-23T08:17:02Z</time>
      </trkpt>
      <trkpt lat="43.45438" lon="5.78233">
        <ele>574.20001220703</ele>
        <time>2021-02-23T08:17:23Z</time>
      </trkpt>
      <trkpt lat="43.45442" lon="5.78219">
        <ele>577.20001220703</ele>
        <time>2021-02-23T08:17:42Z</time>
      </trkpt>
      <trkpt lat="43.45446" lon="5.78199">
        <ele>580.40002441406</ele>
        <time>2021-02-23T08:18:08Z</time>
      </trkpt>
      <trkpt lat="43.45453" lon="5.78186">
        <ele>583.40002441406</ele>
        <time>2021-02-23T08:18:28Z</time>
      </trkpt>
      <trkpt lat="43.45446" lon="5.78166">
        <ele>586.40002441406</ele>
        <time>2021-02-23T08:18:50Z</time>
      </trkpt>
      <trkpt lat="43.45441" lon="5.7815">
        <ele>589</ele>
        <time>2021-02-23T08:19:13Z</time>
      </trkpt>
      <trkpt lat="43.45446" lon="5.78128">
        <ele>592.20001220703</ele>
        <time>2021-02-23T08:19:37Z</time>
      </trkpt>
      <trkpt lat="43.4545" lon="5.78105">
        <ele>595.40002441406</ele>
        <time>2021-02-23T08:20:01Z</time>
      </trkpt>
      <trkpt lat="43.45444" lon="5.78082">
        <ele>598.59997558594</ele>
        <time>2021-02-23T08:20:26Z</time>
      </trkpt>
      <trkpt lat="43.45436" lon="5.78067">
        <ele>600.79998779297</ele>
        <time>2021-02-23T08:20:43Z</time>
      </trkpt>
      <trkpt lat="43.45433" lon="5.78057">
        <ele>604</ele>
        <time>2021-02-23T08:20:59Z</time>
      </trkpt>
      <trkpt lat="43.45418" lon="5.78049">
        <ele>607</ele>
        <time>2021-02-23T08:21:23Z</time>
      </trkpt>
      <trkpt lat="43.4541" lon="5.78044">
        <ele>610</ele>
        <time>2021-02-23T08:21:38Z</time>
      </trkpt>
      <trkpt lat="43.454" lon="5.78037">
        <ele>613.20001220703</ele>
        <time>2021-02-23T08:21:55Z</time>
      </trkpt>
      <trkpt lat="43.45397" lon="5.78029">
        <ele>614.59997558594</ele>
        <time>2021-02-23T08:22:16Z</time>
      </trkpt>
      <trkpt lat="43.45398" lon="5.78028">
        <ele>614.59997558594</ele>
        <time>2021-02-23T08:22:18Z</time>
      </trkpt>
      <trkpt lat="43.4541" lon="5.78017">
        <ele>614.59997558594</ele>
        <time>2021-02-23T08:22:33Z</time>
      </trkpt>
      <trkpt lat="43.45403" lon="5.78024">
        <ele>614.79998779297</ele>
        <time>2021-02-23T08:22:56Z</time>
      </trkpt>
      <trkpt lat="43.45386" lon="5.7802">
        <ele>617.20001220703</ele>
        <time>2021-02-23T08:23:18Z</time>
      </trkpt>
      <trkpt lat="43.45381" lon="5.78014">
        <ele>620.20001220703</ele>
        <time>2021-02-23T08:23:31Z</time>
      </trkpt>
      <trkpt lat="43.45379" lon="5.7801">
        <ele>622.20001220703</ele>
        <time>2021-02-23T08:23:38Z</time>
      </trkpt>
      <trkpt lat="43.45379" lon="5.78">
        <ele>625.40002441406</ele>
        <time>2021-02-23T08:23:55Z</time>
      </trkpt>
      <trkpt lat="43.45373" lon="5.77991">
        <ele>628.59997558594</ele>
        <time>2021-02-23T08:24:11Z</time>
      </trkpt>
      <trkpt lat="43.45369" lon="5.77997">
        <ele>629.79998779297</ele>
        <time>2021-02-23T08:24:39Z</time>
      </trkpt>
      <trkpt lat="43.45356" lon="5.7801">
        <ele>629</ele>
        <time>2021-02-23T08:25:02Z</time>
      </trkpt>
      <trkpt lat="43.45348" lon="5.78017">
        <ele>632</ele>
        <time>2021-02-23T08:25:16Z</time>
      </trkpt>
      <trkpt lat="43.45345" lon="5.78023">
        <ele>635.20001220703</ele>
        <time>2021-02-23T08:25:29Z</time>
      </trkpt>
      <trkpt lat="43.45347" lon="5.78049">
        <ele>638</ele>
        <time>2021-02-23T08:25:48Z</time>
      </trkpt>
      <trkpt lat="43.45347" lon="5.7806">
        <ele>638.40002441406</ele>
        <time>2021-02-23T08:25:58Z</time>
      </trkpt>
      <trkpt lat="43.45353" lon="5.78069">
        <ele>638.79998779297</ele>
        <time>2021-02-23T08:26:05Z</time>
      </trkpt>
      <trkpt lat="43.45354" lon="5.78104">
        <ele>639.79998779297</ele>
        <time>2021-02-23T08:26:29Z</time>
      </trkpt>
      <trkpt lat="43.4535" lon="5.78125">
        <ele>640.20001220703</ele>
        <time>2021-02-23T08:26:49Z</time>
      </trkpt>
      <trkpt lat="43.45349" lon="5.78137">
        <ele>640.79998779297</ele>
        <time>2021-02-23T08:27:11Z</time>
      </trkpt>
      <trkpt lat="43.45338" lon="5.78148">
        <ele>638.79998779297</ele>
        <time>2021-02-23T08:27:29Z</time>
      </trkpt>
      <trkpt lat="43.45323" lon="5.78165">
        <ele>636.40002441406</ele>
        <time>2021-02-23T08:27:47Z</time>
      </trkpt>
      <trkpt lat="43.45322" lon="5.78165">
        <ele>635.79998779297</ele>
        <time>2021-02-23T08:27:48Z</time>
      </trkpt>
      <trkpt lat="43.453" lon="5.78168">
        <ele>632.59997558594</ele>
        <time>2021-02-23T08:28:03Z</time>
      </trkpt>
      <trkpt lat="43.4528" lon="5.78169">
        <ele>631.59997558594</ele>
        <time>2021-02-23T08:28:21Z</time>
      </trkpt>
      <trkpt lat="43.45255" lon="5.78177">
        <ele>629.79998779297</ele>
        <time>2021-02-23T08:28:41Z</time>
      </trkpt>
      <trkpt lat="43.45249" lon="5.78178">
        <ele>629.79998779297</ele>
        <time>2021-02-23T08:28:46Z</time>
      </trkpt>
      <trkpt lat="43.45244" lon="5.78182">
        <ele>629.79998779297</ele>
        <time>2021-02-23T08:28:49Z</time>
      </trkpt>
      <trkpt lat="43.45239" lon="5.78187">
        <ele>629.79998779297</ele>
        <time>2021-02-23T08:28:53Z</time>
      </trkpt>
      <trkpt lat="43.45236" lon="5.78201">
        <ele>630</ele>
        <time>2021-02-23T08:29:03Z</time>
      </trkpt>
      <trkpt lat="43.45242" lon="5.7822">
        <ele>630</ele>
        <time>2021-02-23T08:29:16Z</time>
      </trkpt>
      <trkpt lat="43.45243" lon="5.78222">
        <ele>630</ele>
        <time>2021-02-23T08:29:18Z</time>
      </trkpt>
      <trkpt lat="43.4525" lon="5.78243">
        <ele>630</ele>
        <time>2021-02-23T08:29:34Z</time>
      </trkpt>
      <trkpt lat="43.45254" lon="5.78265">
        <ele>630.79998779297</ele>
        <time>2021-02-23T08:29:51Z</time>
      </trkpt>
      <trkpt lat="43.45252" lon="5.78288">
        <ele>631.59997558594</ele>
        <time>2021-02-23T08:30:05Z</time>
      </trkpt>
      <trkpt lat="43.45248" lon="5.78316">
        <ele>633.20001220703</ele>
        <time>2021-02-23T08:30:20Z</time>
      </trkpt>
      <trkpt lat="43.45248" lon="5.78338">
        <ele>634.79998779297</ele>
        <time>2021-02-23T08:30:36Z</time>
      </trkpt>
      <trkpt lat="43.45248" lon="5.7837">
        <ele>637</ele>
        <time>2021-02-23T08:30:54Z</time>
      </trkpt>
      <trkpt lat="43.45239" lon="5.78382">
        <ele>636.79998779297</ele>
        <time>2021-02-23T08:31:07Z</time>
      </trkpt>
      <trkpt lat="43.45213" lon="5.78382">
        <ele>633.79998779297</ele>
        <time>2021-02-23T08:31:31Z</time>
      </trkpt>
      <trkpt lat="43.45187" lon="5.7837">
        <ele>631.20001220703</ele>
        <time>2021-02-23T08:31:56Z</time>
      </trkpt>
      <trkpt lat="43.45178" lon="5.78375">
        <ele>630.59997558594</ele>
        <time>2021-02-23T08:32:06Z</time>
      </trkpt>
      <trkpt lat="43.45175" lon="5.78404">
        <ele>628.79998779297</ele>
        <time>2021-02-23T08:32:20Z</time>
      </trkpt>
      <trkpt lat="43.45178" lon="5.78413">
        <ele>628.20001220703</ele>
        <time>2021-02-23T08:32:25Z</time>
      </trkpt>
      <trkpt lat="43.45179" lon="5.78422">
        <ele>627.40002441406</ele>
        <time>2021-02-23T08:32:32Z</time>
      </trkpt>
      <trkpt lat="43.45158" lon="5.78429">
        <ele>625.40002441406</ele>
        <time>2021-02-23T08:32:48Z</time>
      </trkpt>
      <trkpt lat="43.45152" lon="5.78435">
        <ele>625.20001220703</ele>
        <time>2021-02-23T08:32:53Z</time>
      </trkpt>
      <trkpt lat="43.45152" lon="5.7844">
        <ele>625</ele>
        <time>2021-02-23T08:32:56Z</time>
      </trkpt>
      <trkpt lat="43.45155" lon="5.78445">
        <ele>625</ele>
        <time>2021-02-23T08:32:59Z</time>
      </trkpt>
      <trkpt lat="43.45159" lon="5.7846">
        <ele>625</ele>
        <time>2021-02-23T08:33:08Z</time>
      </trkpt>
      <trkpt lat="43.45163" lon="5.78472">
        <ele>625.20001220703</ele>
        <time>2021-02-23T08:33:15Z</time>
      </trkpt>
      <trkpt lat="43.45155" lon="5.78481">
        <ele>625.20001220703</ele>
        <time>2021-02-23T08:33:24Z</time>
      </trkpt>
      <trkpt lat="43.45152" lon="5.78505">
        <ele>625.59997558594</ele>
        <time>2021-02-23T08:33:42Z</time>
      </trkpt>
      <trkpt lat="43.45157" lon="5.78524">
        <ele>626.79998779297</ele>
        <time>2021-02-23T08:33:59Z</time>
      </trkpt>
      <trkpt lat="43.45158" lon="5.78537">
        <ele>626.79998779297</ele>
        <time>2021-02-23T08:34:06Z</time>
      </trkpt>
      <trkpt lat="43.45157" lon="5.78564">
        <ele>627.40002441406</ele>
        <time>2021-02-23T08:34:25Z</time>
      </trkpt>
      <trkpt lat="43.45149" lon="5.78599">
        <ele>628.79998779297</ele>
        <time>2021-02-23T08:34:51Z</time>
      </trkpt>
      <trkpt lat="43.45144" lon="5.78638">
        <ele>630.79998779297</ele>
        <time>2021-02-23T08:35:15Z</time>
      </trkpt>
      <trkpt lat="43.45138" lon="5.78667">
        <ele>631.59997558594</ele>
        <time>2021-02-23T08:35:33Z</time>
      </trkpt>
      <trkpt lat="43.45141" lon="5.78687">
        <ele>632.59997558594</ele>
        <time>2021-02-23T08:35:46Z</time>
      </trkpt>
      <trkpt lat="43.45145" lon="5.78702">
        <ele>632.79998779297</ele>
        <time>2021-02-23T08:35:55Z</time>
      </trkpt>
      <trkpt lat="43.45142" lon="5.7873">
        <ele>633.79998779297</ele>
        <time>2021-02-23T08:36:10Z</time>
      </trkpt>
      <trkpt lat="43.45142" lon="5.78736">
        <ele>634.20001220703</ele>
        <time>2021-02-23T08:36:14Z</time>
      </trkpt>
      <trkpt lat="43.45144" lon="5.78747">
        <ele>634.40002441406</ele>
        <time>2021-02-23T08:36:22Z</time>
      </trkpt>
      <trkpt lat="43.45136" lon="5.78766">
        <ele>632.40002441406</ele>
        <time>2021-02-23T08:36:37Z</time>
      </trkpt>
      <trkpt lat="43.45124" lon="5.78783">
        <ele>630.59997558594</ele>
        <time>2021-02-23T08:36:50Z</time>
      </trkpt>
      <trkpt lat="43.45122" lon="5.78785">
        <ele>630.20001220703</ele>
        <time>2021-02-23T08:36:52Z</time>
      </trkpt>
      <trkpt lat="43.45111" lon="5.788">
        <ele>627.59997558594</ele>
        <time>2021-02-23T08:37:08Z</time>
      </trkpt>
      <trkpt lat="43.45105" lon="5.78808">
        <ele>627.40002441406</ele>
        <time>2021-02-23T08:37:16Z</time>
      </trkpt>
      <trkpt lat="43.45097" lon="5.78836">
        <ele>625.40002441406</ele>
        <time>2021-02-23T08:37:36Z</time>
      </trkpt>
      <trkpt lat="43.45084" lon="5.7885">
        <ele>623</ele>
        <time>2021-02-23T08:37:51Z</time>
      </trkpt>
      <trkpt lat="43.45075" lon="5.78867">
        <ele>622.20001220703</ele>
        <time>2021-02-23T08:38:00Z</time>
      </trkpt>
      <trkpt lat="43.45074" lon="5.78869">
        <ele>622.20001220703</ele>
        <time>2021-02-23T08:38:01Z</time>
      </trkpt>
      <trkpt lat="43.45069" lon="5.78873">
        <ele>622</ele>
        <time>2021-02-23T08:38:04Z</time>
      </trkpt>
      <trkpt lat="43.45068" lon="5.78873">
        <ele>621.79998779297</ele>
        <time>2021-02-23T08:38:05Z</time>
      </trkpt>
      <trkpt lat="43.45051" lon="5.78884">
        <ele>620.20001220703</ele>
        <time>2021-02-23T08:38:18Z</time>
      </trkpt>
      <trkpt lat="43.45045" lon="5.78897">
        <ele>619.20001220703</ele>
        <time>2021-02-23T08:38:28Z</time>
      </trkpt>
      <trkpt lat="43.45037" lon="5.78924">
        <ele>618.20001220703</ele>
        <time>2021-02-23T08:38:41Z</time>
      </trkpt>
      <trkpt lat="43.45036" lon="5.7893">
        <ele>617.59997558594</ele>
        <time>2021-02-23T08:38:46Z</time>
      </trkpt>
      <trkpt lat="43.4503" lon="5.78948">
        <ele>616.40002441406</ele>
        <time>2021-02-23T08:39:00Z</time>
      </trkpt>
      <trkpt lat="43.45014" lon="5.78965">
        <ele>615.59997558594</ele>
        <time>2021-02-23T08:39:16Z</time>
      </trkpt>
      <trkpt lat="43.44992" lon="5.78962">
        <ele>614.59997558594</ele>
        <time>2021-02-23T08:39:31Z</time>
      </trkpt>
      <trkpt lat="43.44971" lon="5.78966">
        <ele>613.59997558594</ele>
        <time>2021-02-23T08:39:47Z</time>
      </trkpt>
      <trkpt lat="43.44972" lon="5.7897">
        <ele>613</ele>
        <time>2021-02-23T08:39:50Z</time>
      </trkpt>
      <trkpt lat="43.4497" lon="5.78981">
        <ele>611.79998779297</ele>
        <time>2021-02-23T08:39:59Z</time>
      </trkpt>
      <trkpt lat="43.44969" lon="5.78984">
        <ele>611.59997558594</ele>
        <time>2021-02-23T08:40:01Z</time>
      </trkpt>
      <trkpt lat="43.44971" lon="5.7899">
        <ele>611.40002441406</ele>
        <time>2021-02-23T08:40:05Z</time>
      </trkpt>
      <trkpt lat="43.44971" lon="5.79007">
        <ele>610.79998779297</ele>
        <time>2021-02-23T08:40:15Z</time>
      </trkpt>
      <trkpt lat="43.44973" lon="5.79016">
        <ele>610.59997558594</ele>
        <time>2021-02-23T08:40:19Z</time>
      </trkpt>
      <trkpt lat="43.44975" lon="5.7903">
        <ele>609.79998779297</ele>
        <time>2021-02-23T08:40:28Z</time>
      </trkpt>
      <trkpt lat="43.44975" lon="5.79037">
        <ele>609.40002441406</ele>
        <time>2021-02-23T08:40:32Z</time>
      </trkpt>
      <trkpt lat="43.44975" lon="5.79041">
        <ele>609.20001220703</ele>
        <time>2021-02-23T08:40:36Z</time>
      </trkpt>
      <trkpt lat="43.44974" lon="5.79051">
        <ele>608.79998779297</ele>
        <time>2021-02-23T08:40:42Z</time>
      </trkpt>
      <trkpt lat="43.44974" lon="5.79058">
        <ele>608.79998779297</ele>
        <time>2021-02-23T08:40:46Z</time>
      </trkpt>
      <trkpt lat="43.44972" lon="5.79064">
        <ele>608.79998779297</ele>
        <time>2021-02-23T08:40:49Z</time>
      </trkpt>
      <trkpt lat="43.44967" lon="5.79068">
        <ele>608.59997558594</ele>
        <time>2021-02-23T08:40:53Z</time>
      </trkpt>
      <trkpt lat="43.44963" lon="5.7907">
        <ele>608.59997558594</ele>
        <time>2021-02-23T08:40:56Z</time>
      </trkpt>
      <trkpt lat="43.44947" lon="5.79059">
        <ele>607.40002441406</ele>
        <time>2021-02-23T08:41:13Z</time>
      </trkpt>
      <trkpt lat="43.44932" lon="5.79067">
        <ele>606.20001220703</ele>
        <time>2021-02-23T08:41:25Z</time>
      </trkpt>
      <trkpt lat="43.44927" lon="5.79088">
        <ele>606</ele>
        <time>2021-02-23T08:41:40Z</time>
      </trkpt>
      <trkpt lat="43.44931" lon="5.791">
        <ele>605.79998779297</ele>
        <time>2021-02-23T08:42:05Z</time>
      </trkpt>
      <trkpt lat="43.4493" lon="5.79108">
        <ele>605.20001220703</ele>
        <time>2021-02-23T08:42:26Z</time>
      </trkpt>
      <trkpt lat="43.4493" lon="5.79114">
        <ele>605</ele>
        <time>2021-02-23T08:42:38Z</time>
      </trkpt>
      <trkpt lat="43.44932" lon="5.79126">
        <ele>604.79998779297</ele>
        <time>2021-02-23T08:42:47Z</time>
      </trkpt>
      <trkpt lat="43.44924" lon="5.79136">
        <ele>603.20001220703</ele>
        <time>2021-02-23T08:43:01Z</time>
      </trkpt>
      <trkpt lat="43.44904" lon="5.79154">
        <ele>602</ele>
        <time>2021-02-23T08:43:20Z</time>
      </trkpt>
      <trkpt lat="43.44899" lon="5.7918">
        <ele>600.59997558594</ele>
        <time>2021-02-23T08:43:38Z</time>
      </trkpt>
      <trkpt lat="43.44895" lon="5.79184">
        <ele>600.40002441406</ele>
        <time>2021-02-23T08:43:41Z</time>
      </trkpt>
      <trkpt lat="43.44875" lon="5.79172">
        <ele>598.79998779297</ele>
        <time>2021-02-23T08:44:00Z</time>
      </trkpt>
      <trkpt lat="43.44868" lon="5.79176">
        <ele>598.40002441406</ele>
        <time>2021-02-23T08:44:09Z</time>
      </trkpt>
      <trkpt lat="43.44864" lon="5.79188">
        <ele>598.20001220703</ele>
        <time>2021-02-23T08:44:16Z</time>
      </trkpt>
      <trkpt lat="43.4486" lon="5.79212">
        <ele>597.20001220703</ele>
        <time>2021-02-23T08:44:33Z</time>
      </trkpt>
      <trkpt lat="43.44863" lon="5.79231">
        <ele>596.59997558594</ele>
        <time>2021-02-23T08:44:44Z</time>
      </trkpt>
      <trkpt lat="43.44867" lon="5.79238">
        <ele>596.20001220703</ele>
        <time>2021-02-23T08:44:48Z</time>
      </trkpt>
      <trkpt lat="43.44869" lon="5.79245">
        <ele>595.79998779297</ele>
        <time>2021-02-23T08:44:52Z</time>
      </trkpt>
      <trkpt lat="43.44869" lon="5.79252">
        <ele>595.40002441406</ele>
        <time>2021-02-23T08:44:57Z</time>
      </trkpt>
      <trkpt lat="43.4487" lon="5.79259">
        <ele>595.20001220703</ele>
        <time>2021-02-23T08:45:03Z</time>
      </trkpt>
      <trkpt lat="43.44875" lon="5.79273">
        <ele>594.20001220703</ele>
        <time>2021-02-23T08:45:13Z</time>
      </trkpt>
      <trkpt lat="43.44893" lon="5.79287">
        <ele>592.40002441406</ele>
        <time>2021-02-23T08:45:30Z</time>
      </trkpt>
      <trkpt lat="43.44894" lon="5.79297">
        <ele>591.79998779297</ele>
        <time>2021-02-23T08:45:44Z</time>
      </trkpt>
      <trkpt lat="43.44885" lon="5.79325">
        <ele>591.59997558594</ele>
        <time>2021-02-23T08:46:03Z</time>
      </trkpt>
      <trkpt lat="43.44905" lon="5.79338">
        <ele>591.40002441406</ele>
        <time>2021-02-23T08:46:22Z</time>
      </trkpt>
      <trkpt lat="43.44915" lon="5.79339">
        <ele>591.40002441406</ele>
        <time>2021-02-23T08:46:32Z</time>
      </trkpt>
      <trkpt lat="43.44922" lon="5.79347">
        <ele>590.79998779297</ele>
        <time>2021-02-23T08:46:43Z</time>
      </trkpt>
      <trkpt lat="43.44924" lon="5.7936">
        <ele>590.20001220703</ele>
        <time>2021-02-23T08:46:53Z</time>
      </trkpt>
      <trkpt lat="43.44928" lon="5.79371">
        <ele>590</ele>
        <time>2021-02-23T08:47:00Z</time>
      </trkpt>
      <trkpt lat="43.44931" lon="5.794">
        <ele>590.40002441406</ele>
        <time>2021-02-23T08:47:16Z</time>
      </trkpt>
      <trkpt lat="43.44934" lon="5.79417">
        <ele>591.59997558594</ele>
        <time>2021-02-23T08:47:28Z</time>
      </trkpt>
      <trkpt lat="43.44935" lon="5.79443">
        <ele>592.79998779297</ele>
        <time>2021-02-23T08:47:43Z</time>
      </trkpt>
      <trkpt lat="43.44936" lon="5.79472">
        <ele>595</ele>
        <time>2021-02-23T08:48:05Z</time>
      </trkpt>
      <trkpt lat="43.44932" lon="5.79497">
        <ele>597</ele>
        <time>2021-02-23T08:48:24Z</time>
      </trkpt>
      <trkpt lat="43.44931" lon="5.79533">
        <ele>600</ele>
        <time>2021-02-23T08:48:50Z</time>
      </trkpt>
      <trkpt lat="43.44928" lon="5.79567">
        <ele>603</ele>
        <time>2021-02-23T08:49:13Z</time>
      </trkpt>
      <trkpt lat="43.44929" lon="5.79583">
        <ele>604.79998779297</ele>
        <time>2021-02-23T08:49:32Z</time>
      </trkpt>
      <trkpt lat="43.44927" lon="5.79613">
        <ele>606.79998779297</ele>
        <time>2021-02-23T08:49:53Z</time>
      </trkpt>
      <trkpt lat="43.44925" lon="5.79627">
        <ele>608.40002441406</ele>
        <time>2021-02-23T08:50:07Z</time>
      </trkpt>
      <trkpt lat="43.44922" lon="5.79647">
        <ele>609.59997558594</ele>
        <time>2021-02-23T08:50:23Z</time>
      </trkpt>
      <trkpt lat="43.44921" lon="5.79649">
        <ele>609.59997558594</ele>
        <time>2021-02-23T08:50:25Z</time>
      </trkpt>
      <trkpt lat="43.44915" lon="5.79679">
        <ele>611.79998779297</ele>
        <time>2021-02-23T08:50:47Z</time>
      </trkpt>
      <trkpt lat="43.44912" lon="5.79702">
        <ele>614</ele>
        <time>2021-02-23T08:51:05Z</time>
      </trkpt>
      <trkpt lat="43.44908" lon="5.79719">
        <ele>615.59997558594</ele>
        <time>2021-02-23T08:51:20Z</time>
      </trkpt>
      <trkpt lat="43.44905" lon="5.79739">
        <ele>618</ele>
        <time>2021-02-23T08:51:37Z</time>
      </trkpt>
      <trkpt lat="43.44903" lon="5.79759">
        <ele>620</ele>
        <time>2021-02-23T08:51:56Z</time>
      </trkpt>
      <trkpt lat="43.44897" lon="5.79782">
        <ele>621.79998779297</ele>
        <time>2021-02-23T08:52:13Z</time>
      </trkpt>
      <trkpt lat="43.44885" lon="5.79809">
        <ele>624</ele>
        <time>2021-02-23T08:52:37Z</time>
      </trkpt>
      <trkpt lat="43.44865" lon="5.79815">
        <ele>626.40002441406</ele>
        <time>2021-02-23T08:52:57Z</time>
      </trkpt>
      <trkpt lat="43.44857" lon="5.79839">
        <ele>628.20001220703</ele>
        <time>2021-02-23T08:53:17Z</time>
      </trkpt>
      <trkpt lat="43.44857" lon="5.79842">
        <ele>628.59997558594</ele>
        <time>2021-02-23T08:53:19Z</time>
      </trkpt>
      <trkpt lat="43.44856" lon="5.7986">
        <ele>629.79998779297</ele>
        <time>2021-02-23T08:53:31Z</time>
      </trkpt>
      <trkpt lat="43.44853" lon="5.79869">
        <ele>631.20001220703</ele>
        <time>2021-02-23T08:53:46Z</time>
      </trkpt>
      <trkpt lat="43.44847" lon="5.79885">
        <ele>633.40002441406</ele>
        <time>2021-02-23T08:54:02Z</time>
      </trkpt>
      <trkpt lat="43.4484" lon="5.79893">
        <ele>634.20001220703</ele>
        <time>2021-02-23T08:54:18Z</time>
      </trkpt>
      <trkpt lat="43.44831" lon="5.79893">
        <ele>637</ele>
        <time>2021-02-23T08:54:35Z</time>
      </trkpt>
      <trkpt lat="43.4482" lon="5.79894">
        <ele>640</ele>
        <time>2021-02-23T08:54:56Z</time>
      </trkpt>
      <trkpt lat="43.44816" lon="5.79892">
        <ele>642.59997558594</ele>
        <time>2021-02-23T08:55:18Z</time>
      </trkpt>
      <trkpt lat="43.4482" lon="5.79879">
        <ele>641.40002441406</ele>
        <time>2021-02-23T08:55:36Z</time>
      </trkpt>
      <trkpt lat="43.44816" lon="5.79882">
        <ele>643.40002441406</ele>
        <time>2021-02-23T08:55:56Z</time>
      </trkpt>
      <trkpt lat="43.44814" lon="5.79884">
        <ele>643.40002441406</ele>
        <time>2021-02-23T08:56:46Z</time>
      </trkpt>
      <trkpt lat="43.44819" lon="5.79884">
        <ele>643.20001220703</ele>
        <time>2021-02-23T08:57:31Z</time>
      </trkpt>
      <trkpt lat="43.44827" lon="5.79883">
        <ele>643</ele>
        <time>2021-02-23T08:57:58Z</time>
      </trkpt>
      <trkpt lat="43.44819" lon="5.79896">
        <ele>641.79998779297</ele>
        <time>2021-02-23T08:58:19Z</time>
      </trkpt>
      <trkpt lat="43.44812" lon="5.799">
        <ele>643.59997558594</ele>
        <time>2021-02-23T08:58:43Z</time>
      </trkpt>
      <trkpt lat="43.44795" lon="5.79903">
        <ele>646.79998779297</ele>
        <time>2021-02-23T08:59:06Z</time>
      </trkpt>
      <trkpt lat="43.44785" lon="5.79902">
        <ele>649.79998779297</ele>
        <time>2021-02-23T08:59:24Z</time>
      </trkpt>
      <trkpt lat="43.4478" lon="5.799">
        <ele>653</ele>
        <time>2021-02-23T08:59:37Z</time>
      </trkpt>
      <trkpt lat="43.44772" lon="5.79899">
        <ele>656</ele>
        <time>2021-02-23T08:59:52Z</time>
      </trkpt>
      <trkpt lat="43.44764" lon="5.79899">
        <ele>659.20001220703</ele>
        <time>2021-02-23T09:00:07Z</time>
      </trkpt>
      <trkpt lat="43.44758" lon="5.79895">
        <ele>662.40002441406</ele>
        <time>2021-02-23T09:00:25Z</time>
      </trkpt>
      <trkpt lat="43.44756" lon="5.79885">
        <ele>664.40002441406</ele>
        <time>2021-02-23T09:01:08Z</time>
      </trkpt>
      <trkpt lat="43.44748" lon="5.79879">
        <ele>667.40002441406</ele>
        <time>2021-02-23T09:01:25Z</time>
      </trkpt>
      <trkpt lat="43.44743" lon="5.79873">
        <ele>670.40002441406</ele>
        <time>2021-02-23T09:01:40Z</time>
      </trkpt>
      <trkpt lat="43.44739" lon="5.79865">
        <ele>673.59997558594</ele>
        <time>2021-02-23T09:01:54Z</time>
      </trkpt>
      <trkpt lat="43.44734" lon="5.79858">
        <ele>676.59997558594</ele>
        <time>2021-02-23T09:02:09Z</time>
      </trkpt>
      <trkpt lat="43.44728" lon="5.79847">
        <ele>679.79998779297</ele>
        <time>2021-02-23T09:02:25Z</time>
      </trkpt>
      <trkpt lat="43.44724" lon="5.79837">
        <ele>682.79998779297</ele>
        <time>2021-02-23T09:02:43Z</time>
      </trkpt>
      <trkpt lat="43.44718" lon="5.79826">
        <ele>686</ele>
        <time>2021-02-23T09:03:00Z</time>
      </trkpt>
      <trkpt lat="43.44714" lon="5.79819">
        <ele>689</ele>
        <time>2021-02-23T09:03:17Z</time>
      </trkpt>
      <trkpt lat="43.44708" lon="5.79815">
        <ele>692</ele>
        <time>2021-02-23T09:03:35Z</time>
      </trkpt>
      <trkpt lat="43.44707" lon="5.79813">
        <ele>692</ele>
        <time>2021-02-23T09:05:00Z</time>
      </trkpt>
      <trkpt lat="43.44702" lon="5.79802">
        <ele>692.79998779297</ele>
        <time>2021-02-23T09:05:31Z</time>
      </trkpt>
      <trkpt lat="43.44696" lon="5.798">
        <ele>695.59997558594</ele>
        <time>2021-02-23T09:05:49Z</time>
      </trkpt>
      <trkpt lat="43.44689" lon="5.79797">
        <ele>698.59997558594</ele>
        <time>2021-02-23T09:06:05Z</time>
      </trkpt>
      <trkpt lat="43.4468" lon="5.79792">
        <ele>701.79998779297</ele>
        <time>2021-02-23T09:06:20Z</time>
      </trkpt>
      <trkpt lat="43.44672" lon="5.7979">
        <ele>704.79998779297</ele>
        <time>2021-02-23T09:06:36Z</time>
      </trkpt>
      <trkpt lat="43.44662" lon="5.7979">
        <ele>708</ele>
        <time>2021-02-23T09:06:53Z</time>
      </trkpt>
      <trkpt lat="43.44655" lon="5.79785">
        <ele>711</ele>
        <time>2021-02-23T09:07:15Z</time>
      </trkpt>
      <trkpt lat="43.44644" lon="5.79779">
        <ele>712</ele>
        <time>2021-02-23T09:07:37Z</time>
      </trkpt>
      <trkpt lat="43.44635" lon="5.79774">
        <ele>714.20001220703</ele>
        <time>2021-02-23T09:07:52Z</time>
      </trkpt>
      <trkpt lat="43.44627" lon="5.79771">
        <ele>717.40002441406</ele>
        <time>2021-02-23T09:08:06Z</time>
      </trkpt>
      <trkpt lat="43.44615" lon="5.79761">
        <ele>720.40002441406</ele>
        <time>2021-02-23T09:08:25Z</time>
      </trkpt>
      <trkpt lat="43.44605" lon="5.79755">
        <ele>723.59997558594</ele>
        <time>2021-02-23T09:08:41Z</time>
      </trkpt>
      <trkpt lat="43.44596" lon="5.79746">
        <ele>726.59997558594</ele>
        <time>2021-02-23T09:08:58Z</time>
      </trkpt>
      <trkpt lat="43.44588" lon="5.79733">
        <ele>729.79998779297</ele>
        <time>2021-02-23T09:09:19Z</time>
      </trkpt>
      <trkpt lat="43.4458" lon="5.79726">
        <ele>732.79998779297</ele>
        <time>2021-02-23T09:09:37Z</time>
      </trkpt>
      <trkpt lat="43.44577" lon="5.79722">
        <ele>735.79998779297</ele>
        <time>2021-02-23T09:09:52Z</time>
      </trkpt>
      <trkpt lat="43.44575" lon="5.79721">
        <ele>736.40002441406</ele>
        <time>2021-02-23T09:10:20Z</time>
      </trkpt>
      <trkpt lat="43.44575" lon="5.79721">
        <ele>736.40002441406</ele>
        <time>2021-02-23T09:10:51Z</time>
      </trkpt>
      <trkpt lat="43.44573" lon="5.79712">
        <ele>736.59997558594</ele>
        <time>2021-02-23T09:11:18Z</time>
      </trkpt>
      <trkpt lat="43.44568" lon="5.79693">
        <ele>739.59997558594</ele>
        <time>2021-02-23T09:11:40Z</time>
      </trkpt>
      <trkpt lat="43.44566" lon="5.79676">
        <ele>742.59997558594</ele>
        <time>2021-02-23T09:11:57Z</time>
      </trkpt>
      <trkpt lat="43.44561" lon="5.79663">
        <ele>745.79998779297</ele>
        <time>2021-02-23T09:12:18Z</time>
      </trkpt>
      <trkpt lat="43.44556" lon="5.79652">
        <ele>748.79998779297</ele>
        <time>2021-02-23T09:12:37Z</time>
      </trkpt>
      <trkpt lat="43.44558" lon="5.79636">
        <ele>752</ele>
        <time>2021-02-23T09:12:54Z</time>
      </trkpt>
      <trkpt lat="43.44557" lon="5.79623">
        <ele>755</ele>
        <time>2021-02-23T09:13:11Z</time>
      </trkpt>
      <trkpt lat="43.4455" lon="5.7961">
        <ele>758</ele>
        <time>2021-02-23T09:13:29Z</time>
      </trkpt>
      <trkpt lat="43.44547" lon="5.796">
        <ele>761</ele>
        <time>2021-02-23T09:13:47Z</time>
      </trkpt>
      <trkpt lat="43.44546" lon="5.79589">
        <ele>764.20001220703</ele>
        <time>2021-02-23T09:14:04Z</time>
      </trkpt>
      <trkpt lat="43.44544" lon="5.79578">
        <ele>767.40002441406</ele>
        <time>2021-02-23T09:14:23Z</time>
      </trkpt>
      <trkpt lat="43.44544" lon="5.79565">
        <ele>770.40002441406</ele>
        <time>2021-02-23T09:14:41Z</time>
      </trkpt>
      <trkpt lat="43.44544" lon="5.79552">
        <ele>773.59997558594</ele>
        <time>2021-02-23T09:14:58Z</time>
      </trkpt>
      <trkpt lat="43.4454" lon="5.79541">
        <ele>776.59997558594</ele>
        <time>2021-02-23T09:15:15Z</time>
      </trkpt>
      <trkpt lat="43.44538" lon="5.79534">
        <ele>779.59997558594</ele>
        <time>2021-02-23T09:15:34Z</time>
      </trkpt>
      <trkpt lat="43.44533" lon="5.79529">
        <ele>783</ele>
        <time>2021-02-23T09:15:54Z</time>
      </trkpt>
      <trkpt lat="43.44529" lon="5.79519">
        <ele>786</ele>
        <time>2021-02-23T09:16:14Z</time>
      </trkpt>
      <trkpt lat="43.44523" lon="5.79512">
        <ele>789</ele>
        <time>2021-02-23T09:16:34Z</time>
      </trkpt>
      <trkpt lat="43.44519" lon="5.79508">
        <ele>792.20001220703</ele>
        <time>2021-02-23T09:16:53Z</time>
      </trkpt>
      <trkpt lat="43.44517" lon="5.795">
        <ele>795.40002441406</ele>
        <time>2021-02-23T09:17:11Z</time>
      </trkpt>
      <trkpt lat="43.44516" lon="5.79499">
        <ele>795.59997558594</ele>
        <time>2021-02-23T09:17:13Z</time>
      </trkpt>
      <trkpt lat="43.44512" lon="5.79489">
        <ele>799.20001220703</ele>
        <time>2021-02-23T09:17:33Z</time>
      </trkpt>
      <trkpt lat="43.44513" lon="5.79484">
        <ele>802.20001220703</ele>
        <time>2021-02-23T09:17:47Z</time>
      </trkpt>
      <trkpt lat="43.44515" lon="5.79479">
        <ele>804</ele>
        <time>2021-02-23T09:18:28Z</time>
      </trkpt>
      <trkpt lat="43.44513" lon="5.79471">
        <ele>807.20001220703</ele>
        <time>2021-02-23T09:18:45Z</time>
      </trkpt>
      <trkpt lat="43.44512" lon="5.79467">
        <ele>810.20001220703</ele>
        <time>2021-02-23T09:19:01Z</time>
      </trkpt>
      <trkpt lat="43.44511" lon="5.79459">
        <ele>812.40002441406</ele>
        <time>2021-02-23T09:19:30Z</time>
      </trkpt>
      <trkpt lat="43.44509" lon="5.79451">
        <ele>815.40002441406</ele>
        <time>2021-02-23T09:19:49Z</time>
      </trkpt>
      <trkpt lat="43.44507" lon="5.79442">
        <ele>818.59997558594</ele>
        <time>2021-02-23T09:20:08Z</time>
      </trkpt>
      <trkpt lat="43.44505" lon="5.79427">
        <ele>821.59997558594</ele>
        <time>2021-02-23T09:20:27Z</time>
      </trkpt>
      <trkpt lat="43.44498" lon="5.7941">
        <ele>824.59997558594</ele>
        <time>2021-02-23T09:20:50Z</time>
      </trkpt>
      <trkpt lat="43.44493" lon="5.79403">
        <ele>826.79998779297</ele>
        <time>2021-02-23T09:21:15Z</time>
      </trkpt>
      <trkpt lat="43.44492" lon="5.79403">
        <ele>826.59997558594</ele>
        <time>2021-02-23T09:21:47Z</time>
      </trkpt>
      <trkpt lat="43.44487" lon="5.79397">
        <ele>826.79998779297</ele>
        <time>2021-02-23T09:22:03Z</time>
      </trkpt>
      <trkpt lat="43.44491" lon="5.79379">
        <ele>828.40002441406</ele>
        <time>2021-02-23T09:22:23Z</time>
      </trkpt>
      <trkpt lat="43.44489" lon="5.79361">
        <ele>830.40002441406</ele>
        <time>2021-02-23T09:22:43Z</time>
      </trkpt>
      <trkpt lat="43.44488" lon="5.7936">
        <ele>830.59997558594</ele>
        <time>2021-02-23T09:22:45Z</time>
      </trkpt>
      <trkpt lat="43.4448" lon="5.79351">
        <ele>832</ele>
        <time>2021-02-23T09:23:01Z</time>
      </trkpt>
      <trkpt lat="43.44478" lon="5.79348">
        <ele>833</ele>
        <time>2021-02-23T09:23:30Z</time>
      </trkpt>
      <trkpt lat="43.44479" lon="5.79346">
        <ele>833.40002441406</ele>
        <time>2021-02-23T09:24:09Z</time>
      </trkpt>
      <trkpt lat="43.44475" lon="5.79336">
        <ele>833.79998779297</ele>
        <time>2021-02-23T09:24:35Z</time>
      </trkpt>
      <trkpt lat="43.4447" lon="5.79318">
        <ele>836</ele>
        <time>2021-02-23T09:24:53Z</time>
      </trkpt>
      <trkpt lat="43.44467" lon="5.79303">
        <ele>837.20001220703</ele>
        <time>2021-02-23T09:25:09Z</time>
      </trkpt>
      <trkpt lat="43.44467" lon="5.79284">
        <ele>838.20001220703</ele>
        <time>2021-02-23T09:25:27Z</time>
      </trkpt>
      <trkpt lat="43.44467" lon="5.79267">
        <ele>839.40002441406</ele>
        <time>2021-02-23T09:25:44Z</time>
      </trkpt>
      <trkpt lat="43.44473" lon="5.79247">
        <ele>841</ele>
        <time>2021-02-23T09:26:01Z</time>
      </trkpt>
      <trkpt lat="43.44478" lon="5.7922">
        <ele>842.59997558594</ele>
        <time>2021-02-23T09:26:20Z</time>
      </trkpt>
      <trkpt lat="43.44479" lon="5.79214">
        <ele>843</ele>
        <time>2021-02-23T09:26:24Z</time>
      </trkpt>
      <trkpt lat="43.44468" lon="5.79194">
        <ele>844.59997558594</ele>
        <time>2021-02-23T09:26:42Z</time>
      </trkpt>
      <trkpt lat="43.44467" lon="5.79192">
        <ele>844.59997558594</ele>
        <time>2021-02-23T09:26:43Z</time>
      </trkpt>
      <trkpt lat="43.44467" lon="5.79186">
        <ele>844.79998779297</ele>
        <time>2021-02-23T09:26:48Z</time>
      </trkpt>
      <trkpt lat="43.44473" lon="5.79162">
        <ele>846</ele>
        <time>2021-02-23T09:27:06Z</time>
      </trkpt>
      <trkpt lat="43.44475" lon="5.79149">
        <ele>847.40002441406</ele>
        <time>2021-02-23T09:27:19Z</time>
      </trkpt>
      <trkpt lat="43.4448" lon="5.79136">
        <ele>848.59997558594</ele>
        <time>2021-02-23T09:27:44Z</time>
      </trkpt>
      <trkpt lat="43.44485" lon="5.79122">
        <ele>850.20001220703</ele>
        <time>2021-02-23T09:28:00Z</time>
      </trkpt>
      <trkpt lat="43.44487" lon="5.79104">
        <ele>851.20001220703</ele>
        <time>2021-02-23T09:28:15Z</time>
      </trkpt>
      <trkpt lat="43.44492" lon="5.79088">
        <ele>851.59997558594</ele>
        <time>2021-02-23T09:28:30Z</time>
      </trkpt>
      <trkpt lat="43.44492" lon="5.79082">
        <ele>853.20001220703</ele>
        <time>2021-02-23T09:28:54Z</time>
      </trkpt>
      <trkpt lat="43.44495" lon="5.79073">
        <ele>853.40002441406</ele>
        <time>2021-02-23T09:29:06Z</time>
      </trkpt>
      <trkpt lat="43.44503" lon="5.79058">
        <ele>854.79998779297</ele>
        <time>2021-02-23T09:29:25Z</time>
      </trkpt>
      <trkpt lat="43.44516" lon="5.79048">
        <ele>856</ele>
        <time>2021-02-23T09:29:44Z</time>
      </trkpt>
      <trkpt lat="43.44524" lon="5.79043">
        <ele>857</ele>
        <time>2021-02-23T09:29:56Z</time>
      </trkpt>
      <trkpt lat="43.44539" lon="5.79031">
        <ele>858.59997558594</ele>
        <time>2021-02-23T09:30:14Z</time>
      </trkpt>
      <trkpt lat="43.44549" lon="5.79012">
        <ele>859.20001220703</ele>
        <time>2021-02-23T09:30:33Z</time>
      </trkpt>
      <trkpt lat="43.44557" lon="5.78993">
        <ele>860.40002441406</ele>
        <time>2021-02-23T09:30:50Z</time>
      </trkpt>
      <trkpt lat="43.44566" lon="5.78976">
        <ele>860.59997558594</ele>
        <time>2021-02-23T09:31:06Z</time>
      </trkpt>
      <trkpt lat="43.44571" lon="5.78955">
        <ele>861</ele>
        <time>2021-02-23T09:31:24Z</time>
      </trkpt>
      <trkpt lat="43.44575" lon="5.78933">
        <ele>861.59997558594</ele>
        <time>2021-02-23T09:31:43Z</time>
      </trkpt>
      <trkpt lat="43.44583" lon="5.78918">
        <ele>861.79998779297</ele>
        <time>2021-02-23T09:32:01Z</time>
      </trkpt>
      <trkpt lat="43.44588" lon="5.78917">
        <ele>861.59997558594</ele>
        <time>2021-02-23T09:32:16Z</time>
      </trkpt>
      <trkpt lat="43.44591" lon="5.7892">
        <ele>861.59997558594</ele>
        <time>2021-02-23T09:32:31Z</time>
      </trkpt>
      <trkpt lat="43.44591" lon="5.78929">
        <ele>862</ele>
        <time>2021-02-23T09:32:48Z</time>
      </trkpt>
      <trkpt lat="43.44587" lon="5.78933">
        <ele>861.79998779297</ele>
        <time>2021-02-23T09:33:04Z</time>
      </trkpt>
      <trkpt lat="43.44583" lon="5.78935">
        <ele>861.79998779297</ele>
        <time>2021-02-23T09:33:19Z</time>
      </trkpt>
      <trkpt lat="43.44587" lon="5.78934">
        <ele>862</ele>
        <time>2021-02-23T09:34:01Z</time>
      </trkpt>
      <trkpt lat="43.44592" lon="5.7893">
        <ele>862</ele>
        <time>2021-02-23T09:34:18Z</time>
      </trkpt>
      <trkpt lat="43.44588" lon="5.78924">
        <ele>862</ele>
        <time>2021-02-23T09:34:32Z</time>
      </trkpt>
      <trkpt lat="43.44587" lon="5.78925">
        <ele>862</ele>
        <time>2021-02-23T09:35:05Z</time>
      </trkpt>
      <trkpt lat="43.44586" lon="5.78924">
        <ele>861.79998779297</ele>
        <time>2021-02-23T09:36:05Z</time>
      </trkpt>
      <trkpt lat="43.44587" lon="5.78924">
        <ele>861.59997558594</ele>
        <time>2021-02-23T09:37:12Z</time>
      </trkpt>
      <trkpt lat="43.44588" lon="5.78924">
        <ele>862.59997558594</ele>
        <time>2021-02-23T09:37:50Z</time>
      </trkpt>
      <trkpt lat="43.44585" lon="5.78913">
        <ele>862.40002441406</ele>
        <time>2021-02-23T09:38:12Z</time>
      </trkpt>
      <trkpt lat="43.44592" lon="5.789">
        <ele>862.40002441406</ele>
        <time>2021-02-23T09:38:29Z</time>
      </trkpt>
      <trkpt lat="43.44597" lon="5.78885">
        <ele>862.59997558594</ele>
        <time>2021-02-23T09:38:44Z</time>
      </trkpt>
      <trkpt lat="43.44598" lon="5.78879">
        <ele>862.59997558594</ele>
        <time>2021-02-23T09:38:49Z</time>
      </trkpt>
      <trkpt lat="43.446" lon="5.78871">
        <ele>862.79998779297</ele>
        <time>2021-02-23T09:38:55Z</time>
      </trkpt>
      <trkpt lat="43.44606" lon="5.78861">
        <ele>863.59997558594</ele>
        <time>2021-02-23T09:39:14Z</time>
      </trkpt>
      <trkpt lat="43.44609" lon="5.78851">
        <ele>863.79998779297</ele>
        <time>2021-02-23T09:39:40Z</time>
      </trkpt>
      <trkpt lat="43.44613" lon="5.7884">
        <ele>864.59997558594</ele>
        <time>2021-02-23T09:39:55Z</time>
      </trkpt>
      <trkpt lat="43.44613" lon="5.78839">
        <ele>864.59997558594</ele>
        <time>2021-02-23T09:39:56Z</time>
      </trkpt>
      <trkpt lat="43.44615" lon="5.78829">
        <ele>864.59997558594</ele>
        <time>2021-02-23T09:40:05Z</time>
      </trkpt>
      <trkpt lat="43.44622" lon="5.78814">
        <ele>865.20001220703</ele>
        <time>2021-02-23T09:40:21Z</time>
      </trkpt>
      <trkpt lat="43.44629" lon="5.78798">
        <ele>866.20001220703</ele>
        <time>2021-02-23T09:40:37Z</time>
      </trkpt>
      <trkpt lat="43.44633" lon="5.78791">
        <ele>866.40002441406</ele>
        <time>2021-02-23T09:40:45Z</time>
      </trkpt>
      <trkpt lat="43.44635" lon="5.78771">
        <ele>866.79998779297</ele>
        <time>2021-02-23T09:41:03Z</time>
      </trkpt>
      <trkpt lat="43.4464" lon="5.78753">
        <ele>866.59997558594</ele>
        <time>2021-02-23T09:41:20Z</time>
      </trkpt>
      <trkpt lat="43.44648" lon="5.78745">
        <ele>867.20001220703</ele>
        <time>2021-02-23T09:41:31Z</time>
      </trkpt>
      <trkpt lat="43.4465" lon="5.78744">
        <ele>867.40002441406</ele>
        <time>2021-02-23T09:41:34Z</time>
      </trkpt>
      <trkpt lat="43.44657" lon="5.78739">
        <ele>868.20001220703</ele>
        <time>2021-02-23T09:41:51Z</time>
      </trkpt>
      <trkpt lat="43.44661" lon="5.78736">
        <ele>868.40002441406</ele>
        <time>2021-02-23T09:42:04Z</time>
      </trkpt>
      <trkpt lat="43.44666" lon="5.78723">
        <ele>868.59997558594</ele>
        <time>2021-02-23T09:42:18Z</time>
      </trkpt>
      <trkpt lat="43.44673" lon="5.78698">
        <ele>868.79998779297</ele>
        <time>2021-02-23T09:42:34Z</time>
      </trkpt>
      <trkpt lat="43.44679" lon="5.7869">
        <ele>869</ele>
        <time>2021-02-23T09:42:40Z</time>
      </trkpt>
      <trkpt lat="43.44685" lon="5.78681">
        <ele>869.20001220703</ele>
        <time>2021-02-23T09:42:48Z</time>
      </trkpt>
      <trkpt lat="43.44688" lon="5.78674">
        <ele>869.20001220703</ele>
        <time>2021-02-23T09:42:54Z</time>
      </trkpt>
      <trkpt lat="43.44689" lon="5.78671">
        <ele>869.20001220703</ele>
        <time>2021-02-23T09:42:56Z</time>
      </trkpt>
      <trkpt lat="43.44691" lon="5.78652">
        <ele>868.20001220703</ele>
        <time>2021-02-23T09:43:09Z</time>
      </trkpt>
      <trkpt lat="43.44695" lon="5.78633">
        <ele>867.59997558594</ele>
        <time>2021-02-23T09:43:23Z</time>
      </trkpt>
      <trkpt lat="43.44695" lon="5.78631">
        <ele>867.59997558594</ele>
        <time>2021-02-23T09:43:24Z</time>
      </trkpt>
      <trkpt lat="43.44696" lon="5.78625">
        <ele>867.40002441406</ele>
        <time>2021-02-23T09:43:29Z</time>
      </trkpt>
      <trkpt lat="43.44698" lon="5.78621">
        <ele>867.59997558594</ele>
        <time>2021-02-23T09:43:52Z</time>
      </trkpt>
      <trkpt lat="43.44699" lon="5.78617">
        <ele>867.20001220703</ele>
        <time>2021-02-23T09:44:10Z</time>
      </trkpt>
      <trkpt lat="43.44699" lon="5.78615">
        <ele>867.20001220703</ele>
        <time>2021-02-23T09:44:12Z</time>
      </trkpt>
      <trkpt lat="43.44702" lon="5.78598">
        <ele>867</ele>
        <time>2021-02-23T09:44:28Z</time>
      </trkpt>
      <trkpt lat="43.44709" lon="5.78582">
        <ele>867</ele>
        <time>2021-02-23T09:44:43Z</time>
      </trkpt>
      <trkpt lat="43.4471" lon="5.7858">
        <ele>867</ele>
        <time>2021-02-23T09:44:45Z</time>
      </trkpt>
      <trkpt lat="43.44717" lon="5.78575">
        <ele>867.40002441406</ele>
        <time>2021-02-23T09:44:54Z</time>
      </trkpt>
      <trkpt lat="43.44724" lon="5.7856">
        <ele>868</ele>
        <time>2021-02-23T09:45:09Z</time>
      </trkpt>
      <trkpt lat="43.44734" lon="5.78551">
        <ele>868.59997558594</ele>
        <time>2021-02-23T09:45:20Z</time>
      </trkpt>
      <trkpt lat="43.44738" lon="5.78544">
        <ele>868.59997558594</ele>
        <time>2021-02-23T09:45:26Z</time>
      </trkpt>
      <trkpt lat="43.44745" lon="5.78529">
        <ele>868.40002441406</ele>
        <time>2021-02-23T09:45:40Z</time>
      </trkpt>
      <trkpt lat="43.44752" lon="5.78516">
        <ele>869</ele>
        <time>2021-02-23T09:45:54Z</time>
      </trkpt>
      <trkpt lat="43.44754" lon="5.78515">
        <ele>869.40002441406</ele>
        <time>2021-02-23T09:46:11Z</time>
      </trkpt>
      <trkpt lat="43.4476" lon="5.7851">
        <ele>869.40002441406</ele>
        <time>2021-02-23T09:46:29Z</time>
      </trkpt>
      <trkpt lat="43.44765" lon="5.78509">
        <ele>870.20001220703</ele>
        <time>2021-02-23T09:46:51Z</time>
      </trkpt>
      <trkpt lat="43.44768" lon="5.78507">
        <ele>870.20001220703</ele>
        <time>2021-02-23T09:47:15Z</time>
      </trkpt>
      <trkpt lat="43.44768" lon="5.78507">
        <ele>871</ele>
        <time>2021-02-23T09:47:40Z</time>
      </trkpt>
      <trkpt lat="43.44765" lon="5.78511">
        <ele>870</ele>
        <time>2021-02-23T09:48:50Z</time>
      </trkpt>
      <trkpt lat="43.44764" lon="5.7851">
        <ele>869.40002441406</ele>
        <time>2021-02-23T09:49:07Z</time>
      </trkpt>
      <trkpt lat="43.44764" lon="5.78491">
        <ele>870</ele>
        <time>2021-02-23T09:49:25Z</time>
      </trkpt>
      <trkpt lat="43.44765" lon="5.78483">
        <ele>869.79998779297</ele>
        <time>2021-02-23T09:49:31Z</time>
      </trkpt>
      <trkpt lat="43.44773" lon="5.78461">
        <ele>869.20001220703</ele>
        <time>2021-02-23T09:49:51Z</time>
      </trkpt>
      <trkpt lat="43.44776" lon="5.78444">
        <ele>868.40002441406</ele>
        <time>2021-02-23T09:50:07Z</time>
      </trkpt>
      <trkpt lat="43.44779" lon="5.78424">
        <ele>866.79998779297</ele>
        <time>2021-02-23T09:50:25Z</time>
      </trkpt>
      <trkpt lat="43.44781" lon="5.78408">
        <ele>865.79998779297</ele>
        <time>2021-02-23T09:50:42Z</time>
      </trkpt>
      <trkpt lat="43.44793" lon="5.7839">
        <ele>865.79998779297</ele>
        <time>2021-02-23T09:51:02Z</time>
      </trkpt>
      <trkpt lat="43.44795" lon="5.78389">
        <ele>866</ele>
        <time>2021-02-23T09:51:04Z</time>
      </trkpt>
      <trkpt lat="43.44803" lon="5.78377">
        <ele>866.40002441406</ele>
        <time>2021-02-23T09:51:18Z</time>
      </trkpt>
      <trkpt lat="43.44807" lon="5.78366">
        <ele>866.59997558594</ele>
        <time>2021-02-23T09:51:29Z</time>
      </trkpt>
      <trkpt lat="43.44811" lon="5.78352">
        <ele>867.20001220703</ele>
        <time>2021-02-23T09:51:43Z</time>
      </trkpt>
      <trkpt lat="43.44818" lon="5.78338">
        <ele>867.59997558594</ele>
        <time>2021-02-23T09:51:58Z</time>
      </trkpt>
      <trkpt lat="43.44828" lon="5.78323">
        <ele>868</ele>
        <time>2021-02-23T09:52:15Z</time>
      </trkpt>
      <trkpt lat="43.44838" lon="5.78308">
        <ele>869.59997558594</ele>
        <time>2021-02-23T09:52:32Z</time>
      </trkpt>
      <trkpt lat="43.44843" lon="5.78298">
        <ele>870.59997558594</ele>
        <time>2021-02-23T09:52:45Z</time>
      </trkpt>
      <trkpt lat="43.44853" lon="5.78281">
        <ele>871.20001220703</ele>
        <time>2021-02-23T09:53:03Z</time>
      </trkpt>
      <trkpt lat="43.44855" lon="5.78272">
        <ele>870.20001220703</ele>
        <time>2021-02-23T09:53:21Z</time>
      </trkpt>
      <trkpt lat="43.44855" lon="5.78268">
        <ele>869.79998779297</ele>
        <time>2021-02-23T09:53:37Z</time>
      </trkpt>
      <trkpt lat="43.44856" lon="5.78258">
        <ele>869.40002441406</ele>
        <time>2021-02-23T09:53:49Z</time>
      </trkpt>
      <trkpt lat="43.44856" lon="5.78247">
        <ele>868.79998779297</ele>
        <time>2021-02-23T09:53:57Z</time>
      </trkpt>
      <trkpt lat="43.44864" lon="5.78217">
        <ele>867.79998779297</ele>
        <time>2021-02-23T09:54:17Z</time>
      </trkpt>
      <trkpt lat="43.44865" lon="5.78215">
        <ele>867.79998779297</ele>
        <time>2021-02-23T09:54:19Z</time>
      </trkpt>
      <trkpt lat="43.44872" lon="5.78205">
        <ele>868.20001220703</ele>
        <time>2021-02-23T09:54:29Z</time>
      </trkpt>
      <trkpt lat="43.44873" lon="5.78185">
        <ele>869.20001220703</ele>
        <time>2021-02-23T09:54:45Z</time>
      </trkpt>
      <trkpt lat="43.44883" lon="5.78157">
        <ele>870</ele>
        <time>2021-02-23T09:55:04Z</time>
      </trkpt>
      <trkpt lat="43.44891" lon="5.78142">
        <ele>870.79998779297</ele>
        <time>2021-02-23T09:55:17Z</time>
      </trkpt>
      <trkpt lat="43.44901" lon="5.78124">
        <ele>872</ele>
        <time>2021-02-23T09:55:33Z</time>
      </trkpt>
      <trkpt lat="43.44913" lon="5.78102">
        <ele>873</ele>
        <time>2021-02-23T09:55:53Z</time>
      </trkpt>
      <trkpt lat="43.44921" lon="5.7808">
        <ele>873.59997558594</ele>
        <time>2021-02-23T09:56:10Z</time>
      </trkpt>
      <trkpt lat="43.44924" lon="5.78049">
        <ele>874.79998779297</ele>
        <time>2021-02-23T09:56:31Z</time>
      </trkpt>
      <trkpt lat="43.44933" lon="5.78024">
        <ele>874.40002441406</ele>
        <time>2021-02-23T09:56:49Z</time>
      </trkpt>
      <trkpt lat="43.44942" lon="5.78004">
        <ele>874.59997558594</ele>
        <time>2021-02-23T09:57:06Z</time>
      </trkpt>
      <trkpt lat="43.44947" lon="5.7799">
        <ele>875.20001220703</ele>
        <time>2021-02-23T09:57:24Z</time>
      </trkpt>
      <trkpt lat="43.44949" lon="5.77987">
        <ele>875.20001220703</ele>
        <time>2021-02-23T09:57:27Z</time>
      </trkpt>
      <trkpt lat="43.44963" lon="5.7797">
        <ele>875.20001220703</ele>
        <time>2021-02-23T09:57:49Z</time>
      </trkpt>
      <trkpt lat="43.44967" lon="5.77972">
        <ele>875.40002441406</ele>
        <time>2021-02-23T09:58:07Z</time>
      </trkpt>
      <trkpt lat="43.44966" lon="5.77966">
        <ele>875.59997558594</ele>
        <time>2021-02-23T09:59:03Z</time>
      </trkpt>
      <trkpt lat="43.4497" lon="5.77952">
        <ele>876.40002441406</ele>
        <time>2021-02-23T09:59:19Z</time>
      </trkpt>
      <trkpt lat="43.44972" lon="5.77949">
        <ele>876.40002441406</ele>
        <time>2021-02-23T09:59:22Z</time>
      </trkpt>
      <trkpt lat="43.44983" lon="5.77926">
        <ele>877</ele>
        <time>2021-02-23T09:59:41Z</time>
      </trkpt>
      <trkpt lat="43.44992" lon="5.77907">
        <ele>877.79998779297</ele>
        <time>2021-02-23T09:59:58Z</time>
      </trkpt>
      <trkpt lat="43.45002" lon="5.77883">
        <ele>878.20001220703</ele>
        <time>2021-02-23T10:00:19Z</time>
      </trkpt>
      <trkpt lat="43.4501" lon="5.77865">
        <ele>878</ele>
        <time>2021-02-23T10:00:37Z</time>
      </trkpt>
      <trkpt lat="43.45022" lon="5.77844">
        <ele>877.79998779297</ele>
        <time>2021-02-23T10:00:59Z</time>
      </trkpt>
      <trkpt lat="43.45036" lon="5.77826">
        <ele>879.20001220703</ele>
        <time>2021-02-23T10:01:20Z</time>
      </trkpt>
      <trkpt lat="43.45043" lon="5.7782">
        <ele>879.79998779297</ele>
        <time>2021-02-23T10:01:35Z</time>
      </trkpt>
      <trkpt lat="43.45046" lon="5.77808">
        <ele>879.59997558594</ele>
        <time>2021-02-23T10:01:53Z</time>
      </trkpt>
      <trkpt lat="43.45047" lon="5.77792">
        <ele>879.20001220703</ele>
        <time>2021-02-23T10:02:08Z</time>
      </trkpt>
      <trkpt lat="43.45051" lon="5.77786">
        <ele>878.59997558594</ele>
        <time>2021-02-23T10:02:24Z</time>
      </trkpt>
      <trkpt lat="43.45051" lon="5.77786">
        <ele>878.79998779297</ele>
        <time>2021-02-23T10:02:51Z</time>
      </trkpt>
      <trkpt lat="43.45053" lon="5.77791">
        <ele>878.79998779297</ele>
        <time>2021-02-23T10:03:13Z</time>
      </trkpt>
      <trkpt lat="43.4505" lon="5.77793">
        <ele>878.59997558594</ele>
        <time>2021-02-23T10:03:30Z</time>
      </trkpt>
      <trkpt lat="43.45051" lon="5.77791">
        <ele>878.59997558594</ele>
        <time>2021-02-23T10:03:50Z</time>
      </trkpt>
      <trkpt lat="43.45052" lon="5.77788">
        <ele>878</ele>
        <time>2021-02-23T10:04:33Z</time>
      </trkpt>
      <trkpt lat="43.45048" lon="5.77788">
        <ele>877.79998779297</ele>
        <time>2021-02-23T10:04:46Z</time>
      </trkpt>
      <trkpt lat="43.45047" lon="5.77791">
        <ele>878.40002441406</ele>
        <time>2021-02-23T10:05:06Z</time>
      </trkpt>
      <trkpt lat="43.45049" lon="5.77788">
        <ele>878.20001220703</ele>
        <time>2021-02-23T10:05:36Z</time>
      </trkpt>
      <trkpt lat="43.45049" lon="5.77792">
        <ele>878.59997558594</ele>
        <time>2021-02-23T10:05:52Z</time>
      </trkpt>
      <trkpt lat="43.4505" lon="5.77791">
        <ele>877.79998779297</ele>
        <time>2021-02-23T10:06:23Z</time>
      </trkpt>
      <trkpt lat="43.4505" lon="5.7779">
        <ele>877.79998779297</ele>
        <time>2021-02-23T10:06:43Z</time>
      </trkpt>
      <trkpt lat="43.4505" lon="5.77791">
        <ele>878</ele>
        <time>2021-02-23T10:07:30Z</time>
      </trkpt>
      <trkpt lat="43.45049" lon="5.77792">
        <ele>878</ele>
        <time>2021-02-23T10:08:22Z</time>
      </trkpt>
      <trkpt lat="43.45051" lon="5.77792">
        <ele>878</ele>
        <time>2021-02-23T10:08:58Z</time>
      </trkpt>
      <trkpt lat="43.45052" lon="5.77786">
        <ele>878.59997558594</ele>
        <time>2021-02-23T10:09:30Z</time>
      </trkpt>
      <trkpt lat="43.45048" lon="5.77782">
        <ele>878.59997558594</ele>
        <time>2021-02-23T10:09:43Z</time>
      </trkpt>
      <trkpt lat="43.45052" lon="5.77768">
        <ele>878.79998779297</ele>
        <time>2021-02-23T10:09:57Z</time>
      </trkpt>
      <trkpt lat="43.45052" lon="5.77765">
        <ele>878.79998779297</ele>
        <time>2021-02-23T10:10:00Z</time>
      </trkpt>
      <trkpt lat="43.45055" lon="5.77753">
        <ele>878.59997558594</ele>
        <time>2021-02-23T10:10:11Z</time>
      </trkpt>
      <trkpt lat="43.4506" lon="5.77739">
        <ele>878.59997558594</ele>
        <time>2021-02-23T10:10:25Z</time>
      </trkpt>
      <trkpt lat="43.45062" lon="5.77718">
        <ele>878.40002441406</ele>
        <time>2021-02-23T10:10:41Z</time>
      </trkpt>
      <trkpt lat="43.45065" lon="5.77696">
        <ele>878.20001220703</ele>
        <time>2021-02-23T10:10:57Z</time>
      </trkpt>
      <trkpt lat="43.4507" lon="5.77667">
        <ele>876.59997558594</ele>
        <time>2021-02-23T10:11:18Z</time>
      </trkpt>
      <trkpt lat="43.45077" lon="5.77647">
        <ele>876.59997558594</ele>
        <time>2021-02-23T10:11:37Z</time>
      </trkpt>
      <trkpt lat="43.45077" lon="5.77639">
        <ele>876.79998779297</ele>
        <time>2021-02-23T10:11:42Z</time>
      </trkpt>
      <trkpt lat="43.45082" lon="5.77619">
        <ele>877.59997558594</ele>
        <time>2021-02-23T10:11:56Z</time>
      </trkpt>
      <trkpt lat="43.45084" lon="5.77613">
        <ele>877.79998779297</ele>
        <time>2021-02-23T10:12:00Z</time>
      </trkpt>
      <trkpt lat="43.45092" lon="5.77584">
        <ele>877.79998779297</ele>
        <time>2021-02-23T10:12:21Z</time>
      </trkpt>
      <trkpt lat="43.45097" lon="5.77557">
        <ele>877.40002441406</ele>
        <time>2021-02-23T10:12:39Z</time>
      </trkpt>
      <trkpt lat="43.45098" lon="5.7753">
        <ele>877.40002441406</ele>
        <time>2021-02-23T10:12:58Z</time>
      </trkpt>
      <trkpt lat="43.45102" lon="5.77527">
        <ele>876.79998779297</ele>
        <time>2021-02-23T10:13:10Z</time>
      </trkpt>
      <trkpt lat="43.45099" lon="5.77521">
        <ele>876.79998779297</ele>
        <time>2021-02-23T10:13:16Z</time>
      </trkpt>
      <trkpt lat="43.45097" lon="5.77493">
        <ele>876.79998779297</ele>
        <time>2021-02-23T10:13:36Z</time>
      </trkpt>
      <trkpt lat="43.451" lon="5.77464">
        <ele>876.79998779297</ele>
        <time>2021-02-23T10:13:55Z</time>
      </trkpt>
      <trkpt lat="43.45104" lon="5.77432">
        <ele>877</ele>
        <time>2021-02-23T10:14:16Z</time>
      </trkpt>
      <trkpt lat="43.45107" lon="5.77396">
        <ele>877.20001220703</ele>
        <time>2021-02-23T10:14:39Z</time>
      </trkpt>
      <trkpt lat="43.45108" lon="5.77389">
        <ele>877</ele>
        <time>2021-02-23T10:14:44Z</time>
      </trkpt>
      <trkpt lat="43.45107" lon="5.77383">
        <ele>876.59997558594</ele>
        <time>2021-02-23T10:14:48Z</time>
      </trkpt>
      <trkpt lat="43.45106" lon="5.77369">
        <ele>876.40002441406</ele>
        <time>2021-02-23T10:14:57Z</time>
      </trkpt>
      <trkpt lat="43.45107" lon="5.77342">
        <ele>876</ele>
        <time>2021-02-23T10:15:17Z</time>
      </trkpt>
      <trkpt lat="43.45106" lon="5.77323">
        <ele>876.79998779297</ele>
        <time>2021-02-23T10:15:33Z</time>
      </trkpt>
      <trkpt lat="43.45109" lon="5.77305">
        <ele>876.59997558594</ele>
        <time>2021-02-23T10:15:47Z</time>
      </trkpt>
      <trkpt lat="43.45112" lon="5.77282">
        <ele>878.20001220703</ele>
        <time>2021-02-23T10:16:04Z</time>
      </trkpt>
      <trkpt lat="43.45112" lon="5.77261">
        <ele>879.20001220703</ele>
        <time>2021-02-23T10:16:19Z</time>
      </trkpt>
      <trkpt lat="43.45117" lon="5.77236">
        <ele>880.20001220703</ele>
        <time>2021-02-23T10:16:37Z</time>
      </trkpt>
      <trkpt lat="43.45117" lon="5.77227">
        <ele>880.40002441406</ele>
        <time>2021-02-23T10:16:45Z</time>
      </trkpt>
      <trkpt lat="43.45116" lon="5.77199">
        <ele>879.59997558594</ele>
        <time>2021-02-23T10:17:05Z</time>
      </trkpt>
      <trkpt lat="43.45121" lon="5.77181">
        <ele>879.59997558594</ele>
        <time>2021-02-23T10:17:21Z</time>
      </trkpt>
      <trkpt lat="43.45125" lon="5.77166">
        <ele>881</ele>
        <time>2021-02-23T10:17:37Z</time>
      </trkpt>
      <trkpt lat="43.45127" lon="5.77143">
        <ele>881</ele>
        <time>2021-02-23T10:17:53Z</time>
      </trkpt>
      <trkpt lat="43.45126" lon="5.77115">
        <ele>880.59997558594</ele>
        <time>2021-02-23T10:18:14Z</time>
      </trkpt>
      <trkpt lat="43.45126" lon="5.77105">
        <ele>879.79998779297</ele>
        <time>2021-02-23T10:18:23Z</time>
      </trkpt>
      <trkpt lat="43.45123" lon="5.77096">
        <ele>879.20001220703</ele>
        <time>2021-02-23T10:18:33Z</time>
      </trkpt>
      <trkpt lat="43.45121" lon="5.77088">
        <ele>878.59997558594</ele>
        <time>2021-02-23T10:18:39Z</time>
      </trkpt>
      <trkpt lat="43.4512" lon="5.77082">
        <ele>878.40002441406</ele>
        <time>2021-02-23T10:18:43Z</time>
      </trkpt>
      <trkpt lat="43.45119" lon="5.77055">
        <ele>876.59997558594</ele>
        <time>2021-02-23T10:19:02Z</time>
      </trkpt>
      <trkpt lat="43.45118" lon="5.7705">
        <ele>876.59997558594</ele>
        <time>2021-02-23T10:19:06Z</time>
      </trkpt>
      <trkpt lat="43.45114" lon="5.77038">
        <ele>876.59997558594</ele>
        <time>2021-02-23T10:19:17Z</time>
      </trkpt>
      <trkpt lat="43.45115" lon="5.77028">
        <ele>876.40002441406</ele>
        <time>2021-02-23T10:19:23Z</time>
      </trkpt>
      <trkpt lat="43.45119" lon="5.77003">
        <ele>877</ele>
        <time>2021-02-23T10:19:41Z</time>
      </trkpt>
      <trkpt lat="43.45119" lon="5.77">
        <ele>877</ele>
        <time>2021-02-23T10:20:09Z</time>
      </trkpt>
      <trkpt lat="43.45118" lon="5.76987">
        <ele>877.59997558594</ele>
        <time>2021-02-23T10:20:37Z</time>
      </trkpt>
      <trkpt lat="43.45118" lon="5.76967">
        <ele>877.79998779297</ele>
        <time>2021-02-23T10:20:55Z</time>
      </trkpt>
      <trkpt lat="43.45113" lon="5.76955">
        <ele>877.40002441406</ele>
        <time>2021-02-23T10:21:11Z</time>
      </trkpt>
      <trkpt lat="43.45104" lon="5.76949">
        <ele>875.20001220703</ele>
        <time>2021-02-23T10:21:24Z</time>
      </trkpt>
      <trkpt lat="43.45102" lon="5.76946">
        <ele>875</ele>
        <time>2021-02-23T10:21:27Z</time>
      </trkpt>
      <trkpt lat="43.45094" lon="5.76926">
        <ele>873.79998779297</ele>
        <time>2021-02-23T10:21:43Z</time>
      </trkpt>
      <trkpt lat="43.4509" lon="5.76908">
        <ele>871.40002441406</ele>
        <time>2021-02-23T10:21:58Z</time>
      </trkpt>
      <trkpt lat="43.45085" lon="5.7689">
        <ele>872</ele>
        <time>2021-02-23T10:22:14Z</time>
      </trkpt>
      <trkpt lat="43.45086" lon="5.76871">
        <ele>871.40002441406</ele>
        <time>2021-02-23T10:22:30Z</time>
      </trkpt>
      <trkpt lat="43.45086" lon="5.76855">
        <ele>872</ele>
        <time>2021-02-23T10:22:44Z</time>
      </trkpt>
      <trkpt lat="43.45085" lon="5.76851">
        <ele>872.20001220703</ele>
        <time>2021-02-23T10:22:47Z</time>
      </trkpt>
      <trkpt lat="43.45085" lon="5.76836">
        <ele>871</ele>
        <time>2021-02-23T10:23:04Z</time>
      </trkpt>
      <trkpt lat="43.45085" lon="5.76819">
        <ele>869.59997558594</ele>
        <time>2021-02-23T10:23:23Z</time>
      </trkpt>
      <trkpt lat="43.45084" lon="5.76798">
        <ele>867.40002441406</ele>
        <time>2021-02-23T10:23:41Z</time>
      </trkpt>
      <trkpt lat="43.45083" lon="5.76777">
        <ele>864.59997558594</ele>
        <time>2021-02-23T10:24:02Z</time>
      </trkpt>
      <trkpt lat="43.45087" lon="5.76755">
        <ele>862.20001220703</ele>
        <time>2021-02-23T10:24:19Z</time>
      </trkpt>
      <trkpt lat="43.45087" lon="5.76739">
        <ele>861.40002441406</ele>
        <time>2021-02-23T10:24:39Z</time>
      </trkpt>
      <trkpt lat="43.45084" lon="5.76729">
        <ele>859.59997558594</ele>
        <time>2021-02-23T10:24:54Z</time>
      </trkpt>
      <trkpt lat="43.45086" lon="5.76725">
        <ele>858.20001220703</ele>
        <time>2021-02-23T10:25:07Z</time>
      </trkpt>
      <trkpt lat="43.45086" lon="5.76725">
        <ele>858.40002441406</ele>
        <time>2021-02-23T10:25:21Z</time>
      </trkpt>
      <trkpt lat="43.45089" lon="5.76738">
        <ele>858.40002441406</ele>
        <time>2021-02-23T10:25:41Z</time>
      </trkpt>
      <trkpt lat="43.45091" lon="5.76738">
        <ele>860</ele>
        <time>2021-02-23T10:25:44Z</time>
      </trkpt>
      <trkpt lat="43.45097" lon="5.76732">
        <ele>862.79998779297</ele>
        <time>2021-02-23T10:26:01Z</time>
      </trkpt>
      <trkpt lat="43.45097" lon="5.7673">
        <ele>861.79998779297</ele>
        <time>2021-02-23T10:26:26Z</time>
      </trkpt>
      <trkpt lat="43.45097" lon="5.76726">
        <ele>860.79998779297</ele>
        <time>2021-02-23T10:26:46Z</time>
      </trkpt>
      <trkpt lat="43.45097" lon="5.76727">
        <ele>860</ele>
        <time>2021-02-23T10:27:31Z</time>
      </trkpt>
      <trkpt lat="43.451" lon="5.76725">
        <ele>859.79998779297</ele>
        <time>2021-02-23T10:27:49Z</time>
      </trkpt>
      <trkpt lat="43.45099" lon="5.76726">
        <ele>859.59997558594</ele>
        <time>2021-02-23T10:28:45Z</time>
      </trkpt>
      <trkpt lat="43.45098" lon="5.76726">
        <ele>859.59997558594</ele>
        <time>2021-02-23T10:29:48Z</time>
      </trkpt>
      <trkpt lat="43.45096" lon="5.76726">
        <ele>860</ele>
        <time>2021-02-23T10:30:17Z</time>
      </trkpt>
      <trkpt lat="43.45095" lon="5.76731">
        <ele>859.79998779297</ele>
        <time>2021-02-23T10:30:55Z</time>
      </trkpt>
      <trkpt lat="43.45094" lon="5.76726">
        <ele>859.79998779297</ele>
        <time>2021-02-23T10:31:21Z</time>
      </trkpt>
      <trkpt lat="43.45092" lon="5.76727">
        <ele>857.59997558594</ele>
        <time>2021-02-23T10:32:01Z</time>
      </trkpt>
      <trkpt lat="43.45091" lon="5.76727">
        <ele>857.40002441406</ele>
        <time>2021-02-23T10:32:09Z</time>
      </trkpt>
      <trkpt lat="43.45094" lon="5.76722">
        <ele>858.59997558594</ele>
        <time>2021-02-23T10:32:39Z</time>
      </trkpt>
      <trkpt lat="43.45094" lon="5.76725">
        <ele>859.59997558594</ele>
        <time>2021-02-23T10:34:55Z</time>
      </trkpt>
      <trkpt lat="43.45096" lon="5.76728">
        <ele>859.79998779297</ele>
        <time>2021-02-23T10:35:11Z</time>
      </trkpt>
      <trkpt lat="43.45095" lon="5.76724">
        <ele>859.59997558594</ele>
        <time>2021-02-23T10:35:48Z</time>
      </trkpt>
      <trkpt lat="43.45096" lon="5.7672">
        <ele>859.59997558594</ele>
        <time>2021-02-23T10:36:59Z</time>
      </trkpt>
      <trkpt lat="43.45095" lon="5.76717">
        <ele>859.59997558594</ele>
        <time>2021-02-23T10:37:01Z</time>
      </trkpt>
      <trkpt lat="43.45091" lon="5.76699">
        <ele>858.40002441406</ele>
        <time>2021-02-23T10:37:19Z</time>
      </trkpt>
      <trkpt lat="43.45086" lon="5.76679">
        <ele>855.79998779297</ele>
        <time>2021-02-23T10:37:37Z</time>
      </trkpt>
      <trkpt lat="43.45083" lon="5.76671">
        <ele>853.79998779297</ele>
        <time>2021-02-23T10:37:46Z</time>
      </trkpt>
      <trkpt lat="43.45079" lon="5.76662">
        <ele>851.79998779297</ele>
        <time>2021-02-23T10:38:01Z</time>
      </trkpt>
      <trkpt lat="43.4508" lon="5.76651">
        <ele>850.20001220703</ele>
        <time>2021-02-23T10:38:11Z</time>
      </trkpt>
      <trkpt lat="43.45076" lon="5.76628">
        <ele>849</ele>
        <time>2021-02-23T10:38:29Z</time>
      </trkpt>
      <trkpt lat="43.45075" lon="5.76619">
        <ele>848.40002441406</ele>
        <time>2021-02-23T10:38:36Z</time>
      </trkpt>
      <trkpt lat="43.45065" lon="5.76598">
        <ele>848</ele>
        <time>2021-02-23T10:38:55Z</time>
      </trkpt>
      <trkpt lat="43.45055" lon="5.76581">
        <ele>847.40002441406</ele>
        <time>2021-02-23T10:39:13Z</time>
      </trkpt>
      <trkpt lat="43.4505" lon="5.76577">
        <ele>847.40002441406</ele>
        <time>2021-02-23T10:39:21Z</time>
      </trkpt>
      <trkpt lat="43.45047" lon="5.76576">
        <ele>847.40002441406</ele>
        <time>2021-02-23T10:39:23Z</time>
      </trkpt>
      <trkpt lat="43.45044" lon="5.76574">
        <ele>846.40002441406</ele>
        <time>2021-02-23T10:39:39Z</time>
      </trkpt>
      <trkpt lat="43.45035" lon="5.76565">
        <ele>846.20001220703</ele>
        <time>2021-02-23T10:40:01Z</time>
      </trkpt>
      <trkpt lat="43.45026" lon="5.76554">
        <ele>846.79998779297</ele>
        <time>2021-02-23T10:40:16Z</time>
      </trkpt>
      <trkpt lat="43.45019" lon="5.76546">
        <ele>847.79998779297</ele>
        <time>2021-02-23T10:40:31Z</time>
      </trkpt>
      <trkpt lat="43.45013" lon="5.76537">
        <ele>848.40002441406</ele>
        <time>2021-02-23T10:40:43Z</time>
      </trkpt>
      <trkpt lat="43.45001" lon="5.76525">
        <ele>850.20001220703</ele>
        <time>2021-02-23T10:40:58Z</time>
      </trkpt>
      <trkpt lat="43.44994" lon="5.76514">
        <ele>850.40002441406</ele>
        <time>2021-02-23T10:41:12Z</time>
      </trkpt>
      <trkpt lat="43.44986" lon="5.765">
        <ele>852</ele>
        <time>2021-02-23T10:41:27Z</time>
      </trkpt>
      <trkpt lat="43.44977" lon="5.76491">
        <ele>852.59997558594</ele>
        <time>2021-02-23T10:41:44Z</time>
      </trkpt>
      <trkpt lat="43.44972" lon="5.76486">
        <ele>852.59997558594</ele>
        <time>2021-02-23T10:42:03Z</time>
      </trkpt>
      <trkpt lat="43.44959" lon="5.76477">
        <ele>852</ele>
        <time>2021-02-23T10:42:20Z</time>
      </trkpt>
      <trkpt lat="43.44948" lon="5.76463">
        <ele>849</ele>
        <time>2021-02-23T10:42:38Z</time>
      </trkpt>
      <trkpt lat="43.44946" lon="5.76451">
        <ele>848.40002441406</ele>
        <time>2021-02-23T10:42:52Z</time>
      </trkpt>
      <trkpt lat="43.44943" lon="5.76437">
        <ele>848.40002441406</ele>
        <time>2021-02-23T10:43:11Z</time>
      </trkpt>
      <trkpt lat="43.44938" lon="5.76421">
        <ele>847</ele>
        <time>2021-02-23T10:43:30Z</time>
      </trkpt>
      <trkpt lat="43.44937" lon="5.7642">
        <ele>847</ele>
        <time>2021-02-23T10:43:31Z</time>
      </trkpt>
      <trkpt lat="43.44935" lon="5.76395">
        <ele>846.79998779297</ele>
        <time>2021-02-23T10:43:51Z</time>
      </trkpt>
      <trkpt lat="43.44936" lon="5.76382">
        <ele>847.59997558594</ele>
        <time>2021-02-23T10:44:07Z</time>
      </trkpt>
      <trkpt lat="43.44935" lon="5.76367">
        <ele>847.40002441406</ele>
        <time>2021-02-23T10:44:38Z</time>
      </trkpt>
      <trkpt lat="43.44935" lon="5.76353">
        <ele>846.59997558594</ele>
        <time>2021-02-23T10:44:53Z</time>
      </trkpt>
      <trkpt lat="43.44935" lon="5.76346">
        <ele>846.79998779297</ele>
        <time>2021-02-23T10:44:58Z</time>
      </trkpt>
      <trkpt lat="43.44935" lon="5.7634">
        <ele>846.20001220703</ele>
        <time>2021-02-23T10:45:12Z</time>
      </trkpt>
      <trkpt lat="43.44937" lon="5.76334">
        <ele>845.79998779297</ele>
        <time>2021-02-23T10:45:26Z</time>
      </trkpt>
      <trkpt lat="43.4494" lon="5.7632">
        <ele>846.20001220703</ele>
        <time>2021-02-23T10:45:43Z</time>
      </trkpt>
      <trkpt lat="43.44941" lon="5.76317">
        <ele>846.40002441406</ele>
        <time>2021-02-23T10:45:47Z</time>
      </trkpt>
      <trkpt lat="43.44947" lon="5.76317">
        <ele>847</ele>
        <time>2021-02-23T10:46:00Z</time>
      </trkpt>
      <trkpt lat="43.44948" lon="5.76315">
        <ele>847.40002441406</ele>
        <time>2021-02-23T10:46:36Z</time>
      </trkpt>
      <trkpt lat="43.44948" lon="5.76316">
        <ele>847.40002441406</ele>
        <time>2021-02-23T10:47:30Z</time>
      </trkpt>
      <trkpt lat="43.44948" lon="5.76317">
        <ele>847.59997558594</ele>
        <time>2021-02-23T10:49:06Z</time>
      </trkpt>
      <trkpt lat="43.44942" lon="5.76315">
        <ele>847.40002441406</ele>
        <time>2021-02-23T10:49:57Z</time>
      </trkpt>
      <trkpt lat="43.44936" lon="5.76318">
        <ele>845.79998779297</ele>
        <time>2021-02-23T10:50:14Z</time>
      </trkpt>
      <trkpt lat="43.44929" lon="5.76317">
        <ele>843.40002441406</ele>
        <time>2021-02-23T10:50:35Z</time>
      </trkpt>
      <trkpt lat="43.44922" lon="5.76301">
        <ele>840.79998779297</ele>
        <time>2021-02-23T10:50:55Z</time>
      </trkpt>
      <trkpt lat="43.44915" lon="5.76293">
        <ele>839.40002441406</ele>
        <time>2021-02-23T10:51:07Z</time>
      </trkpt>
      <trkpt lat="43.44905" lon="5.76278">
        <ele>836</ele>
        <time>2021-02-23T10:51:27Z</time>
      </trkpt>
      <trkpt lat="43.44901" lon="5.76273">
        <ele>835.20001220703</ele>
        <time>2021-02-23T10:51:34Z</time>
      </trkpt>
      <trkpt lat="43.44894" lon="5.7627">
        <ele>834.79998779297</ele>
        <time>2021-02-23T10:51:40Z</time>
      </trkpt>
      <trkpt lat="43.44869" lon="5.76256">
        <ele>831.59997558594</ele>
        <time>2021-02-23T10:52:03Z</time>
      </trkpt>
      <trkpt lat="43.44858" lon="5.76245">
        <ele>832.40002441406</ele>
        <time>2021-02-23T10:52:21Z</time>
      </trkpt>
      <trkpt lat="43.44842" lon="5.76245">
        <ele>832.40002441406</ele>
        <time>2021-02-23T10:52:39Z</time>
      </trkpt>
      <trkpt lat="43.44833" lon="5.76237">
        <ele>833.79998779297</ele>
        <time>2021-02-23T10:52:54Z</time>
      </trkpt>
      <trkpt lat="43.44826" lon="5.76231">
        <ele>835.79998779297</ele>
        <time>2021-02-23T10:53:08Z</time>
      </trkpt>
      <trkpt lat="43.44807" lon="5.76223">
        <ele>837.79998779297</ele>
        <time>2021-02-23T10:53:29Z</time>
      </trkpt>
      <trkpt lat="43.44801" lon="5.76213">
        <ele>838.79998779297</ele>
        <time>2021-02-23T10:53:39Z</time>
      </trkpt>
      <trkpt lat="43.44778" lon="5.76193">
        <ele>839.59997558594</ele>
        <time>2021-02-23T10:54:04Z</time>
      </trkpt>
      <trkpt lat="43.44763" lon="5.76173">
        <ele>840.59997558594</ele>
        <time>2021-02-23T10:54:25Z</time>
      </trkpt>
      <trkpt lat="43.44757" lon="5.76166">
        <ele>841</ele>
        <time>2021-02-23T10:54:37Z</time>
      </trkpt>
      <trkpt lat="43.4474" lon="5.7615">
        <ele>842.20001220703</ele>
        <time>2021-02-23T10:54:57Z</time>
      </trkpt>
      <trkpt lat="43.44727" lon="5.76138">
        <ele>845.40002441406</ele>
        <time>2021-02-23T10:55:17Z</time>
      </trkpt>
      <trkpt lat="43.44715" lon="5.76133">
        <ele>849</ele>
        <time>2021-02-23T10:55:35Z</time>
      </trkpt>
      <trkpt lat="43.44704" lon="5.76126">
        <ele>852.20001220703</ele>
        <time>2021-02-23T10:55:53Z</time>
      </trkpt>
      <trkpt lat="43.44698" lon="5.76124">
        <ele>854</ele>
        <time>2021-02-23T10:56:02Z</time>
      </trkpt>
      <trkpt lat="43.44684" lon="5.76124">
        <ele>856.20001220703</ele>
        <time>2021-02-23T10:56:20Z</time>
      </trkpt>
      <trkpt lat="43.4467" lon="5.76123">
        <ele>859.40002441406</ele>
        <time>2021-02-23T10:56:39Z</time>
      </trkpt>
      <trkpt lat="43.44662" lon="5.7612">
        <ele>862.59997558594</ele>
        <time>2021-02-23T10:56:53Z</time>
      </trkpt>
      <trkpt lat="43.44654" lon="5.76117">
        <ele>865.79998779297</ele>
        <time>2021-02-23T10:57:09Z</time>
      </trkpt>
      <trkpt lat="43.44654" lon="5.76118">
        <ele>867.20001220703</ele>
        <time>2021-02-23T10:58:01Z</time>
      </trkpt>
      <trkpt lat="43.44648" lon="5.76118">
        <ele>866.79998779297</ele>
        <time>2021-02-23T10:58:38Z</time>
      </trkpt>
      <trkpt lat="43.44638" lon="5.76114">
        <ele>869.79998779297</ele>
        <time>2021-02-23T10:58:52Z</time>
      </trkpt>
      <trkpt lat="43.44631" lon="5.76114">
        <ele>873</ele>
        <time>2021-02-23T10:59:07Z</time>
      </trkpt>
      <trkpt lat="43.44618" lon="5.76119">
        <ele>876</ele>
        <time>2021-02-23T10:59:26Z</time>
      </trkpt>
      <trkpt lat="43.44607" lon="5.76115">
        <ele>878.59997558594</ele>
        <time>2021-02-23T10:59:45Z</time>
      </trkpt>
      <trkpt lat="43.446" lon="5.76109">
        <ele>878.79998779297</ele>
        <time>2021-02-23T11:00:04Z</time>
      </trkpt>
      <trkpt lat="43.44597" lon="5.76106">
        <ele>878.20001220703</ele>
        <time>2021-02-23T11:00:24Z</time>
      </trkpt>
      <trkpt lat="43.44592" lon="5.76113">
        <ele>878.20001220703</ele>
        <time>2021-02-23T11:00:47Z</time>
      </trkpt>
      <trkpt lat="43.44586" lon="5.76122">
        <ele>878</ele>
        <time>2021-02-23T11:00:58Z</time>
      </trkpt>
      <trkpt lat="43.44572" lon="5.76124">
        <ele>877.79998779297</ele>
        <time>2021-02-23T11:01:12Z</time>
      </trkpt>
      <trkpt lat="43.44546" lon="5.76123">
        <ele>876.59997558594</ele>
        <time>2021-02-23T11:01:36Z</time>
      </trkpt>
      <trkpt lat="43.44527" lon="5.7612">
        <ele>878</ele>
        <time>2021-02-23T11:01:57Z</time>
      </trkpt>
      <trkpt lat="43.44514" lon="5.76115">
        <ele>880.20001220703</ele>
        <time>2021-02-23T11:02:16Z</time>
      </trkpt>
      <trkpt lat="43.44506" lon="5.76105">
        <ele>882</ele>
        <time>2021-02-23T11:02:35Z</time>
      </trkpt>
      <trkpt lat="43.44504" lon="5.76104">
        <ele>881.79998779297</ele>
        <time>2021-02-23T11:03:15Z</time>
      </trkpt>
      <trkpt lat="43.44491" lon="5.76097">
        <ele>881.59997558594</ele>
        <time>2021-02-23T11:03:35Z</time>
      </trkpt>
      <trkpt lat="43.4449" lon="5.76094">
        <ele>881.40002441406</ele>
        <time>2021-02-23T11:03:55Z</time>
      </trkpt>
      <trkpt lat="43.44489" lon="5.76095">
        <ele>879.20001220703</ele>
        <time>2021-02-23T11:04:27Z</time>
      </trkpt>
      <trkpt lat="43.44488" lon="5.76094">
        <ele>879</ele>
        <time>2021-02-23T11:05:30Z</time>
      </trkpt>
      <trkpt lat="43.44488" lon="5.76094">
        <ele>879.40002441406</ele>
        <time>2021-02-23T11:06:19Z</time>
      </trkpt>
      <trkpt lat="43.44488" lon="5.76095">
        <ele>879.59997558594</ele>
        <time>2021-02-23T11:06:55Z</time>
      </trkpt>
      <trkpt lat="43.44488" lon="5.76095">
        <ele>880</ele>
        <time>2021-02-23T11:07:46Z</time>
      </trkpt>
      <trkpt lat="43.44489" lon="5.76094">
        <ele>880.40002441406</ele>
        <time>2021-02-23T11:09:01Z</time>
      </trkpt>
      <trkpt lat="43.44489" lon="5.76093">
        <ele>879</ele>
        <time>2021-02-23T11:09:17Z</time>
      </trkpt>
      <trkpt lat="43.44488" lon="5.76094">
        <ele>879</ele>
        <time>2021-02-23T11:10:29Z</time>
      </trkpt>
      <trkpt lat="43.44489" lon="5.76095">
        <ele>879</ele>
        <time>2021-02-23T11:13:17Z</time>
      </trkpt>
      <trkpt lat="43.44488" lon="5.76095">
        <ele>878.79998779297</ele>
        <time>2021-02-23T11:15:37Z</time>
      </trkpt>
      <trkpt lat="43.44489" lon="5.76094">
        <ele>878.79998779297</ele>
        <time>2021-02-23T11:17:32Z</time>
      </trkpt>
      <trkpt lat="43.44489" lon="5.76094">
        <ele>879.40002441406</ele>
        <time>2021-02-23T11:18:34Z</time>
      </trkpt>
      <trkpt lat="43.44489" lon="5.76095">
        <ele>878.79998779297</ele>
        <time>2021-02-23T11:20:50Z</time>
      </trkpt>
      <trkpt lat="43.4449" lon="5.76093">
        <ele>878.59997558594</ele>
        <time>2021-02-23T11:22:25Z</time>
      </trkpt>
      <trkpt lat="43.44489" lon="5.76095">
        <ele>878.79998779297</ele>
        <time>2021-02-23T11:23:24Z</time>
      </trkpt>
      <trkpt lat="43.44489" lon="5.76095">
        <ele>878.79998779297</ele>
        <time>2021-02-23T11:25:38Z</time>
      </trkpt>
      <trkpt lat="43.44489" lon="5.76095">
        <ele>879.20001220703</ele>
        <time>2021-02-23T11:28:16Z</time>
      </trkpt>
      <trkpt lat="43.44488" lon="5.76095">
        <ele>878.59997558594</ele>
        <time>2021-02-23T11:31:20Z</time>
      </trkpt>
      <trkpt lat="43.44489" lon="5.76096">
        <ele>878.40002441406</ele>
        <time>2021-02-23T11:37:26Z</time>
      </trkpt>
      <trkpt lat="43.44489" lon="5.76095">
        <ele>878.20001220703</ele>
        <time>2021-02-23T11:39:41Z</time>
      </trkpt>
      <trkpt lat="43.4449" lon="5.76096">
        <ele>878.20001220703</ele>
        <time>2021-02-23T11:40:21Z</time>
      </trkpt>
      <trkpt lat="43.44489" lon="5.76094">
        <ele>878.40002441406</ele>
        <time>2021-02-23T11:41:16Z</time>
      </trkpt>
      <trkpt lat="43.4449" lon="5.76094">
        <ele>878.59997558594</ele>
        <time>2021-02-23T11:42:06Z</time>
      </trkpt>
      <trkpt lat="43.44489" lon="5.76094">
        <ele>878.59997558594</ele>
        <time>2021-02-23T11:43:50Z</time>
      </trkpt>
      <trkpt lat="43.44489" lon="5.76095">
        <ele>878.40002441406</ele>
        <time>2021-02-23T11:45:28Z</time>
      </trkpt>
      <trkpt lat="43.44491" lon="5.76096">
        <ele>878.79998779297</ele>
        <time>2021-02-23T11:46:31Z</time>
      </trkpt>
      <trkpt lat="43.4449" lon="5.76096">
        <ele>879.79998779297</ele>
        <time>2021-02-23T11:47:00Z</time>
      </trkpt>
      <trkpt lat="43.44486" lon="5.76096">
        <ele>880.20001220703</ele>
        <time>2021-02-23T11:47:17Z</time>
      </trkpt>
      <trkpt lat="43.44476" lon="5.76092">
        <ele>879.40002441406</ele>
        <time>2021-02-23T11:47:35Z</time>
      </trkpt>
      <trkpt lat="43.44466" lon="5.76091">
        <ele>876.40002441406</ele>
        <time>2021-02-23T11:47:51Z</time>
      </trkpt>
      <trkpt lat="43.44456" lon="5.76081">
        <ele>874.59997558594</ele>
        <time>2021-02-23T11:48:08Z</time>
      </trkpt>
      <trkpt lat="43.44446" lon="5.76078">
        <ele>871.79998779297</ele>
        <time>2021-02-23T11:48:24Z</time>
      </trkpt>
      <trkpt lat="43.4444" lon="5.76073">
        <ele>868.79998779297</ele>
        <time>2021-02-23T11:48:36Z</time>
      </trkpt>
      <trkpt lat="43.4443" lon="5.76071">
        <ele>866.59997558594</ele>
        <time>2021-02-23T11:48:52Z</time>
      </trkpt>
      <trkpt lat="43.44426" lon="5.76065">
        <ele>864.40002441406</ele>
        <time>2021-02-23T11:49:06Z</time>
      </trkpt>
      <trkpt lat="43.44418" lon="5.7606">
        <ele>862.20001220703</ele>
        <time>2021-02-23T11:49:21Z</time>
      </trkpt>
      <trkpt lat="43.4441" lon="5.76052">
        <ele>859.20001220703</ele>
        <time>2021-02-23T11:49:37Z</time>
      </trkpt>
      <trkpt lat="43.44403" lon="5.76052">
        <ele>856.20001220703</ele>
        <time>2021-02-23T11:49:54Z</time>
      </trkpt>
      <trkpt lat="43.44396" lon="5.76047">
        <ele>853.59997558594</ele>
        <time>2021-02-23T11:50:09Z</time>
      </trkpt>
      <trkpt lat="43.4439" lon="5.76048">
        <ele>850.79998779297</ele>
        <time>2021-02-23T11:50:25Z</time>
      </trkpt>
      <trkpt lat="43.44384" lon="5.76048">
        <ele>848</ele>
        <time>2021-02-23T11:50:43Z</time>
      </trkpt>
      <trkpt lat="43.44379" lon="5.76047">
        <ele>844.79998779297</ele>
        <time>2021-02-23T11:51:03Z</time>
      </trkpt>
      <trkpt lat="43.44378" lon="5.76047">
        <ele>844.20001220703</ele>
        <time>2021-02-23T11:51:28Z</time>
      </trkpt>
      <trkpt lat="43.44373" lon="5.76052">
        <ele>842.20001220703</ele>
        <time>2021-02-23T11:51:48Z</time>
      </trkpt>
      <trkpt lat="43.44368" lon="5.76051">
        <ele>839.79998779297</ele>
        <time>2021-02-23T11:52:06Z</time>
      </trkpt>
      <trkpt lat="43.44363" lon="5.76052">
        <ele>836.59997558594</ele>
        <time>2021-02-23T11:52:26Z</time>
      </trkpt>
      <trkpt lat="43.44355" lon="5.76056">
        <ele>833.79998779297</ele>
        <time>2021-02-23T11:52:44Z</time>
      </trkpt>
      <trkpt lat="43.4435" lon="5.76062">
        <ele>830.59997558594</ele>
        <time>2021-02-23T11:52:59Z</time>
      </trkpt>
      <trkpt lat="43.44346" lon="5.76062">
        <ele>827.59997558594</ele>
        <time>2021-02-23T11:53:13Z</time>
      </trkpt>
      <trkpt lat="43.44338" lon="5.76074">
        <ele>824.20001220703</ele>
        <time>2021-02-23T11:53:31Z</time>
      </trkpt>
      <trkpt lat="43.44333" lon="5.76078">
        <ele>822</ele>
        <time>2021-02-23T11:53:44Z</time>
      </trkpt>
      <trkpt lat="43.44333" lon="5.7607">
        <ele>821</ele>
        <time>2021-02-23T11:53:49Z</time>
      </trkpt>
      <trkpt lat="43.4433" lon="5.76057">
        <ele>819.59997558594</ele>
        <time>2021-02-23T11:54:05Z</time>
      </trkpt>
      <trkpt lat="43.44324" lon="5.76047">
        <ele>818</ele>
        <time>2021-02-23T11:54:19Z</time>
      </trkpt>
      <trkpt lat="43.44318" lon="5.76041">
        <ele>815.79998779297</ele>
        <time>2021-02-23T11:54:33Z</time>
      </trkpt>
      <trkpt lat="43.44309" lon="5.76034">
        <ele>812.79998779297</ele>
        <time>2021-02-23T11:54:48Z</time>
      </trkpt>
      <trkpt lat="43.44303" lon="5.76026">
        <ele>810.40002441406</ele>
        <time>2021-02-23T11:55:04Z</time>
      </trkpt>
      <trkpt lat="43.44293" lon="5.76018">
        <ele>807.20001220703</ele>
        <time>2021-02-23T11:55:22Z</time>
      </trkpt>
      <trkpt lat="43.44286" lon="5.76013">
        <ele>804.20001220703</ele>
        <time>2021-02-23T11:55:40Z</time>
      </trkpt>
      <trkpt lat="43.44281" lon="5.76008">
        <ele>802.20001220703</ele>
        <time>2021-02-23T11:55:55Z</time>
      </trkpt>
      <trkpt lat="43.44275" lon="5.76002">
        <ele>799.20001220703</ele>
        <time>2021-02-23T11:56:11Z</time>
      </trkpt>
      <trkpt lat="43.44271" lon="5.75989">
        <ele>796</ele>
        <time>2021-02-23T11:56:28Z</time>
      </trkpt>
      <trkpt lat="43.44265" lon="5.75977">
        <ele>793</ele>
        <time>2021-02-23T11:56:44Z</time>
      </trkpt>
      <trkpt lat="43.4426" lon="5.75963">
        <ele>789.79998779297</ele>
        <time>2021-02-23T11:56:58Z</time>
      </trkpt>
      <trkpt lat="43.44251" lon="5.75951">
        <ele>786.59997558594</ele>
        <time>2021-02-23T11:57:12Z</time>
      </trkpt>
      <trkpt lat="43.44243" lon="5.75944">
        <ele>783.40002441406</ele>
        <time>2021-02-23T11:57:22Z</time>
      </trkpt>
      <trkpt lat="43.44235" lon="5.75934">
        <ele>780.20001220703</ele>
        <time>2021-02-23T11:57:35Z</time>
      </trkpt>
      <trkpt lat="43.44231" lon="5.75928">
        <ele>777.79998779297</ele>
        <time>2021-02-23T11:57:59Z</time>
      </trkpt>
      <trkpt lat="43.44229" lon="5.75924">
        <ele>777.59997558594</ele>
        <time>2021-02-23T11:58:25Z</time>
      </trkpt>
      <trkpt lat="43.4422" lon="5.7592">
        <ele>775.79998779297</ele>
        <time>2021-02-23T11:58:42Z</time>
      </trkpt>
      <trkpt lat="43.44211" lon="5.75918">
        <ele>773.40002441406</ele>
        <time>2021-02-23T11:58:57Z</time>
      </trkpt>
      <trkpt lat="43.44208" lon="5.75905">
        <ele>770.40002441406</ele>
        <time>2021-02-23T11:59:10Z</time>
      </trkpt>
      <trkpt lat="43.44202" lon="5.75885">
        <ele>767.59997558594</ele>
        <time>2021-02-23T11:59:28Z</time>
      </trkpt>
      <trkpt lat="43.44198" lon="5.75882">
        <ele>766</ele>
        <time>2021-02-23T11:59:34Z</time>
      </trkpt>
      <trkpt lat="43.44186" lon="5.75871">
        <ele>762.59997558594</ele>
        <time>2021-02-23T11:59:48Z</time>
      </trkpt>
      <trkpt lat="43.44172" lon="5.75856">
        <ele>760.79998779297</ele>
        <time>2021-02-23T12:00:06Z</time>
      </trkpt>
      <trkpt lat="43.44152" lon="5.75838">
        <ele>757.79998779297</ele>
        <time>2021-02-23T12:00:27Z</time>
      </trkpt>
      <trkpt lat="43.44135" lon="5.75827">
        <ele>756.40002441406</ele>
        <time>2021-02-23T12:00:48Z</time>
      </trkpt>
      <trkpt lat="43.44123" lon="5.75821">
        <ele>754.20001220703</ele>
        <time>2021-02-23T12:01:05Z</time>
      </trkpt>
      <trkpt lat="43.44123" lon="5.75813">
        <ele>751.59997558594</ele>
        <time>2021-02-23T12:01:22Z</time>
      </trkpt>
      <trkpt lat="43.44114" lon="5.75807">
        <ele>748.59997558594</ele>
        <time>2021-02-23T12:01:37Z</time>
      </trkpt>
      <trkpt lat="43.44106" lon="5.75801">
        <ele>745.40002441406</ele>
        <time>2021-02-23T12:01:55Z</time>
      </trkpt>
      <trkpt lat="43.44099" lon="5.75795">
        <ele>742.59997558594</ele>
        <time>2021-02-23T12:02:09Z</time>
      </trkpt>
      <trkpt lat="43.44095" lon="5.75793">
        <ele>741</ele>
        <time>2021-02-23T12:02:23Z</time>
      </trkpt>
      <trkpt lat="43.44091" lon="5.75788">
        <ele>740.79998779297</ele>
        <time>2021-02-23T12:02:28Z</time>
      </trkpt>
      <trkpt lat="43.44086" lon="5.75785">
        <ele>740.40002441406</ele>
        <time>2021-02-23T12:02:33Z</time>
      </trkpt>
      <trkpt lat="43.44083" lon="5.75781">
        <ele>740.20001220703</ele>
        <time>2021-02-23T12:02:38Z</time>
      </trkpt>
      <trkpt lat="43.44079" lon="5.75776">
        <ele>740</ele>
        <time>2021-02-23T12:02:44Z</time>
      </trkpt>
      <trkpt lat="43.44069" lon="5.75776">
        <ele>738.20001220703</ele>
        <time>2021-02-23T12:02:55Z</time>
      </trkpt>
      <trkpt lat="43.44061" lon="5.75777">
        <ele>736.59997558594</ele>
        <time>2021-02-23T12:03:10Z</time>
      </trkpt>
      <trkpt lat="43.44049" lon="5.75778">
        <ele>736.59997558594</ele>
        <time>2021-02-23T12:03:23Z</time>
      </trkpt>
      <trkpt lat="43.44032" lon="5.75781">
        <ele>733.20001220703</ele>
        <time>2021-02-23T12:03:44Z</time>
      </trkpt>
      <trkpt lat="43.44016" lon="5.75779">
        <ele>730.40002441406</ele>
        <time>2021-02-23T12:04:01Z</time>
      </trkpt>
      <trkpt lat="43.44009" lon="5.75783">
        <ele>728.59997558594</ele>
        <time>2021-02-23T12:04:10Z</time>
      </trkpt>
      <trkpt lat="43.43993" lon="5.75776">
        <ele>727.79998779297</ele>
        <time>2021-02-23T12:04:28Z</time>
      </trkpt>
      <trkpt lat="43.43989" lon="5.75773">
        <ele>727.40002441406</ele>
        <time>2021-02-23T12:04:31Z</time>
      </trkpt>
      <trkpt lat="43.43986" lon="5.75766">
        <ele>727</ele>
        <time>2021-02-23T12:04:36Z</time>
      </trkpt>
      <trkpt lat="43.43987" lon="5.75752">
        <ele>725.59997558594</ele>
        <time>2021-02-23T12:04:51Z</time>
      </trkpt>
      <trkpt lat="43.43989" lon="5.7575">
        <ele>725.40002441406</ele>
        <time>2021-02-23T12:04:54Z</time>
      </trkpt>
      <trkpt lat="43.43991" lon="5.75748">
        <ele>725.40002441406</ele>
        <time>2021-02-23T12:04:57Z</time>
      </trkpt>
      <trkpt lat="43.43996" lon="5.75737">
        <ele>724.59997558594</ele>
        <time>2021-02-23T12:05:07Z</time>
      </trkpt>
      <trkpt lat="43.44" lon="5.75734">
        <ele>724</ele>
        <time>2021-02-23T12:05:11Z</time>
      </trkpt>
      <trkpt lat="43.44014" lon="5.7572">
        <ele>721.20001220703</ele>
        <time>2021-02-23T12:05:27Z</time>
      </trkpt>
      <trkpt lat="43.44017" lon="5.75716">
        <ele>720.59997558594</ele>
        <time>2021-02-23T12:05:31Z</time>
      </trkpt>
      <trkpt lat="43.4403" lon="5.75707">
        <ele>717.79998779297</ele>
        <time>2021-02-23T12:05:47Z</time>
      </trkpt>
      <trkpt lat="43.44043" lon="5.75696">
        <ele>715.20001220703</ele>
        <time>2021-02-23T12:06:03Z</time>
      </trkpt>
      <trkpt lat="43.44056" lon="5.75689">
        <ele>712.59997558594</ele>
        <time>2021-02-23T12:06:19Z</time>
      </trkpt>
      <trkpt lat="43.44074" lon="5.75675">
        <ele>709.40002441406</ele>
        <time>2021-02-23T12:06:41Z</time>
      </trkpt>
      <trkpt lat="43.44085" lon="5.75666">
        <ele>707.20001220703</ele>
        <time>2021-02-23T12:06:56Z</time>
      </trkpt>
      <trkpt lat="43.44086" lon="5.75666">
        <ele>707</ele>
        <time>2021-02-23T12:06:57Z</time>
      </trkpt>
      <trkpt lat="43.44099" lon="5.7566">
        <ele>704.40002441406</ele>
        <time>2021-02-23T12:07:15Z</time>
      </trkpt>
      <trkpt lat="43.44108" lon="5.75659">
        <ele>702</ele>
        <time>2021-02-23T12:07:29Z</time>
      </trkpt>
      <trkpt lat="43.44111" lon="5.7566">
        <ele>701.40002441406</ele>
        <time>2021-02-23T12:07:32Z</time>
      </trkpt>
      <trkpt lat="43.44132" lon="5.75672">
        <ele>699.20001220703</ele>
        <time>2021-02-23T12:07:53Z</time>
      </trkpt>
      <trkpt lat="43.44147" lon="5.7568">
        <ele>698.20001220703</ele>
        <time>2021-02-23T12:08:07Z</time>
      </trkpt>
      <trkpt lat="43.44148" lon="5.75681">
        <ele>698</ele>
        <time>2021-02-23T12:08:08Z</time>
      </trkpt>
      <trkpt lat="43.4415" lon="5.7568">
        <ele>698</ele>
        <time>2021-02-23T12:08:10Z</time>
      </trkpt>
      <trkpt lat="43.44155" lon="5.75684">
        <ele>697.40002441406</ele>
        <time>2021-02-23T12:08:16Z</time>
      </trkpt>
      <trkpt lat="43.4417" lon="5.75686">
        <ele>696.20001220703</ele>
        <time>2021-02-23T12:08:28Z</time>
      </trkpt>
      <trkpt lat="43.44183" lon="5.75675">
        <ele>695.59997558594</ele>
        <time>2021-02-23T12:08:41Z</time>
      </trkpt>
      <trkpt lat="43.44198" lon="5.75663">
        <ele>695.59997558594</ele>
        <time>2021-02-23T12:08:55Z</time>
      </trkpt>
      <trkpt lat="43.4421" lon="5.75654">
        <ele>695.40002441406</ele>
        <time>2021-02-23T12:09:06Z</time>
      </trkpt>
      <trkpt lat="43.44219" lon="5.7565">
        <ele>694.40002441406</ele>
        <time>2021-02-23T12:09:23Z</time>
      </trkpt>
      <trkpt lat="43.44223" lon="5.75647">
        <ele>694</ele>
        <time>2021-02-23T12:09:39Z</time>
      </trkpt>
      <trkpt lat="43.44233" lon="5.75655">
        <ele>692.59997558594</ele>
        <time>2021-02-23T12:09:58Z</time>
      </trkpt>
      <trkpt lat="43.4424" lon="5.75661">
        <ele>691.79998779297</ele>
        <time>2021-02-23T12:10:08Z</time>
      </trkpt>
      <trkpt lat="43.44253" lon="5.75689">
        <ele>688.59997558594</ele>
        <time>2021-02-23T12:10:31Z</time>
      </trkpt>
      <trkpt lat="43.44255" lon="5.75697">
        <ele>687.40002441406</ele>
        <time>2021-02-23T12:10:37Z</time>
      </trkpt>
      <trkpt lat="43.4426" lon="5.75703">
        <ele>686.59997558594</ele>
        <time>2021-02-23T12:10:43Z</time>
      </trkpt>
      <trkpt lat="43.44279" lon="5.75699">
        <ele>684.40002441406</ele>
        <time>2021-02-23T12:11:02Z</time>
      </trkpt>
      <trkpt lat="43.44287" lon="5.75689">
        <ele>682</ele>
        <time>2021-02-23T12:11:15Z</time>
      </trkpt>
      <trkpt lat="43.44303" lon="5.75681">
        <ele>678.79998779297</ele>
        <time>2021-02-23T12:11:30Z</time>
      </trkpt>
      <trkpt lat="43.44318" lon="5.75681">
        <ele>676.59997558594</ele>
        <time>2021-02-23T12:11:43Z</time>
      </trkpt>
      <trkpt lat="43.44329" lon="5.75686">
        <ele>675.20001220703</ele>
        <time>2021-02-23T12:11:55Z</time>
      </trkpt>
      <trkpt lat="43.44331" lon="5.75687">
        <ele>675</ele>
        <time>2021-02-23T12:11:57Z</time>
      </trkpt>
      <trkpt lat="43.44342" lon="5.7569">
        <ele>673.40002441406</ele>
        <time>2021-02-23T12:12:08Z</time>
      </trkpt>
      <trkpt lat="43.44359" lon="5.75672">
        <ele>670.40002441406</ele>
        <time>2021-02-23T12:12:27Z</time>
      </trkpt>
      <trkpt lat="43.44373" lon="5.75659">
        <ele>668.79998779297</ele>
        <time>2021-02-23T12:12:41Z</time>
      </trkpt>
      <trkpt lat="43.44384" lon="5.75649">
        <ele>666.59997558594</ele>
        <time>2021-02-23T12:12:52Z</time>
      </trkpt>
      <trkpt lat="43.44385" lon="5.7565">
        <ele>666.59997558594</ele>
        <time>2021-02-23T12:12:53Z</time>
      </trkpt>
      <trkpt lat="43.44401" lon="5.75652">
        <ele>664</ele>
        <time>2021-02-23T12:13:10Z</time>
      </trkpt>
      <trkpt lat="43.44404" lon="5.75653">
        <ele>663.20001220703</ele>
        <time>2021-02-23T12:13:14Z</time>
      </trkpt>
      <trkpt lat="43.44422" lon="5.75659">
        <ele>660.20001220703</ele>
        <time>2021-02-23T12:13:32Z</time>
      </trkpt>
      <trkpt lat="43.4443" lon="5.75669">
        <ele>658.79998779297</ele>
        <time>2021-02-23T12:13:46Z</time>
      </trkpt>
      <trkpt lat="43.44439" lon="5.75672">
        <ele>657.20001220703</ele>
        <time>2021-02-23T12:14:03Z</time>
      </trkpt>
      <trkpt lat="43.4445" lon="5.75678">
        <ele>654.59997558594</ele>
        <time>2021-02-23T12:14:18Z</time>
      </trkpt>
      <trkpt lat="43.44461" lon="5.75679">
        <ele>653</ele>
        <time>2021-02-23T12:14:28Z</time>
      </trkpt>
      <trkpt lat="43.44475" lon="5.75675">
        <ele>651.40002441406</ele>
        <time>2021-02-23T12:14:40Z</time>
      </trkpt>
      <trkpt lat="43.44487" lon="5.75672">
        <ele>650.20001220703</ele>
        <time>2021-02-23T12:14:54Z</time>
      </trkpt>
      <trkpt lat="43.44488" lon="5.75672">
        <ele>650</ele>
        <time>2021-02-23T12:14:55Z</time>
      </trkpt>
      <trkpt lat="43.44503" lon="5.75678">
        <ele>648.20001220703</ele>
        <time>2021-02-23T12:15:09Z</time>
      </trkpt>
      <trkpt lat="43.44516" lon="5.75675">
        <ele>646</ele>
        <time>2021-02-23T12:15:22Z</time>
      </trkpt>
      <trkpt lat="43.44524" lon="5.75675">
        <ele>644.79998779297</ele>
        <time>2021-02-23T12:15:30Z</time>
      </trkpt>
      <trkpt lat="43.44539" lon="5.75675">
        <ele>642.79998779297</ele>
        <time>2021-02-23T12:15:43Z</time>
      </trkpt>
      <trkpt lat="43.44547" lon="5.75672">
        <ele>641.20001220703</ele>
        <time>2021-02-23T12:16:00Z</time>
      </trkpt>
      <trkpt lat="43.44548" lon="5.75671">
        <ele>641.20001220703</ele>
        <time>2021-02-23T12:16:02Z</time>
      </trkpt>
      <trkpt lat="43.44553" lon="5.75667">
        <ele>640.79998779297</ele>
        <time>2021-02-23T12:16:07Z</time>
      </trkpt>
      <trkpt lat="43.44569" lon="5.75666">
        <ele>638.59997558594</ele>
        <time>2021-02-23T12:16:20Z</time>
      </trkpt>
      <trkpt lat="43.4459" lon="5.75677">
        <ele>636.79998779297</ele>
        <time>2021-02-23T12:16:38Z</time>
      </trkpt>
      <trkpt lat="43.44602" lon="5.75675">
        <ele>635.79998779297</ele>
        <time>2021-02-23T12:16:53Z</time>
      </trkpt>
      <trkpt lat="43.44608" lon="5.75667">
        <ele>635.40002441406</ele>
        <time>2021-02-23T12:17:03Z</time>
      </trkpt>
      <trkpt lat="43.44622" lon="5.75641">
        <ele>635.59997558594</ele>
        <time>2021-02-23T12:17:23Z</time>
      </trkpt>
      <trkpt lat="43.44638" lon="5.7563">
        <ele>636</ele>
        <time>2021-02-23T12:17:37Z</time>
      </trkpt>
      <trkpt lat="43.44639" lon="5.7563">
        <ele>636</ele>
        <time>2021-02-23T12:17:38Z</time>
      </trkpt>
      <trkpt lat="43.44651" lon="5.75634">
        <ele>635.59997558594</ele>
        <time>2021-02-23T12:17:49Z</time>
      </trkpt>
      <trkpt lat="43.44656" lon="5.75629">
        <ele>635</ele>
        <time>2021-02-23T12:17:55Z</time>
      </trkpt>
      <trkpt lat="43.44671" lon="5.75615">
        <ele>635</ele>
        <time>2021-02-23T12:18:11Z</time>
      </trkpt>
      <trkpt lat="43.44687" lon="5.75606">
        <ele>636.40002441406</ele>
        <time>2021-02-23T12:18:27Z</time>
      </trkpt>
      <trkpt lat="43.44689" lon="5.75605">
        <ele>636.40002441406</ele>
        <time>2021-02-23T12:18:29Z</time>
      </trkpt>
      <trkpt lat="43.44704" lon="5.75598">
        <ele>636</ele>
        <time>2021-02-23T12:18:43Z</time>
      </trkpt>
      <trkpt lat="43.4472" lon="5.75594">
        <ele>634.59997558594</ele>
        <time>2021-02-23T12:18:56Z</time>
      </trkpt>
      <trkpt lat="43.44731" lon="5.75591">
        <ele>633</ele>
        <time>2021-02-23T12:19:09Z</time>
      </trkpt>
      <trkpt lat="43.44744" lon="5.75593">
        <ele>631.79998779297</ele>
        <time>2021-02-23T12:19:26Z</time>
      </trkpt>
      <trkpt lat="43.44746" lon="5.75592">
        <ele>631.79998779297</ele>
        <time>2021-02-23T12:19:28Z</time>
      </trkpt>
      <trkpt lat="43.44765" lon="5.75591">
        <ele>632</ele>
        <time>2021-02-23T12:19:44Z</time>
      </trkpt>
      <trkpt lat="43.44771" lon="5.75589">
        <ele>632.20001220703</ele>
        <time>2021-02-23T12:19:50Z</time>
      </trkpt>
      <trkpt lat="43.44776" lon="5.7559">
        <ele>632.20001220703</ele>
        <time>2021-02-23T12:19:54Z</time>
      </trkpt>
      <trkpt lat="43.44799" lon="5.75588">
        <ele>632.79998779297</ele>
        <time>2021-02-23T12:20:14Z</time>
      </trkpt>
      <trkpt lat="43.44805" lon="5.75586">
        <ele>633</ele>
        <time>2021-02-23T12:20:20Z</time>
      </trkpt>
      <trkpt lat="43.44811" lon="5.75583">
        <ele>633</ele>
        <time>2021-02-23T12:20:26Z</time>
      </trkpt>
      <trkpt lat="43.44815" lon="5.75582">
        <ele>632.79998779297</ele>
        <time>2021-02-23T12:20:29Z</time>
      </trkpt>
      <trkpt lat="43.44839" lon="5.75573">
        <ele>631.79998779297</ele>
        <time>2021-02-23T12:20:49Z</time>
      </trkpt>
      <trkpt lat="43.44844" lon="5.75575">
        <ele>630.79998779297</ele>
        <time>2021-02-23T12:20:55Z</time>
      </trkpt>
      <trkpt lat="43.44847" lon="5.75577">
        <ele>630.40002441406</ele>
        <time>2021-02-23T12:20:58Z</time>
      </trkpt>
      <trkpt lat="43.44853" lon="5.75578">
        <ele>629.59997558594</ele>
        <time>2021-02-23T12:21:03Z</time>
      </trkpt>
      <trkpt lat="43.4487" lon="5.75584">
        <ele>626.79998779297</ele>
        <time>2021-02-23T12:21:18Z</time>
      </trkpt>
      <trkpt lat="43.44873" lon="5.75585">
        <ele>626.59997558594</ele>
        <time>2021-02-23T12:21:20Z</time>
      </trkpt>
      <trkpt lat="43.44891" lon="5.75601">
        <ele>623.40002441406</ele>
        <time>2021-02-23T12:21:38Z</time>
      </trkpt>
      <trkpt lat="43.44908" lon="5.75614">
        <ele>622</ele>
        <time>2021-02-23T12:21:54Z</time>
      </trkpt>
      <trkpt lat="43.44924" lon="5.75634">
        <ele>621</ele>
        <time>2021-02-23T12:22:12Z</time>
      </trkpt>
      <trkpt lat="43.4494" lon="5.75656">
        <ele>619.59997558594</ele>
        <time>2021-02-23T12:22:29Z</time>
      </trkpt>
      <trkpt lat="43.44944" lon="5.75664">
        <ele>618.79998779297</ele>
        <time>2021-02-23T12:22:35Z</time>
      </trkpt>
      <trkpt lat="43.44948" lon="5.75671">
        <ele>618.40002441406</ele>
        <time>2021-02-23T12:22:41Z</time>
      </trkpt>
      <trkpt lat="43.44963" lon="5.75692">
        <ele>617.79998779297</ele>
        <time>2021-02-23T12:23:01Z</time>
      </trkpt>
      <trkpt lat="43.44968" lon="5.75708">
        <ele>617.59997558594</ele>
        <time>2021-02-23T12:23:12Z</time>
      </trkpt>
      <trkpt lat="43.44972" lon="5.75732">
        <ele>616.40002441406</ele>
        <time>2021-02-23T12:23:27Z</time>
      </trkpt>
      <trkpt lat="43.44976" lon="5.75745">
        <ele>615.59997558594</ele>
        <time>2021-02-23T12:23:35Z</time>
      </trkpt>
      <trkpt lat="43.44985" lon="5.75762">
        <ele>615.40002441406</ele>
        <time>2021-02-23T12:23:48Z</time>
      </trkpt>
      <trkpt lat="43.44988" lon="5.75766">
        <ele>615.20001220703</ele>
        <time>2021-02-23T12:23:52Z</time>
      </trkpt>
      <trkpt lat="43.45006" lon="5.75788">
        <ele>616</ele>
        <time>2021-02-23T12:24:14Z</time>
      </trkpt>
      <trkpt lat="43.45021" lon="5.75812">
        <ele>617.59997558594</ele>
        <time>2021-02-23T12:24:33Z</time>
      </trkpt>
      <trkpt lat="43.45032" lon="5.75837">
        <ele>616.59997558594</ele>
        <time>2021-02-23T12:24:50Z</time>
      </trkpt>
      <trkpt lat="43.45032" lon="5.75855">
        <ele>615.79998779297</ele>
        <time>2021-02-23T12:25:01Z</time>
      </trkpt>
      <trkpt lat="43.45031" lon="5.75861">
        <ele>615.40002441406</ele>
        <time>2021-02-23T12:25:04Z</time>
      </trkpt>
      <trkpt lat="43.45035" lon="5.75881">
        <ele>614.20001220703</ele>
        <time>2021-02-23T12:25:17Z</time>
      </trkpt>
      <trkpt lat="43.45047" lon="5.75903">
        <ele>613.40002441406</ele>
        <time>2021-02-23T12:25:33Z</time>
      </trkpt>
      <trkpt lat="43.4505" lon="5.75907">
        <ele>613</ele>
        <time>2021-02-23T12:25:37Z</time>
      </trkpt>
      <trkpt lat="43.45066" lon="5.75917">
        <ele>612.20001220703</ele>
        <time>2021-02-23T12:25:51Z</time>
      </trkpt>
      <trkpt lat="43.45084" lon="5.75924">
        <ele>611.79998779297</ele>
        <time>2021-02-23T12:26:07Z</time>
      </trkpt>
      <trkpt lat="43.45102" lon="5.75929">
        <ele>613</ele>
        <time>2021-02-23T12:26:22Z</time>
      </trkpt>
      <trkpt lat="43.45114" lon="5.75943">
        <ele>613.79998779297</ele>
        <time>2021-02-23T12:26:36Z</time>
      </trkpt>
      <trkpt lat="43.45129" lon="5.75966">
        <ele>614.59997558594</ele>
        <time>2021-02-23T12:26:55Z</time>
      </trkpt>
      <trkpt lat="43.45149" lon="5.75972">
        <ele>614.79998779297</ele>
        <time>2021-02-23T12:27:11Z</time>
      </trkpt>
      <trkpt lat="43.45161" lon="5.75977">
        <ele>616</ele>
        <time>2021-02-23T12:27:27Z</time>
      </trkpt>
      <trkpt lat="43.45166" lon="5.75982">
        <ele>616.20001220703</ele>
        <time>2021-02-23T12:27:43Z</time>
      </trkpt>
      <trkpt lat="43.4517" lon="5.75996">
        <ele>615.79998779297</ele>
        <time>2021-02-23T12:27:54Z</time>
      </trkpt>
      <trkpt lat="43.45175" lon="5.76023">
        <ele>613.40002441406</ele>
        <time>2021-02-23T12:28:12Z</time>
      </trkpt>
      <trkpt lat="43.45176" lon="5.76054">
        <ele>611.40002441406</ele>
        <time>2021-02-23T12:28:30Z</time>
      </trkpt>
      <trkpt lat="43.45177" lon="5.76068">
        <ele>609.79998779297</ele>
        <time>2021-02-23T12:28:40Z</time>
      </trkpt>
      <trkpt lat="43.4518" lon="5.76079">
        <ele>608.20001220703</ele>
        <time>2021-02-23T12:28:47Z</time>
      </trkpt>
      <trkpt lat="43.45183" lon="5.76092">
        <ele>606.40002441406</ele>
        <time>2021-02-23T12:28:55Z</time>
      </trkpt>
      <trkpt lat="43.45197" lon="5.76111">
        <ele>604.59997558594</ele>
        <time>2021-02-23T12:29:12Z</time>
      </trkpt>
      <trkpt lat="43.45205" lon="5.76123">
        <ele>604.79998779297</ele>
        <time>2021-02-23T12:29:23Z</time>
      </trkpt>
      <trkpt lat="43.45206" lon="5.76126">
        <ele>604.79998779297</ele>
        <time>2021-02-23T12:29:25Z</time>
      </trkpt>
      <trkpt lat="43.45212" lon="5.7614">
        <ele>605.59997558594</ele>
        <time>2021-02-23T12:29:37Z</time>
      </trkpt>
      <trkpt lat="43.45218" lon="5.76148">
        <ele>606.20001220703</ele>
        <time>2021-02-23T12:29:44Z</time>
      </trkpt>
      <trkpt lat="43.45223" lon="5.76171">
        <ele>607.79998779297</ele>
        <time>2021-02-23T12:29:58Z</time>
      </trkpt>
      <trkpt lat="43.45236" lon="5.76188">
        <ele>609.20001220703</ele>
        <time>2021-02-23T12:30:17Z</time>
      </trkpt>
      <trkpt lat="43.45239" lon="5.76191">
        <ele>609.40002441406</ele>
        <time>2021-02-23T12:30:20Z</time>
      </trkpt>
      <trkpt lat="43.45246" lon="5.76197">
        <ele>610</ele>
        <time>2021-02-23T12:30:28Z</time>
      </trkpt>
      <trkpt lat="43.45258" lon="5.76207">
        <ele>611.40002441406</ele>
        <time>2021-02-23T12:30:41Z</time>
      </trkpt>
      <trkpt lat="43.45278" lon="5.76217">
        <ele>613.40002441406</ele>
        <time>2021-02-23T12:31:00Z</time>
      </trkpt>
      <trkpt lat="43.45281" lon="5.76228">
        <ele>612.79998779297</ele>
        <time>2021-02-23T12:31:09Z</time>
      </trkpt>
      <trkpt lat="43.45288" lon="5.76249">
        <ele>609.40002441406</ele>
        <time>2021-02-23T12:31:25Z</time>
      </trkpt>
      <trkpt lat="43.45293" lon="5.76272">
        <ele>606.59997558594</ele>
        <time>2021-02-23T12:31:41Z</time>
      </trkpt>
      <trkpt lat="43.45302" lon="5.76296">
        <ele>604</ele>
        <time>2021-02-23T12:31:58Z</time>
      </trkpt>
      <trkpt lat="43.45305" lon="5.76305">
        <ele>602.79998779297</ele>
        <time>2021-02-23T12:32:05Z</time>
      </trkpt>
      <trkpt lat="43.45316" lon="5.76316">
        <ele>601.59997558594</ele>
        <time>2021-02-23T12:32:15Z</time>
      </trkpt>
      <trkpt lat="43.45321" lon="5.76324">
        <ele>600.40002441406</ele>
        <time>2021-02-23T12:32:21Z</time>
      </trkpt>
      <trkpt lat="43.45326" lon="5.7633">
        <ele>600.20001220703</ele>
        <time>2021-02-23T12:32:26Z</time>
      </trkpt>
      <trkpt lat="43.45332" lon="5.7634">
        <ele>600</ele>
        <time>2021-02-23T12:32:34Z</time>
      </trkpt>
      <trkpt lat="43.45345" lon="5.7637">
        <ele>599.20001220703</ele>
        <time>2021-02-23T12:32:56Z</time>
      </trkpt>
      <trkpt lat="43.4536" lon="5.76397">
        <ele>596.59997558594</ele>
        <time>2021-02-23T12:33:15Z</time>
      </trkpt>
      <trkpt lat="43.45368" lon="5.76409">
        <ele>595.59997558594</ele>
        <time>2021-02-23T12:33:25Z</time>
      </trkpt>
      <trkpt lat="43.45371" lon="5.76414">
        <ele>595.59997558594</ele>
        <time>2021-02-23T12:33:29Z</time>
      </trkpt>
      <trkpt lat="43.45387" lon="5.76425">
        <ele>595.20001220703</ele>
        <time>2021-02-23T12:33:47Z</time>
      </trkpt>
      <trkpt lat="43.45389" lon="5.76426">
        <ele>595.20001220703</ele>
        <time>2021-02-23T12:33:49Z</time>
      </trkpt>
      <trkpt lat="43.45398" lon="5.76427">
        <ele>594.79998779297</ele>
        <time>2021-02-23T12:34:04Z</time>
      </trkpt>
      <trkpt lat="43.45406" lon="5.76418">
        <ele>597.79998779297</ele>
        <time>2021-02-23T12:34:27Z</time>
      </trkpt>
      <trkpt lat="43.45411" lon="5.76416">
        <ele>600.79998779297</ele>
        <time>2021-02-23T12:34:53Z</time>
      </trkpt>
      <trkpt lat="43.45419" lon="5.76406">
        <ele>603.59997558594</ele>
        <time>2021-02-23T12:35:15Z</time>
      </trkpt>
      <trkpt lat="43.45419" lon="5.76395">
        <ele>604.40002441406</ele>
        <time>2021-02-23T12:35:29Z</time>
      </trkpt>
      <trkpt lat="43.45422" lon="5.76391">
        <ele>604.59997558594</ele>
        <time>2021-02-23T12:35:35Z</time>
      </trkpt>
      <trkpt lat="43.45431" lon="5.76383">
        <ele>605.40002441406</ele>
        <time>2021-02-23T12:35:51Z</time>
      </trkpt>
      <trkpt lat="43.45439" lon="5.76377">
        <ele>608.79998779297</ele>
        <time>2021-02-23T12:36:17Z</time>
      </trkpt>
      <trkpt lat="43.4544" lon="5.76373">
        <ele>609.40002441406</ele>
        <time>2021-02-23T12:36:37Z</time>
      </trkpt>
      <trkpt lat="43.45445" lon="5.76372">
        <ele>609.40002441406</ele>
        <time>2021-02-23T12:36:44Z</time>
      </trkpt>
      <trkpt lat="43.4545" lon="5.76376">
        <ele>609</ele>
        <time>2021-02-23T12:36:59Z</time>
      </trkpt>
      <trkpt lat="43.45451" lon="5.76375">
        <ele>609.20001220703</ele>
        <time>2021-02-23T12:37:16Z</time>
      </trkpt>
      <trkpt lat="43.45451" lon="5.76376">
        <ele>609</ele>
        <time>2021-02-23T12:37:53Z</time>
      </trkpt>
      <trkpt lat="43.45457" lon="5.76379">
        <ele>609.20001220703</ele>
        <time>2021-02-23T12:38:11Z</time>
      </trkpt>
      <trkpt lat="43.45458" lon="5.76378">
        <ele>609.20001220703</ele>
        <time>2021-02-23T12:38:37Z</time>
      </trkpt>
      <trkpt lat="43.45461" lon="5.76375">
        <ele>609.20001220703</ele>
        <time>2021-02-23T12:39:31Z</time>
      </trkpt>
      <trkpt lat="43.45463" lon="5.76374">
        <ele>609.20001220703</ele>
        <time>2021-02-23T12:40:03Z</time>
      </trkpt>
      <trkpt lat="43.4546" lon="5.76376">
        <ele>609.40002441406</ele>
        <time>2021-02-23T12:40:37Z</time>
      </trkpt>
      <trkpt lat="43.45457" lon="5.76385">
        <ele>608</ele>
        <time>2021-02-23T12:40:57Z</time>
      </trkpt>
      <trkpt lat="43.45456" lon="5.76387">
        <ele>607.59997558594</ele>
        <time>2021-02-23T12:41:26Z</time>
      </trkpt>
      <trkpt lat="43.45458" lon="5.76385">
        <ele>607.20001220703</ele>
        <time>2021-02-23T12:42:04Z</time>
      </trkpt>
      <trkpt lat="43.45452" lon="5.76384">
        <ele>607.79998779297</ele>
        <time>2021-02-23T12:42:22Z</time>
      </trkpt>
      <trkpt lat="43.45446" lon="5.76392">
        <ele>606.40002441406</ele>
        <time>2021-02-23T12:42:46Z</time>
      </trkpt>
      <trkpt lat="43.45444" lon="5.76393">
        <ele>605.20001220703</ele>
        <time>2021-02-23T12:42:51Z</time>
      </trkpt>
      <trkpt lat="43.45428" lon="5.76393">
        <ele>605.59997558594</ele>
        <time>2021-02-23T12:43:13Z</time>
      </trkpt>
      <trkpt lat="43.45424" lon="5.76409">
        <ele>604.20001220703</ele>
        <time>2021-02-23T12:43:37Z</time>
      </trkpt>
      <trkpt lat="43.4542" lon="5.76416">
        <ele>602.40002441406</ele>
        <time>2021-02-23T12:43:55Z</time>
      </trkpt>
      <trkpt lat="43.45412" lon="5.76422">
        <ele>599.79998779297</ele>
        <time>2021-02-23T12:44:09Z</time>
      </trkpt>
      <trkpt lat="43.45406" lon="5.76429">
        <ele>596.40002441406</ele>
        <time>2021-02-23T12:44:22Z</time>
      </trkpt>
      <trkpt lat="43.45399" lon="5.76436">
        <ele>595.40002441406</ele>
        <time>2021-02-23T12:44:26Z</time>
      </trkpt>
      <trkpt lat="43.45395" lon="5.76464">
        <ele>592.20001220703</ele>
        <time>2021-02-23T12:44:44Z</time>
      </trkpt>
      <trkpt lat="43.45388" lon="5.7649">
        <ele>590.59997558594</ele>
        <time>2021-02-23T12:45:01Z</time>
      </trkpt>
      <trkpt lat="43.45389" lon="5.76495">
        <ele>590.40002441406</ele>
        <time>2021-02-23T12:45:04Z</time>
      </trkpt>
      <trkpt lat="43.45391" lon="5.76526">
        <ele>588.79998779297</ele>
        <time>2021-02-23T12:45:23Z</time>
      </trkpt>
      <trkpt lat="43.45396" lon="5.76547">
        <ele>587.20001220703</ele>
        <time>2021-02-23T12:45:41Z</time>
      </trkpt>
      <trkpt lat="43.45403" lon="5.76562">
        <ele>587.59997558594</ele>
        <time>2021-02-23T12:45:54Z</time>
      </trkpt>
      <trkpt lat="43.45406" lon="5.76591">
        <ele>588</ele>
        <time>2021-02-23T12:46:14Z</time>
      </trkpt>
      <trkpt lat="43.45405" lon="5.76602">
        <ele>588.20001220703</ele>
        <time>2021-02-23T12:46:19Z</time>
      </trkpt>
      <trkpt lat="43.45403" lon="5.76613">
        <ele>587.79998779297</ele>
        <time>2021-02-23T12:46:25Z</time>
      </trkpt>
      <trkpt lat="43.45401" lon="5.76637">
        <ele>587.40002441406</ele>
        <time>2021-02-23T12:46:41Z</time>
      </trkpt>
      <trkpt lat="43.45396" lon="5.76655">
        <ele>587.20001220703</ele>
        <time>2021-02-23T12:46:52Z</time>
      </trkpt>
      <trkpt lat="43.45387" lon="5.76679">
        <ele>586.20001220703</ele>
        <time>2021-02-23T12:47:09Z</time>
      </trkpt>
      <trkpt lat="43.45386" lon="5.76705">
        <ele>585.20001220703</ele>
        <time>2021-02-23T12:47:22Z</time>
      </trkpt>
      <trkpt lat="43.45387" lon="5.7672">
        <ele>584.40002441406</ele>
        <time>2021-02-23T12:47:30Z</time>
      </trkpt>
      <trkpt lat="43.45387" lon="5.76724">
        <ele>584</ele>
        <time>2021-02-23T12:47:32Z</time>
      </trkpt>
      <trkpt lat="43.45388" lon="5.76728">
        <ele>583.79998779297</ele>
        <time>2021-02-23T12:47:35Z</time>
      </trkpt>
      <trkpt lat="43.45396" lon="5.76739">
        <ele>583.79998779297</ele>
        <time>2021-02-23T12:47:44Z</time>
      </trkpt>
      <trkpt lat="43.4541" lon="5.76755">
        <ele>585.20001220703</ele>
        <time>2021-02-23T12:48:02Z</time>
      </trkpt>
      <trkpt lat="43.45412" lon="5.76761">
        <ele>586</ele>
        <time>2021-02-23T12:48:07Z</time>
      </trkpt>
      <trkpt lat="43.45408" lon="5.76782">
        <ele>589</ele>
        <time>2021-02-23T12:48:25Z</time>
      </trkpt>
      <trkpt lat="43.45404" lon="5.76798">
        <ele>592.20001220703</ele>
        <time>2021-02-23T12:48:41Z</time>
      </trkpt>
      <trkpt lat="43.45404" lon="5.76818">
        <ele>595.20001220703</ele>
        <time>2021-02-23T12:49:00Z</time>
      </trkpt>
      <trkpt lat="43.45409" lon="5.7683">
        <ele>596.79998779297</ele>
        <time>2021-02-23T12:49:11Z</time>
      </trkpt>
      <trkpt lat="43.45417" lon="5.76837">
        <ele>598.40002441406</ele>
        <time>2021-02-23T12:49:21Z</time>
      </trkpt>
      <trkpt lat="43.45424" lon="5.76841">
        <ele>601.40002441406</ele>
        <time>2021-02-23T12:49:38Z</time>
      </trkpt>
      <trkpt lat="43.45429" lon="5.76847">
        <ele>601.79998779297</ele>
        <time>2021-02-23T12:49:46Z</time>
      </trkpt>
      <trkpt lat="43.45439" lon="5.76859">
        <ele>603.20001220703</ele>
        <time>2021-02-23T12:50:02Z</time>
      </trkpt>
      <trkpt lat="43.45446" lon="5.76875">
        <ele>605.40002441406</ele>
        <time>2021-02-23T12:50:19Z</time>
      </trkpt>
      <trkpt lat="43.45454" lon="5.76893">
        <ele>606.79998779297</ele>
        <time>2021-02-23T12:50:39Z</time>
      </trkpt>
      <trkpt lat="43.45456" lon="5.76901">
        <ele>605.79998779297</ele>
        <time>2021-02-23T12:50:47Z</time>
      </trkpt>
      <trkpt lat="43.45454" lon="5.76919">
        <ele>602.40002441406</ele>
        <time>2021-02-23T12:51:02Z</time>
      </trkpt>
      <trkpt lat="43.45454" lon="5.76929">
        <ele>599.40002441406</ele>
        <time>2021-02-23T12:51:16Z</time>
      </trkpt>
      <trkpt lat="43.45445" lon="5.76938">
        <ele>598.40002441406</ele>
        <time>2021-02-23T12:51:33Z</time>
      </trkpt>
      <trkpt lat="43.45433" lon="5.76962">
        <ele>595.20001220703</ele>
        <time>2021-02-23T12:51:56Z</time>
      </trkpt>
      <trkpt lat="43.45426" lon="5.76985">
        <ele>593.20001220703</ele>
        <time>2021-02-23T12:52:12Z</time>
      </trkpt>
      <trkpt lat="43.45439" lon="5.77001">
        <ele>592.79998779297</ele>
        <time>2021-02-23T12:52:28Z</time>
      </trkpt>
      <trkpt lat="43.45454" lon="5.77021">
        <ele>593.79998779297</ele>
        <time>2021-02-23T12:52:46Z</time>
      </trkpt>
      <trkpt lat="43.45453" lon="5.77039">
        <ele>595.59997558594</ele>
        <time>2021-02-23T12:53:01Z</time>
      </trkpt>
      <trkpt lat="43.4545" lon="5.77048">
        <ele>595.59997558594</ele>
        <time>2021-02-23T12:53:06Z</time>
      </trkpt>
      <trkpt lat="43.45444" lon="5.77074">
        <ele>595.40002441406</ele>
        <time>2021-02-23T12:53:24Z</time>
      </trkpt>
      <trkpt lat="43.45447" lon="5.77083">
        <ele>595.40002441406</ele>
        <time>2021-02-23T12:53:29Z</time>
      </trkpt>
      <trkpt lat="43.45458" lon="5.77098">
        <ele>595.79998779297</ele>
        <time>2021-02-23T12:53:46Z</time>
      </trkpt>
      <trkpt lat="43.45469" lon="5.77109">
        <ele>598.59997558594</ele>
        <time>2021-02-23T12:54:07Z</time>
      </trkpt>
      <trkpt lat="43.4547" lon="5.77123">
        <ele>601.79998779297</ele>
        <time>2021-02-23T12:54:23Z</time>
      </trkpt>
      <trkpt lat="43.45464" lon="5.77134">
        <ele>604.79998779297</ele>
        <time>2021-02-23T12:54:39Z</time>
      </trkpt>
      <trkpt lat="43.45463" lon="5.77137">
        <ele>605.40002441406</ele>
        <time>2021-02-23T12:54:43Z</time>
      </trkpt>
      <trkpt lat="43.45469" lon="5.77156">
        <ele>608.79998779297</ele>
        <time>2021-02-23T12:55:03Z</time>
      </trkpt>
      <trkpt lat="43.4548" lon="5.77173">
        <ele>611.40002441406</ele>
        <time>2021-02-23T12:55:23Z</time>
      </trkpt>
      <trkpt lat="43.45491" lon="5.77178">
        <ele>614.20001220703</ele>
        <time>2021-02-23T12:55:40Z</time>
      </trkpt>
      <trkpt lat="43.45509" lon="5.7719">
        <ele>617.20001220703</ele>
        <time>2021-02-23T12:56:00Z</time>
      </trkpt>
      <trkpt lat="43.45516" lon="5.77197">
        <ele>618.40002441406</ele>
        <time>2021-02-23T12:56:06Z</time>
      </trkpt>
      <trkpt lat="43.45518" lon="5.77203">
        <ele>619.20001220703</ele>
        <time>2021-02-23T12:56:11Z</time>
      </trkpt>
      <trkpt lat="43.45517" lon="5.77218">
        <ele>620</ele>
        <time>2021-02-23T12:56:21Z</time>
      </trkpt>
      <trkpt lat="43.45516" lon="5.77221">
        <ele>620</ele>
        <time>2021-02-23T12:56:23Z</time>
      </trkpt>
      <trkpt lat="43.45509" lon="5.77241">
        <ele>621.20001220703</ele>
        <time>2021-02-23T12:56:40Z</time>
      </trkpt>
      <trkpt lat="43.4551" lon="5.7727">
        <ele>624.20001220703</ele>
        <time>2021-02-23T12:57:05Z</time>
      </trkpt>
      <trkpt lat="43.45517" lon="5.77298">
        <ele>627.20001220703</ele>
        <time>2021-02-23T12:57:27Z</time>
      </trkpt>
      <trkpt lat="43.45518" lon="5.77321">
        <ele>630.40002441406</ele>
        <time>2021-02-23T12:57:45Z</time>
      </trkpt>
      <trkpt lat="43.45525" lon="5.77345">
        <ele>633.59997558594</ele>
        <time>2021-02-23T12:58:04Z</time>
      </trkpt>
      <trkpt lat="43.45529" lon="5.77365">
        <ele>636.59997558594</ele>
        <time>2021-02-23T12:58:21Z</time>
      </trkpt>
      <trkpt lat="43.45532" lon="5.77377">
        <ele>638</ele>
        <time>2021-02-23T12:58:32Z</time>
      </trkpt>
      <trkpt lat="43.45532" lon="5.774">
        <ele>639</ele>
        <time>2021-02-23T12:58:46Z</time>
      </trkpt>
      <trkpt lat="43.45527" lon="5.77422">
        <ele>637.40002441406</ele>
        <time>2021-02-23T12:59:02Z</time>
      </trkpt>
      <trkpt lat="43.45516" lon="5.77443">
        <ele>634.79998779297</ele>
        <time>2021-02-23T12:59:19Z</time>
      </trkpt>
      <trkpt lat="43.4551" lon="5.77462">
        <ele>632.59997558594</ele>
        <time>2021-02-23T12:59:35Z</time>
      </trkpt>
      <trkpt lat="43.4551" lon="5.77489">
        <ele>630.79998779297</ele>
        <time>2021-02-23T13:00:01Z</time>
      </trkpt>
      <trkpt lat="43.45513" lon="5.77494">
        <ele>630.40002441406</ele>
        <time>2021-02-23T13:00:07Z</time>
      </trkpt>
      <trkpt lat="43.45514" lon="5.77515">
        <ele>630.59997558594</ele>
        <time>2021-02-23T13:00:27Z</time>
      </trkpt>
      <trkpt lat="43.45511" lon="5.77523">
        <ele>630.40002441406</ele>
        <time>2021-02-23T13:00:34Z</time>
      </trkpt>
      <trkpt lat="43.45506" lon="5.77541">
        <ele>628.79998779297</ele>
        <time>2021-02-23T13:00:49Z</time>
      </trkpt>
      <trkpt lat="43.45503" lon="5.77555">
        <ele>628</ele>
        <time>2021-02-23T13:01:02Z</time>
      </trkpt>
      <trkpt lat="43.45507" lon="5.77573">
        <ele>628</ele>
        <time>2021-02-23T13:01:18Z</time>
      </trkpt>
      <trkpt lat="43.45509" lon="5.77585">
        <ele>628.59997558594</ele>
        <time>2021-02-23T13:01:30Z</time>
      </trkpt>
      <trkpt lat="43.45506" lon="5.77611">
        <ele>630.20001220703</ele>
        <time>2021-02-23T13:01:47Z</time>
      </trkpt>
      <trkpt lat="43.45502" lon="5.77627">
        <ele>632.40002441406</ele>
        <time>2021-02-23T13:02:02Z</time>
      </trkpt>
      <trkpt lat="43.45498" lon="5.77659">
        <ele>635.40002441406</ele>
        <time>2021-02-23T13:02:27Z</time>
      </trkpt>
      <trkpt lat="43.45495" lon="5.77689">
        <ele>638.40002441406</ele>
        <time>2021-02-23T13:02:51Z</time>
      </trkpt>
      <trkpt lat="43.45487" lon="5.77723">
        <ele>641.59997558594</ele>
        <time>2021-02-23T13:03:16Z</time>
      </trkpt>
      <trkpt lat="43.45484" lon="5.77761">
        <ele>644.59997558594</ele>
        <time>2021-02-23T13:03:42Z</time>
      </trkpt>
      <trkpt lat="43.45478" lon="5.77772">
        <ele>645.79998779297</ele>
        <time>2021-02-23T13:03:52Z</time>
      </trkpt>
      <trkpt lat="43.45474" lon="5.77796">
        <ele>648</ele>
        <time>2021-02-23T13:04:10Z</time>
      </trkpt>
      <trkpt lat="43.45474" lon="5.77811">
        <ele>650</ele>
        <time>2021-02-23T13:04:21Z</time>
      </trkpt>
      <trkpt lat="43.45488" lon="5.77825">
        <ele>651</ele>
        <time>2021-02-23T13:04:37Z</time>
      </trkpt>
      <trkpt lat="43.45507" lon="5.77823">
        <ele>653.59997558594</ele>
        <time>2021-02-23T13:05:01Z</time>
      </trkpt>
      <trkpt lat="43.45517" lon="5.77824">
        <ele>657</ele>
        <time>2021-02-23T13:05:19Z</time>
      </trkpt>
      <trkpt lat="43.45521" lon="5.77836">
        <ele>660</ele>
        <time>2021-02-23T13:05:37Z</time>
      </trkpt>
      <trkpt lat="43.45533" lon="5.77838">
        <ele>663.20001220703</ele>
        <time>2021-02-23T13:05:58Z</time>
      </trkpt>
      <trkpt lat="43.45539" lon="5.77839">
        <ele>666.20001220703</ele>
        <time>2021-02-23T13:06:15Z</time>
      </trkpt>
      <trkpt lat="43.4555" lon="5.77845">
        <ele>668.79998779297</ele>
        <time>2021-02-23T13:06:35Z</time>
      </trkpt>
      <trkpt lat="43.45558" lon="5.77838">
        <ele>672</ele>
        <time>2021-02-23T13:06:58Z</time>
      </trkpt>
      <trkpt lat="43.45561" lon="5.7783">
        <ele>675</ele>
        <time>2021-02-23T13:07:16Z</time>
      </trkpt>
      <trkpt lat="43.45569" lon="5.77831">
        <ele>675.59997558594</ele>
        <time>2021-02-23T13:07:34Z</time>
      </trkpt>
      <trkpt lat="43.45583" lon="5.77836">
        <ele>678.59997558594</ele>
        <time>2021-02-23T13:07:56Z</time>
      </trkpt>
      <trkpt lat="43.45585" lon="5.77856">
        <ele>681</ele>
        <time>2021-02-23T13:08:15Z</time>
      </trkpt>
      <trkpt lat="43.456" lon="5.77877">
        <ele>683.20001220703</ele>
        <time>2021-02-23T13:08:35Z</time>
      </trkpt>
      <trkpt lat="43.45604" lon="5.77899">
        <ele>686.40002441406</ele>
        <time>2021-02-23T13:08:54Z</time>
      </trkpt>
      <trkpt lat="43.45604" lon="5.77917">
        <ele>689.40002441406</ele>
        <time>2021-02-23T13:09:13Z</time>
      </trkpt>
      <trkpt lat="43.45604" lon="5.77933">
        <ele>692.40002441406</ele>
        <time>2021-02-23T13:09:36Z</time>
      </trkpt>
      <trkpt lat="43.45605" lon="5.77937">
        <ele>693.20001220703</ele>
        <time>2021-02-23T13:09:42Z</time>
      </trkpt>
      <trkpt lat="43.4561" lon="5.77956">
        <ele>696.59997558594</ele>
        <time>2021-02-23T13:10:03Z</time>
      </trkpt>
      <trkpt lat="43.45612" lon="5.77968">
        <ele>699.59997558594</ele>
        <time>2021-02-23T13:10:23Z</time>
      </trkpt>
      <trkpt lat="43.45623" lon="5.77975">
        <ele>702.59997558594</ele>
        <time>2021-02-23T13:10:41Z</time>
      </trkpt>
      <trkpt lat="43.45624" lon="5.77987">
        <ele>705.59997558594</ele>
        <time>2021-02-23T13:11:03Z</time>
      </trkpt>
      <trkpt lat="43.45629" lon="5.78001">
        <ele>708.79998779297</ele>
        <time>2021-02-23T13:11:23Z</time>
      </trkpt>
      <trkpt lat="43.45637" lon="5.78011">
        <ele>711.79998779297</ele>
        <time>2021-02-23T13:11:40Z</time>
      </trkpt>
      <trkpt lat="43.45653" lon="5.78017">
        <ele>715</ele>
        <time>2021-02-23T13:12:01Z</time>
      </trkpt>
      <trkpt lat="43.45671" lon="5.78025">
        <ele>716</ele>
        <time>2021-02-23T13:12:22Z</time>
      </trkpt>
      <trkpt lat="43.45681" lon="5.7803">
        <ele>717.79998779297</ele>
        <time>2021-02-23T13:12:38Z</time>
      </trkpt>
      <trkpt lat="43.45693" lon="5.78032">
        <ele>717.79998779297</ele>
        <time>2021-02-23T13:12:53Z</time>
      </trkpt>
      <trkpt lat="43.45706" lon="5.78037">
        <ele>717</ele>
        <time>2021-02-23T13:13:11Z</time>
      </trkpt>
      <trkpt lat="43.45711" lon="5.78043">
        <ele>716</ele>
        <time>2021-02-23T13:13:32Z</time>
      </trkpt>
      <trkpt lat="43.45716" lon="5.7804">
        <ele>716.20001220703</ele>
        <time>2021-02-23T13:14:16Z</time>
      </trkpt>
      <trkpt lat="43.4572" lon="5.78035">
        <ele>714.79998779297</ele>
        <time>2021-02-23T13:14:35Z</time>
      </trkpt>
      <trkpt lat="43.45717" lon="5.78033">
        <ele>714.59997558594</ele>
        <time>2021-02-23T13:14:53Z</time>
      </trkpt>
      <trkpt lat="43.45722" lon="5.78023">
        <ele>712.20001220703</ele>
        <time>2021-02-23T13:15:18Z</time>
      </trkpt>
      <trkpt lat="43.45721" lon="5.78015">
        <ele>710.79998779297</ele>
        <time>2021-02-23T13:15:41Z</time>
      </trkpt>
      <trkpt lat="43.45715" lon="5.78011">
        <ele>710</ele>
        <time>2021-02-23T13:15:58Z</time>
      </trkpt>
      <trkpt lat="43.45709" lon="5.78015">
        <ele>711</ele>
        <time>2021-02-23T13:16:23Z</time>
      </trkpt>
      <trkpt lat="43.4571" lon="5.78012">
        <ele>711</ele>
        <time>2021-02-23T13:17:04Z</time>
      </trkpt>
      <trkpt lat="43.45711" lon="5.78008">
        <ele>710.59997558594</ele>
        <time>2021-02-23T13:17:33Z</time>
      </trkpt>
      <trkpt lat="43.45708" lon="5.78006">
        <ele>710.40002441406</ele>
        <time>2021-02-23T13:17:55Z</time>
      </trkpt>
      <trkpt lat="43.45705" lon="5.78002">
        <ele>710.79998779297</ele>
        <time>2021-02-23T13:18:18Z</time>
      </trkpt>
      <trkpt lat="43.45704" lon="5.78004">
        <ele>710.79998779297</ele>
        <time>2021-02-23T13:19:04Z</time>
      </trkpt>
      <trkpt lat="43.45704" lon="5.78002">
        <ele>711</ele>
        <time>2021-02-23T13:19:11Z</time>
      </trkpt>
      <trkpt lat="43.45703" lon="5.78001">
        <ele>710</ele>
        <time>2021-02-23T13:19:51Z</time>
      </trkpt>
      <trkpt lat="43.45703" lon="5.78002">
        <ele>710</ele>
        <time>2021-02-23T13:20:43Z</time>
      </trkpt>
      <trkpt lat="43.45706" lon="5.78005">
        <ele>710.20001220703</ele>
        <time>2021-02-23T13:21:23Z</time>
      </trkpt>
      <trkpt lat="43.45708" lon="5.78002">
        <ele>709</ele>
        <time>2021-02-23T13:21:53Z</time>
      </trkpt>
      <trkpt lat="43.45709" lon="5.78005">
        <ele>709.79998779297</ele>
        <time>2021-02-23T13:22:41Z</time>
      </trkpt>
      <trkpt lat="43.45706" lon="5.78006">
        <ele>710.20001220703</ele>
        <time>2021-02-23T13:23:07Z</time>
      </trkpt>
      <trkpt lat="43.45709" lon="5.78009">
        <ele>710.20001220703</ele>
        <time>2021-02-23T13:23:22Z</time>
      </trkpt>
      <trkpt lat="43.45712" lon="5.78011">
        <ele>710.40002441406</ele>
        <time>2021-02-23T13:23:51Z</time>
      </trkpt>
      <trkpt lat="43.45709" lon="5.78012">
        <ele>710.20001220703</ele>
        <time>2021-02-23T13:24:27Z</time>
      </trkpt>
      <trkpt lat="43.45709" lon="5.78015">
        <ele>710.20001220703</ele>
        <time>2021-02-23T13:25:06Z</time>
      </trkpt>
      <trkpt lat="43.45711" lon="5.78016">
        <ele>710</ele>
        <time>2021-02-23T13:25:45Z</time>
      </trkpt>
      <trkpt lat="43.45713" lon="5.78012">
        <ele>710.20001220703</ele>
        <time>2021-02-23T13:26:28Z</time>
      </trkpt>
      <trkpt lat="43.45712" lon="5.78019">
        <ele>710</ele>
        <time>2021-02-23T13:26:49Z</time>
      </trkpt>
      <trkpt lat="43.45708" lon="5.78035">
        <ele>713.20001220703</ele>
        <time>2021-02-23T13:27:12Z</time>
      </trkpt>
      <trkpt lat="43.45711" lon="5.78043">
        <ele>715.40002441406</ele>
        <time>2021-02-23T13:27:34Z</time>
      </trkpt>
      <trkpt lat="43.45705" lon="5.7804">
        <ele>715.59997558594</ele>
        <time>2021-02-23T13:28:07Z</time>
      </trkpt>
      <trkpt lat="43.45691" lon="5.7803">
        <ele>716</ele>
        <time>2021-02-23T13:28:31Z</time>
      </trkpt>
      <trkpt lat="43.45676" lon="5.78029">
        <ele>717</ele>
        <time>2021-02-23T13:28:53Z</time>
      </trkpt>
      <trkpt lat="43.45663" lon="5.78021">
        <ele>716.59997558594</ele>
        <time>2021-02-23T13:29:14Z</time>
      </trkpt>
      <trkpt lat="43.45644" lon="5.78014">
        <ele>714.79998779297</ele>
        <time>2021-02-23T13:29:39Z</time>
      </trkpt>
      <trkpt lat="43.45637" lon="5.78009">
        <ele>712.20001220703</ele>
        <time>2021-02-23T13:29:59Z</time>
      </trkpt>
      <trkpt lat="43.45636" lon="5.78007">
        <ele>712.20001220703</ele>
        <time>2021-02-23T13:30:06Z</time>
      </trkpt>
      <trkpt lat="43.4563" lon="5.78">
        <ele>711.40002441406</ele>
        <time>2021-02-23T13:30:19Z</time>
      </trkpt>
      <trkpt lat="43.45624" lon="5.77987">
        <ele>708.59997558594</ele>
        <time>2021-02-23T13:30:32Z</time>
      </trkpt>
      <trkpt lat="43.4562" lon="5.77975">
        <ele>705.20001220703</ele>
        <time>2021-02-23T13:30:47Z</time>
      </trkpt>
      <trkpt lat="43.4561" lon="5.77967">
        <ele>702.20001220703</ele>
        <time>2021-02-23T13:31:04Z</time>
      </trkpt>
      <trkpt lat="43.45607" lon="5.77955">
        <ele>699.20001220703</ele>
        <time>2021-02-23T13:31:19Z</time>
      </trkpt>
      <trkpt lat="43.45604" lon="5.77941">
        <ele>696</ele>
        <time>2021-02-23T13:31:35Z</time>
      </trkpt>
      <trkpt lat="43.45599" lon="5.77928">
        <ele>693</ele>
        <time>2021-02-23T13:31:51Z</time>
      </trkpt>
      <trkpt lat="43.45599" lon="5.77911">
        <ele>690.40002441406</ele>
        <time>2021-02-23T13:32:09Z</time>
      </trkpt>
      <trkpt lat="43.456" lon="5.77892">
        <ele>687.40002441406</ele>
        <time>2021-02-23T13:32:28Z</time>
      </trkpt>
      <trkpt lat="43.45594" lon="5.77872">
        <ele>684.59997558594</ele>
        <time>2021-02-23T13:32:47Z</time>
      </trkpt>
      <trkpt lat="43.45591" lon="5.77857">
        <ele>681.59997558594</ele>
        <time>2021-02-23T13:33:12Z</time>
      </trkpt>
      <trkpt lat="43.45593" lon="5.77857">
        <ele>681.40002441406</ele>
        <time>2021-02-23T13:33:27Z</time>
      </trkpt>
      <trkpt lat="43.45588" lon="5.7785">
        <ele>680.59997558594</ele>
        <time>2021-02-23T13:33:48Z</time>
      </trkpt>
      <trkpt lat="43.4559" lon="5.77854">
        <ele>680.59997558594</ele>
        <time>2021-02-23T13:34:09Z</time>
      </trkpt>
      <trkpt lat="43.4559" lon="5.77854">
        <ele>681</ele>
        <time>2021-02-23T13:34:35Z</time>
      </trkpt>
      <trkpt lat="43.45592" lon="5.77854">
        <ele>681.20001220703</ele>
        <time>2021-02-23T13:35:26Z</time>
      </trkpt>
      <trkpt lat="43.45594" lon="5.77853">
        <ele>681.40002441406</ele>
        <time>2021-02-23T13:35:55Z</time>
      </trkpt>
      <trkpt lat="43.45587" lon="5.77852">
        <ele>681</ele>
        <time>2021-02-23T13:36:29Z</time>
      </trkpt>
      <trkpt lat="43.45584" lon="5.77849">
        <ele>681</ele>
        <time>2021-02-23T13:37:00Z</time>
      </trkpt>
      <trkpt lat="43.45577" lon="5.77834">
        <ele>679.59997558594</ele>
        <time>2021-02-23T13:37:14Z</time>
      </trkpt>
      <trkpt lat="43.45563" lon="5.77825">
        <ele>677</ele>
        <time>2021-02-23T13:37:31Z</time>
      </trkpt>
      <trkpt lat="43.45561" lon="5.77824">
        <ele>676.59997558594</ele>
        <time>2021-02-23T13:37:33Z</time>
      </trkpt>
      <trkpt lat="43.45553" lon="5.77833">
        <ele>674</ele>
        <time>2021-02-23T13:37:49Z</time>
      </trkpt>
      <trkpt lat="43.45545" lon="5.77836">
        <ele>671</ele>
        <time>2021-02-23T13:38:02Z</time>
      </trkpt>
      <trkpt lat="43.45536" lon="5.77834">
        <ele>668</ele>
        <time>2021-02-23T13:38:17Z</time>
      </trkpt>
      <trkpt lat="43.45529" lon="5.77837">
        <ele>664.79998779297</ele>
        <time>2021-02-23T13:38:31Z</time>
      </trkpt>
      <trkpt lat="43.45518" lon="5.77835">
        <ele>661.59997558594</ele>
        <time>2021-02-23T13:38:48Z</time>
      </trkpt>
      <trkpt lat="43.45509" lon="5.77822">
        <ele>658.59997558594</ele>
        <time>2021-02-23T13:39:04Z</time>
      </trkpt>
      <trkpt lat="43.45497" lon="5.77823">
        <ele>655.40002441406</ele>
        <time>2021-02-23T13:39:18Z</time>
      </trkpt>
      <trkpt lat="43.45485" lon="5.77826">
        <ele>652.79998779297</ele>
        <time>2021-02-23T13:39:29Z</time>
      </trkpt>
      <trkpt lat="43.45469" lon="5.77828">
        <ele>650.40002441406</ele>
        <time>2021-02-23T13:39:44Z</time>
      </trkpt>
      <trkpt lat="43.45465" lon="5.77834">
        <ele>650.40002441406</ele>
        <time>2021-02-23T13:39:48Z</time>
      </trkpt>
      <trkpt lat="43.45458" lon="5.77866">
        <ele>649</ele>
        <time>2021-02-23T13:40:06Z</time>
      </trkpt>
      <trkpt lat="43.45458" lon="5.77871">
        <ele>648.59997558594</ele>
        <time>2021-02-23T13:40:10Z</time>
      </trkpt>
      <trkpt lat="43.45452" lon="5.77884">
        <ele>647.40002441406</ele>
        <time>2021-02-23T13:40:20Z</time>
      </trkpt>
      <trkpt lat="43.45446" lon="5.77906">
        <ele>646.20001220703</ele>
        <time>2021-02-23T13:40:38Z</time>
      </trkpt>
      <trkpt lat="43.45441" lon="5.77926">
        <ele>644</ele>
        <time>2021-02-23T13:40:56Z</time>
      </trkpt>
      <trkpt lat="43.45429" lon="5.77939">
        <ele>641.59997558594</ele>
        <time>2021-02-23T13:41:15Z</time>
      </trkpt>
      <trkpt lat="43.45412" lon="5.7794">
        <ele>640.20001220703</ele>
        <time>2021-02-23T13:41:35Z</time>
      </trkpt>
      <trkpt lat="43.45392" lon="5.77948">
        <ele>638.20001220703</ele>
        <time>2021-02-23T13:41:56Z</time>
      </trkpt>
      <trkpt lat="43.45387" lon="5.77957">
        <ele>637.59997558594</ele>
        <time>2021-02-23T13:42:02Z</time>
      </trkpt>
      <trkpt lat="43.45384" lon="5.77964">
        <ele>637.20001220703</ele>
        <time>2021-02-23T13:42:07Z</time>
      </trkpt>
      <trkpt lat="43.45376" lon="5.77976">
        <ele>636</ele>
        <time>2021-02-23T13:42:18Z</time>
      </trkpt>
      <trkpt lat="43.45362" lon="5.77986">
        <ele>635</ele>
        <time>2021-02-23T13:42:32Z</time>
      </trkpt>
      <trkpt lat="43.45347" lon="5.78006">
        <ele>633</ele>
        <time>2021-02-23T13:42:50Z</time>
      </trkpt>
      <trkpt lat="43.45357" lon="5.78016">
        <ele>632.79998779297</ele>
        <time>2021-02-23T13:43:05Z</time>
      </trkpt>
      <trkpt lat="43.45361" lon="5.78028">
        <ele>632.79998779297</ele>
        <time>2021-02-23T13:43:15Z</time>
      </trkpt>
      <trkpt lat="43.45371" lon="5.78026">
        <ele>632.59997558594</ele>
        <time>2021-02-23T13:43:34Z</time>
      </trkpt>
      <trkpt lat="43.45373" lon="5.78024">
        <ele>632</ele>
        <time>2021-02-23T13:43:37Z</time>
      </trkpt>
      <trkpt lat="43.45382" lon="5.78018">
        <ele>628.40002441406</ele>
        <time>2021-02-23T13:43:51Z</time>
      </trkpt>
      <trkpt lat="43.45385" lon="5.78018">
        <ele>625.20001220703</ele>
        <time>2021-02-23T13:44:03Z</time>
      </trkpt>
      <trkpt lat="43.45383" lon="5.78017">
        <ele>624.20001220703</ele>
        <time>2021-02-23T13:44:08Z</time>
      </trkpt>
      <trkpt lat="43.45376" lon="5.78022">
        <ele>624</ele>
        <time>2021-02-23T13:44:27Z</time>
      </trkpt>
      <trkpt lat="43.45378" lon="5.78022">
        <ele>624.20001220703</ele>
        <time>2021-02-23T13:44:50Z</time>
      </trkpt>
      <trkpt lat="43.45376" lon="5.78019">
        <ele>624.20001220703</ele>
        <time>2021-02-23T13:45:10Z</time>
      </trkpt>
      <trkpt lat="43.45373" lon="5.78024">
        <ele>625.79998779297</ele>
        <time>2021-02-23T13:45:49Z</time>
      </trkpt>
      <trkpt lat="43.45373" lon="5.78018">
        <ele>626</ele>
        <time>2021-02-23T13:46:14Z</time>
      </trkpt>
      <trkpt lat="43.45369" lon="5.78011">
        <ele>627</ele>
        <time>2021-02-23T13:46:44Z</time>
      </trkpt>
      <trkpt lat="43.4537" lon="5.78014">
        <ele>627</ele>
        <time>2021-02-23T13:47:11Z</time>
      </trkpt>
      <trkpt lat="43.45367" lon="5.78018">
        <ele>627</ele>
        <time>2021-02-23T13:47:41Z</time>
      </trkpt>
      <trkpt lat="43.45373" lon="5.78018">
        <ele>624.20001220703</ele>
        <time>2021-02-23T13:47:59Z</time>
      </trkpt>
      <trkpt lat="43.45367" lon="5.78013">
        <ele>623.59997558594</ele>
        <time>2021-02-23T13:48:33Z</time>
      </trkpt>
      <trkpt lat="43.45372" lon="5.7801">
        <ele>623.59997558594</ele>
        <time>2021-02-23T13:48:55Z</time>
      </trkpt>
      <trkpt lat="43.45376" lon="5.78013">
        <ele>623.40002441406</ele>
        <time>2021-02-23T13:49:06Z</time>
      </trkpt>
      <trkpt lat="43.45368" lon="5.78017">
        <ele>623.20001220703</ele>
        <time>2021-02-23T13:49:47Z</time>
      </trkpt>
      <trkpt lat="43.45369" lon="5.78022">
        <ele>624</ele>
        <time>2021-02-23T13:50:27Z</time>
      </trkpt>
      <trkpt lat="43.45371" lon="5.78018">
        <ele>624.20001220703</ele>
        <time>2021-02-23T13:51:25Z</time>
      </trkpt>
      <trkpt lat="43.45375" lon="5.78015">
        <ele>624</ele>
        <time>2021-02-23T13:52:14Z</time>
      </trkpt>
      <trkpt lat="43.45374" lon="5.78017">
        <ele>623.59997558594</ele>
        <time>2021-02-23T13:52:29Z</time>
      </trkpt>
      <trkpt lat="43.45366" lon="5.78015">
        <ele>623.79998779297</ele>
        <time>2021-02-23T13:52:44Z</time>
      </trkpt>
      <trkpt lat="43.45361" lon="5.7802">
        <ele>623.79998779297</ele>
        <time>2021-02-23T13:53:02Z</time>
      </trkpt>
      <trkpt lat="43.45371" lon="5.78017">
        <ele>623.79998779297</ele>
        <time>2021-02-23T13:53:27Z</time>
      </trkpt>
      <trkpt lat="43.45373" lon="5.78016">
        <ele>624</ele>
        <time>2021-02-23T13:53:40Z</time>
      </trkpt>
      <trkpt lat="43.45373" lon="5.78011">
        <ele>624</ele>
        <time>2021-02-23T13:54:03Z</time>
      </trkpt>
      <trkpt lat="43.45383" lon="5.78">
        <ele>624.79998779297</ele>
        <time>2021-02-23T13:54:27Z</time>
      </trkpt>
      <trkpt lat="43.45386" lon="5.78015">
        <ele>621.79998779297</ele>
        <time>2021-02-23T13:54:51Z</time>
      </trkpt>
      <trkpt lat="43.4539" lon="5.7803">
        <ele>618.79998779297</ele>
        <time>2021-02-23T13:55:12Z</time>
      </trkpt>
      <trkpt lat="43.45392" lon="5.7804">
        <ele>615.59997558594</ele>
        <time>2021-02-23T13:55:30Z</time>
      </trkpt>
      <trkpt lat="43.45399" lon="5.78051">
        <ele>612.59997558594</ele>
        <time>2021-02-23T13:55:48Z</time>
      </trkpt>
      <trkpt lat="43.45412" lon="5.78061">
        <ele>609.20001220703</ele>
        <time>2021-02-23T13:56:09Z</time>
      </trkpt>
      <trkpt lat="43.45424" lon="5.78066">
        <ele>606</ele>
        <time>2021-02-23T13:56:27Z</time>
      </trkpt>
      <trkpt lat="43.45434" lon="5.78073">
        <ele>602.79998779297</ele>
        <time>2021-02-23T13:56:43Z</time>
      </trkpt>
      <trkpt lat="43.45438" lon="5.78086">
        <ele>599.79998779297</ele>
        <time>2021-02-23T13:57:02Z</time>
      </trkpt>
      <trkpt lat="43.4545" lon="5.78091">
        <ele>597.79998779297</ele>
        <time>2021-02-23T13:57:41Z</time>
      </trkpt>
      <trkpt lat="43.45451" lon="5.7811">
        <ele>594.59997558594</ele>
        <time>2021-02-23T13:58:06Z</time>
      </trkpt>
      <trkpt lat="43.4545" lon="5.78133">
        <ele>591.79998779297</ele>
        <time>2021-02-23T13:58:25Z</time>
      </trkpt>
      <trkpt lat="43.45447" lon="5.78154">
        <ele>588.59997558594</ele>
        <time>2021-02-23T13:58:43Z</time>
      </trkpt>
      <trkpt lat="43.45453" lon="5.78179">
        <ele>585.59997558594</ele>
        <time>2021-02-23T13:59:07Z</time>
      </trkpt>
      <trkpt lat="43.45456" lon="5.78199">
        <ele>582.59997558594</ele>
        <time>2021-02-23T13:59:26Z</time>
      </trkpt>
      <trkpt lat="43.45458" lon="5.78195">
        <ele>581.40002441406</ele>
        <time>2021-02-23T13:59:55Z</time>
      </trkpt>
      <trkpt lat="43.45456" lon="5.78196">
        <ele>582</ele>
        <time>2021-02-23T14:00:40Z</time>
      </trkpt>
      <trkpt lat="43.45449" lon="5.78209">
        <ele>580</ele>
        <time>2021-02-23T14:01:00Z</time>
      </trkpt>
      <trkpt lat="43.45448" lon="5.78215">
        <ele>578.59997558594</ele>
        <time>2021-02-23T14:01:10Z</time>
      </trkpt>
      <trkpt lat="43.45445" lon="5.78231">
        <ele>575.40002441406</ele>
        <time>2021-02-23T14:01:28Z</time>
      </trkpt>
      <trkpt lat="43.4544" lon="5.78245">
        <ele>572.40002441406</ele>
        <time>2021-02-23T14:01:47Z</time>
      </trkpt>
      <trkpt lat="43.45434" lon="5.78267">
        <ele>569.40002441406</ele>
        <time>2021-02-23T14:02:08Z</time>
      </trkpt>
      <trkpt lat="43.45433" lon="5.78282">
        <ele>566.40002441406</ele>
        <time>2021-02-23T14:02:26Z</time>
      </trkpt>
      <trkpt lat="43.45431" lon="5.78296">
        <ele>563.20001220703</ele>
        <time>2021-02-23T14:02:42Z</time>
      </trkpt>
      <trkpt lat="43.45431" lon="5.78312">
        <ele>560.20001220703</ele>
        <time>2021-02-23T14:03:01Z</time>
      </trkpt>
      <trkpt lat="43.45435" lon="5.78326">
        <ele>557.20001220703</ele>
        <time>2021-02-23T14:03:21Z</time>
      </trkpt>
      <trkpt lat="43.45437" lon="5.78335">
        <ele>554.20001220703</ele>
        <time>2021-02-23T14:03:39Z</time>
      </trkpt>
      <trkpt lat="43.45439" lon="5.78342">
        <ele>552.59997558594</ele>
        <time>2021-02-23T14:04:03Z</time>
      </trkpt>
      <trkpt lat="43.4544" lon="5.78357">
        <ele>549.79998779297</ele>
        <time>2021-02-23T14:04:23Z</time>
      </trkpt>
      <trkpt lat="43.45437" lon="5.78358">
        <ele>549.20001220703</ele>
        <time>2021-02-23T14:05:23Z</time>
      </trkpt>
      <trkpt lat="43.4543" lon="5.78377">
        <ele>547.20001220703</ele>
        <time>2021-02-23T14:05:44Z</time>
      </trkpt>
      <trkpt lat="43.45425" lon="5.78393">
        <ele>544</ele>
        <time>2021-02-23T14:06:03Z</time>
      </trkpt>
      <trkpt lat="43.4543" lon="5.78407">
        <ele>540.79998779297</ele>
        <time>2021-02-23T14:06:19Z</time>
      </trkpt>
      <trkpt lat="43.45435" lon="5.78422">
        <ele>537.79998779297</ele>
        <time>2021-02-23T14:06:36Z</time>
      </trkpt>
      <trkpt lat="43.4544" lon="5.78438">
        <ele>535</ele>
        <time>2021-02-23T14:06:54Z</time>
      </trkpt>
      <trkpt lat="43.45446" lon="5.78452">
        <ele>532.20001220703</ele>
        <time>2021-02-23T14:07:15Z</time>
      </trkpt>
      <trkpt lat="43.45451" lon="5.78471">
        <ele>529</ele>
        <time>2021-02-23T14:07:36Z</time>
      </trkpt>
      <trkpt lat="43.45457" lon="5.78487">
        <ele>526</ele>
        <time>2021-02-23T14:07:56Z</time>
      </trkpt>
      <trkpt lat="43.45461" lon="5.78505">
        <ele>522.79998779297</ele>
        <time>2021-02-23T14:08:15Z</time>
      </trkpt>
      <trkpt lat="43.45468" lon="5.78528">
        <ele>519.79998779297</ele>
        <time>2021-02-23T14:08:39Z</time>
      </trkpt>
      <trkpt lat="43.45474" lon="5.78542">
        <ele>516.79998779297</ele>
        <time>2021-02-23T14:08:56Z</time>
      </trkpt>
      <trkpt lat="43.45479" lon="5.78552">
        <ele>513.59997558594</ele>
        <time>2021-02-23T14:09:18Z</time>
      </trkpt>
      <trkpt lat="43.45481" lon="5.78568">
        <ele>511</ele>
        <time>2021-02-23T14:09:38Z</time>
      </trkpt>
      <trkpt lat="43.45483" lon="5.78573">
        <ele>510</ele>
        <time>2021-02-23T14:10:06Z</time>
      </trkpt>
      <trkpt lat="43.45481" lon="5.78575">
        <ele>509.60000610352</ele>
        <time>2021-02-23T14:10:17Z</time>
      </trkpt>
      <trkpt lat="43.45481" lon="5.78593">
        <ele>508.79998779297</ele>
        <time>2021-02-23T14:10:37Z</time>
      </trkpt>
      <trkpt lat="43.4547" lon="5.78607">
        <ele>507.39999389648</ele>
        <time>2021-02-23T14:10:54Z</time>
      </trkpt>
      <trkpt lat="43.45464" lon="5.78622">
        <ele>507.79998779297</ele>
        <time>2021-02-23T14:11:17Z</time>
      </trkpt>
      <trkpt lat="43.45471" lon="5.78635">
        <ele>506</ele>
        <time>2021-02-23T14:11:40Z</time>
      </trkpt>
      <trkpt lat="43.45473" lon="5.7865">
        <ele>502.79998779297</ele>
        <time>2021-02-23T14:11:54Z</time>
      </trkpt>
      <trkpt lat="43.45475" lon="5.78666">
        <ele>499.60000610352</ele>
        <time>2021-02-23T14:12:13Z</time>
      </trkpt>
      <trkpt lat="43.45478" lon="5.78677">
        <ele>497</ele>
        <time>2021-02-23T14:12:28Z</time>
      </trkpt>
      <trkpt lat="43.45491" lon="5.78667">
        <ele>494.79998779297</ele>
        <time>2021-02-23T14:12:43Z</time>
      </trkpt>
      <trkpt lat="43.45494" lon="5.78671">
        <ele>494.79998779297</ele>
        <time>2021-02-23T14:13:01Z</time>
      </trkpt>
      <trkpt lat="43.45491" lon="5.78667">
        <ele>494.79998779297</ele>
        <time>2021-02-23T14:13:14Z</time>
      </trkpt>
      <trkpt lat="43.45493" lon="5.78661">
        <ele>494.79998779297</ele>
        <time>2021-02-23T14:13:19Z</time>
      </trkpt>
      <trkpt lat="43.45499" lon="5.78658">
        <ele>495</ele>
        <time>2021-02-23T14:13:35Z</time>
      </trkpt>
      <trkpt lat="43.45495" lon="5.78654">
        <ele>495.20001220703</ele>
        <time>2021-02-23T14:13:57Z</time>
      </trkpt>
      <trkpt lat="43.45487" lon="5.78665">
        <ele>495</ele>
        <time>2021-02-23T14:14:12Z</time>
      </trkpt>
      <trkpt lat="43.45482" lon="5.78681">
        <ele>494.60000610352</ele>
        <time>2021-02-23T14:14:28Z</time>
      </trkpt>
      <trkpt lat="43.45482" lon="5.78684">
        <ele>494.20001220703</ele>
        <time>2021-02-23T14:14:33Z</time>
      </trkpt>
      <trkpt lat="43.45477" lon="5.78701">
        <ele>493.60000610352</ele>
        <time>2021-02-23T14:14:48Z</time>
      </trkpt>
      <trkpt lat="43.45476" lon="5.78714">
        <ele>493.39999389648</ele>
        <time>2021-02-23T14:14:58Z</time>
      </trkpt>
      <trkpt lat="43.45484" lon="5.78728">
        <ele>493</ele>
        <time>2021-02-23T14:15:11Z</time>
      </trkpt>
      <trkpt lat="43.45491" lon="5.78747">
        <ele>491.60000610352</ele>
        <time>2021-02-23T14:15:27Z</time>
      </trkpt>
      <trkpt lat="43.45494" lon="5.78761">
        <ele>489.79998779297</ele>
        <time>2021-02-23T14:15:43Z</time>
      </trkpt>
      <trkpt lat="43.45491" lon="5.78781">
        <ele>487.39999389648</ele>
        <time>2021-02-23T14:16:01Z</time>
      </trkpt>
      <trkpt lat="43.45491" lon="5.78804">
        <ele>484.20001220703</ele>
        <time>2021-02-23T14:16:18Z</time>
      </trkpt>
      <trkpt lat="43.45496" lon="5.78826">
        <ele>481.20001220703</ele>
        <time>2021-02-23T14:16:36Z</time>
      </trkpt>
      <trkpt lat="43.45505" lon="5.78846">
        <ele>478</ele>
        <time>2021-02-23T14:16:52Z</time>
      </trkpt>
      <trkpt lat="43.45506" lon="5.78848">
        <ele>477.39999389648</ele>
        <time>2021-02-23T14:16:54Z</time>
      </trkpt>
      <trkpt lat="43.45521" lon="5.78865">
        <ele>475</ele>
        <time>2021-02-23T14:17:10Z</time>
      </trkpt>
      <trkpt lat="43.45522" lon="5.78881">
        <ele>474</ele>
        <time>2021-02-23T14:17:24Z</time>
      </trkpt>
      <trkpt lat="43.45521" lon="5.78899">
        <ele>473.60000610352</ele>
        <time>2021-02-23T14:17:39Z</time>
      </trkpt>
      <trkpt lat="43.45522" lon="5.78916">
        <ele>473.79998779297</ele>
        <time>2021-02-23T14:17:55Z</time>
      </trkpt>
      <trkpt lat="43.45519" lon="5.78935">
        <ele>476.20001220703</ele>
        <time>2021-02-23T14:18:20Z</time>
      </trkpt>
      <trkpt lat="43.45519" lon="5.78936">
        <ele>477</ele>
        <time>2021-02-23T14:18:43Z</time>
      </trkpt>
      <trkpt lat="43.45518" lon="5.78933">
        <ele>476.60000610352</ele>
        <time>2021-02-23T14:19:34Z</time>
      </trkpt>
      <trkpt lat="43.45516" lon="5.78931">
        <ele>476.60000610352</ele>
        <time>2021-02-23T14:20:08Z</time>
      </trkpt>
      <trkpt lat="43.45514" lon="5.7894">
        <ele>476.60000610352</ele>
        <time>2021-02-23T14:20:34Z</time>
      </trkpt>
      <trkpt lat="43.45516" lon="5.7898">
        <ele>477</ele>
        <time>2021-02-23T14:20:55Z</time>
      </trkpt>
      <trkpt lat="43.4552" lon="5.79003">
        <ele>477</ele>
        <time>2021-02-23T14:21:14Z</time>
      </trkpt>
      <trkpt lat="43.45516" lon="5.79031">
        <ele>477.39999389648</ele>
        <time>2021-02-23T14:21:35Z</time>
      </trkpt>
      <trkpt lat="43.45519" lon="5.79049">
        <ele>476.60000610352</ele>
        <time>2021-02-23T14:21:54Z</time>
      </trkpt>
      <trkpt lat="43.45522" lon="5.79055">
        <ele>475</ele>
        <time>2021-02-23T14:22:05Z</time>
      </trkpt>
      <trkpt lat="43.45535" lon="5.79068">
        <ele>472.39999389648</ele>
        <time>2021-02-23T14:22:21Z</time>
      </trkpt>
      <trkpt lat="43.45547" lon="5.79084">
        <ele>469.39999389648</ele>
        <time>2021-02-23T14:22:37Z</time>
      </trkpt>
      <trkpt lat="43.45541" lon="5.79093">
        <ele>468.39999389648</ele>
        <time>2021-02-23T14:22:50Z</time>
      </trkpt>
      <trkpt lat="43.45541" lon="5.79097">
        <ele>468.39999389648</ele>
        <time>2021-02-23T14:23:08Z</time>
      </trkpt>
    </trkseg>
  </trk>
</gpx>